<?xml version="1.0" encoding="UTF-8" standalone="no" ?>
<gpx xmlns="http://www.topografix.com/GPX/1/1" xmlns:xsi="http://www.w3.org/2001/XMLSchema-instance" xsi:schemaLocation="http://www.topografix.com/GPX/1/1 http://www.topografix.com/GPX/1/1/gpx.xsd" version="1.1" creator="VisuGPX - https://www.visugpx.com">
  <metadata>
    <name>Annecy-Refuge Larrieux</name>
  </metadata>
  <trk>
    <name><![CDATA[Annecy-Refuge Larrieux_1]]></name>
    <extensions>
      <line xmlns="http://www.topografix.com/GPX/gpx_style/0/2">
        <color>0000FF</color>
        <width>4</width>
      </line>
    </extensions>
    <trkseg>
      <trkpt lat="45.90387" lon="6.15996">
        <ele>448</ele>
        <time>2000-01-01T23:16:49.000Z</time>
      </trkpt>
      <trkpt lat="45.90387" lon="6.16014">
        <ele>454.4</ele>
        <time>2000-01-01T23:16:39.000Z</time>
      </trkpt>
      <trkpt lat="45.90392" lon="6.16029">
        <ele>452</ele>
        <time>2000-01-01T23:16:29.000Z</time>
      </trkpt>
      <trkpt lat="45.90394" lon="6.16033">
        <ele>456.8</ele>
        <time>2000-01-01T23:16:19.000Z</time>
      </trkpt>
      <trkpt lat="45.90402" lon="6.16054">
        <ele>456</ele>
        <time>2000-01-01T23:16:09.000Z</time>
      </trkpt>
      <trkpt lat="45.90406" lon="6.16067">
        <ele>461</ele>
        <time>2000-01-01T23:15:59.000Z</time>
      </trkpt>
      <trkpt lat="45.90411" lon="6.16079">
        <ele>462.5</ele>
        <time>2000-01-01T23:15:49.000Z</time>
      </trkpt>
      <trkpt lat="45.90412" lon="6.16083">
        <ele>460</ele>
        <time>2000-01-01T23:15:39.000Z</time>
      </trkpt>
      <trkpt lat="45.90418" lon="6.16101">
        <ele>465.7</ele>
        <time>2000-01-01T23:15:29.000Z</time>
      </trkpt>
      <trkpt lat="45.90421" lon="6.16116">
        <ele>465</ele>
        <time>2000-01-01T23:15:19.000Z</time>
      </trkpt>
      <trkpt lat="45.90426" lon="6.16128">
        <ele>469.8</ele>
        <time>2000-01-01T23:15:09.000Z</time>
      </trkpt>
      <trkpt lat="45.90433" lon="6.16141">
        <ele>469</ele>
        <time>2000-01-01T23:14:59.000Z</time>
      </trkpt>
      <trkpt lat="45.90443" lon="6.16159">
        <ele>473.9</ele>
        <time>2000-01-01T23:14:49.000Z</time>
      </trkpt>
      <trkpt lat="45.90447" lon="6.16172">
        <ele>476.1</ele>
        <time>2000-01-01T23:14:39.000Z</time>
      </trkpt>
      <trkpt lat="45.90446" lon="6.16185">
        <ele>475</ele>
        <time>2000-01-01T23:14:29.000Z</time>
      </trkpt>
      <trkpt lat="45.90449" lon="6.16199">
        <ele>481.8</ele>
        <time>2000-01-01T23:14:19.000Z</time>
      </trkpt>
      <trkpt lat="45.90449" lon="6.16214">
        <ele>478</ele>
        <time>2000-01-01T23:14:09.000Z</time>
      </trkpt>
      <trkpt lat="45.9045" lon="6.16231">
        <ele>488.5</ele>
        <time>2000-01-01T23:13:59.000Z</time>
      </trkpt>
      <trkpt lat="45.90447" lon="6.16245">
        <ele>483</ele>
        <time>2000-01-01T23:13:49.000Z</time>
      </trkpt>
      <trkpt lat="45.90447" lon="6.16259">
        <ele>495.6</ele>
        <time>2000-01-01T23:13:39.000Z</time>
      </trkpt>
      <trkpt lat="45.90446" lon="6.16273">
        <ele>500</ele>
        <time>2000-01-01T23:13:29.000Z</time>
      </trkpt>
      <trkpt lat="45.90448" lon="6.16285">
        <ele>492</ele>
        <time>2000-01-01T23:13:19.000Z</time>
      </trkpt>
      <trkpt lat="45.90449" lon="6.16299">
        <ele>507.9</ele>
        <time>2000-01-01T23:13:09.000Z</time>
      </trkpt>
      <trkpt lat="45.90448" lon="6.16313">
        <ele>499</ele>
        <time>2000-01-01T23:12:59.000Z</time>
      </trkpt>
      <trkpt lat="45.9045" lon="6.16329">
        <ele>517.1</ele>
        <time>2000-01-01T23:12:49.000Z</time>
      </trkpt>
      <trkpt lat="45.90454" lon="6.16341">
        <ele>521.4</ele>
        <time>2000-01-01T23:12:39.000Z</time>
      </trkpt>
      <trkpt lat="45.90461" lon="6.16349">
        <ele>509</ele>
        <time>2000-01-01T23:12:29.000Z</time>
      </trkpt>
      <trkpt lat="45.90468" lon="6.16358">
        <ele>527.5</ele>
        <time>2000-01-01T23:12:19.000Z</time>
      </trkpt>
      <trkpt lat="45.90477" lon="6.16368">
        <ele>513</ele>
        <time>2000-01-01T23:12:09.000Z</time>
      </trkpt>
      <trkpt lat="45.90487" lon="6.16377">
        <ele>533.5</ele>
        <time>2000-01-01T23:11:59.000Z</time>
      </trkpt>
      <trkpt lat="45.90497" lon="6.16382">
        <ele>519</ele>
        <time>2000-01-01T23:11:49.000Z</time>
      </trkpt>
      <trkpt lat="45.90506" lon="6.1639">
        <ele>536.6</ele>
        <time>2000-01-01T23:11:39.000Z</time>
      </trkpt>
      <trkpt lat="45.90513" lon="6.16401">
        <ele>527</ele>
        <time>2000-01-01T23:11:29.000Z</time>
      </trkpt>
      <trkpt lat="45.9052" lon="6.16411">
        <ele>542.9</ele>
        <time>2000-01-01T23:11:19.000Z</time>
      </trkpt>
      <trkpt lat="45.90528" lon="6.16419">
        <ele>528</ele>
        <time>2000-01-01T23:11:09.000Z</time>
      </trkpt>
      <trkpt lat="45.90538" lon="6.16429">
        <ele>548.6</ele>
        <time>2000-01-01T23:10:59.000Z</time>
      </trkpt>
      <trkpt lat="45.90546" lon="6.16438">
        <ele>534</ele>
        <time>2000-01-01T23:10:49.000Z</time>
      </trkpt>
      <trkpt lat="45.90556" lon="6.16447">
        <ele>555.6</ele>
        <time>2000-01-01T23:10:39.000Z</time>
      </trkpt>
      <trkpt lat="45.90567" lon="6.16454">
        <ele>542</ele>
        <time>2000-01-01T23:10:29.000Z</time>
      </trkpt>
      <trkpt lat="45.90575" lon="6.16465">
        <ele>562.8</ele>
        <time>2000-01-01T23:10:19.000Z</time>
      </trkpt>
      <trkpt lat="45.90584" lon="6.16473">
        <ele>548</ele>
        <time>2000-01-01T23:10:09.000Z</time>
      </trkpt>
      <trkpt lat="45.90588" lon="6.1648">
        <ele>569.5</ele>
        <time>2000-01-01T23:09:59.000Z</time>
      </trkpt>
      <trkpt lat="45.90601" lon="6.16486">
        <ele>548</ele>
        <time>2000-01-01T23:09:49.000Z</time>
      </trkpt>
      <trkpt lat="45.90609" lon="6.16488">
        <ele>570.9</ele>
        <time>2000-01-01T23:09:39.000Z</time>
      </trkpt>
      <trkpt lat="45.90618" lon="6.16498">
        <ele>553</ele>
        <time>2000-01-01T23:09:29.000Z</time>
      </trkpt>
      <trkpt lat="45.90628" lon="6.16506">
        <ele>578.3</ele>
        <time>2000-01-01T23:09:19.000Z</time>
      </trkpt>
      <trkpt lat="45.90638" lon="6.16513">
        <ele>563</ele>
        <time>2000-01-01T23:09:09.000Z</time>
      </trkpt>
      <trkpt lat="45.90647" lon="6.1652">
        <ele>584.5</ele>
        <time>2000-01-01T23:08:59.000Z</time>
      </trkpt>
      <trkpt lat="45.90655" lon="6.16528">
        <ele>564</ele>
        <time>2000-01-01T23:08:49.000Z</time>
      </trkpt>
      <trkpt lat="45.90663" lon="6.16535">
        <ele>592.4</ele>
        <time>2000-01-01T23:08:39.000Z</time>
      </trkpt>
      <trkpt lat="45.90673" lon="6.16543">
        <ele>572</ele>
        <time>2000-01-01T23:08:29.000Z</time>
      </trkpt>
      <trkpt lat="45.90681" lon="6.16551">
        <ele>600.3</ele>
        <time>2000-01-01T23:08:19.000Z</time>
      </trkpt>
      <trkpt lat="45.90691" lon="6.16554">
        <ele>572</ele>
        <time>2000-01-01T23:08:09.000Z</time>
      </trkpt>
      <trkpt lat="45.90701" lon="6.16559">
        <ele>601.8</ele>
        <time>2000-01-01T23:07:59.000Z</time>
      </trkpt>
      <trkpt lat="45.9071" lon="6.16567">
        <ele>575</ele>
        <time>2000-01-01T23:07:49.000Z</time>
      </trkpt>
      <trkpt lat="45.90718" lon="6.16578">
        <ele>610.5</ele>
        <time>2000-01-01T23:07:39.000Z</time>
      </trkpt>
      <trkpt lat="45.90728" lon="6.16584">
        <ele>582</ele>
        <time>2000-01-01T23:07:29.000Z</time>
      </trkpt>
      <trkpt lat="45.90737" lon="6.16587">
        <ele>612.6</ele>
        <time>2000-01-01T23:07:19.000Z</time>
      </trkpt>
      <trkpt lat="45.90747" lon="6.16588">
        <ele>585</ele>
        <time>2000-01-01T23:07:09.000Z</time>
      </trkpt>
      <trkpt lat="45.90756" lon="6.16594">
        <ele>613.8</ele>
        <time>2000-01-01T23:06:59.000Z</time>
      </trkpt>
      <trkpt lat="45.90764" lon="6.16601">
        <ele>588</ele>
        <time>2000-01-01T23:06:49.000Z</time>
      </trkpt>
      <trkpt lat="45.90776" lon="6.16605">
        <ele>617.9</ele>
        <time>2000-01-01T23:06:39.000Z</time>
      </trkpt>
      <trkpt lat="45.90786" lon="6.16605">
        <ele>592</ele>
        <time>2000-01-01T23:06:29.000Z</time>
      </trkpt>
      <trkpt lat="45.90796" lon="6.16607">
        <ele>615.3</ele>
        <time>2000-01-01T23:06:19.000Z</time>
      </trkpt>
      <trkpt lat="45.90805" lon="6.16609">
        <ele>589</ele>
        <time>2000-01-01T23:06:09.000Z</time>
      </trkpt>
      <trkpt lat="45.90814" lon="6.16611">
        <ele>614.5</ele>
        <time>2000-01-01T23:05:59.000Z</time>
      </trkpt>
      <trkpt lat="45.90824" lon="6.16612">
        <ele>613.2</ele>
        <time>2000-01-01T23:05:49.000Z</time>
      </trkpt>
      <trkpt lat="45.90833" lon="6.16612">
        <ele>589</ele>
        <time>2000-01-01T23:05:39.000Z</time>
      </trkpt>
      <trkpt lat="45.90843" lon="6.16608">
        <ele>607.1</ele>
        <time>2000-01-01T23:05:29.000Z</time>
      </trkpt>
      <trkpt lat="45.90853" lon="6.16609">
        <ele>584</ele>
        <time>2000-01-01T23:05:19.000Z</time>
      </trkpt>
      <trkpt lat="45.90864" lon="6.16612">
        <ele>606.8</ele>
        <time>2000-01-01T23:05:09.000Z</time>
      </trkpt>
      <trkpt lat="45.90874" lon="6.16619">
        <ele>584</ele>
        <time>2000-01-01T23:04:59.000Z</time>
      </trkpt>
      <trkpt lat="45.90883" lon="6.16623">
        <ele>610.9</ele>
        <time>2000-01-01T23:04:49.000Z</time>
      </trkpt>
      <trkpt lat="45.90892" lon="6.16628">
        <ele>584</ele>
        <time>2000-01-01T23:04:39.000Z</time>
      </trkpt>
      <trkpt lat="45.90903" lon="6.16628">
        <ele>610.6</ele>
        <time>2000-01-01T23:04:29.000Z</time>
      </trkpt>
      <trkpt lat="45.90912" lon="6.16629">
        <ele>609.6</ele>
        <time>2000-01-01T23:04:19.000Z</time>
      </trkpt>
      <trkpt lat="45.90921" lon="6.1663">
        <ele>584</ele>
        <time>2000-01-01T23:04:09.000Z</time>
      </trkpt>
      <trkpt lat="45.90931" lon="6.16628">
        <ele>605.9</ele>
        <time>2000-01-01T23:03:59.000Z</time>
      </trkpt>
      <trkpt lat="45.90941" lon="6.16631">
        <ele>584</ele>
        <time>2000-01-01T23:03:49.000Z</time>
      </trkpt>
      <trkpt lat="45.9095" lon="6.16633">
        <ele>605.3</ele>
        <time>2000-01-01T23:03:39.000Z</time>
      </trkpt>
      <trkpt lat="45.9096" lon="6.16633">
        <ele>586</ele>
        <time>2000-01-01T23:03:29.000Z</time>
      </trkpt>
      <trkpt lat="45.9097" lon="6.16633">
        <ele>601.8</ele>
        <time>2000-01-01T23:03:19.000Z</time>
      </trkpt>
      <trkpt lat="45.90979" lon="6.16623">
        <ele>580</ele>
        <time>2000-01-01T23:03:09.000Z</time>
      </trkpt>
      <trkpt lat="45.90988" lon="6.16618">
        <ele>593.2</ele>
        <time>2000-01-01T23:02:59.000Z</time>
      </trkpt>
      <trkpt lat="45.90995" lon="6.16612">
        <ele>590.2</ele>
        <time>2000-01-01T23:02:49.000Z</time>
      </trkpt>
      <trkpt lat="45.91005" lon="6.16612">
        <ele>578</ele>
        <time>2000-01-01T23:02:39.000Z</time>
      </trkpt>
      <trkpt lat="45.91016" lon="6.16615">
        <ele>590.4</ele>
        <time>2000-01-01T23:02:29.000Z</time>
      </trkpt>
      <trkpt lat="45.91027" lon="6.1662">
        <ele>577</ele>
        <time>2000-01-01T23:02:19.000Z</time>
      </trkpt>
      <trkpt lat="45.91039" lon="6.16623">
        <ele>592.7</ele>
        <time>2000-01-01T23:02:09.000Z</time>
      </trkpt>
      <trkpt lat="45.91048" lon="6.16625">
        <ele>577</ele>
        <time>2000-01-01T23:01:59.000Z</time>
      </trkpt>
      <trkpt lat="45.91059" lon="6.16627">
        <ele>593.6</ele>
        <time>2000-01-01T23:01:49.000Z</time>
      </trkpt>
      <trkpt lat="45.91069" lon="6.16629">
        <ele>578</ele>
        <time>2000-01-01T23:01:39.000Z</time>
      </trkpt>
      <trkpt lat="45.9108" lon="6.16626">
        <ele>592.9</ele>
        <time>2000-01-01T23:01:29.000Z</time>
      </trkpt>
      <trkpt lat="45.9109" lon="6.16625">
        <ele>580</ele>
        <time>2000-01-01T23:01:19.000Z</time>
      </trkpt>
      <trkpt lat="45.91097" lon="6.16635">
        <ele>595.2</ele>
        <time>2000-01-01T23:01:09.000Z</time>
      </trkpt>
      <trkpt lat="45.91103" lon="6.1665">
        <ele>585</ele>
        <time>2000-01-01T23:00:59.000Z</time>
      </trkpt>
      <trkpt lat="45.91105" lon="6.16666">
        <ele>604.3</ele>
        <time>2000-01-01T23:00:49.000Z</time>
      </trkpt>
      <trkpt lat="45.91108" lon="6.16678">
        <ele>590</ele>
        <time>2000-01-01T23:00:39.000Z</time>
      </trkpt>
      <trkpt lat="45.91112" lon="6.16696">
        <ele>618</ele>
        <time>2000-01-01T23:00:29.000Z</time>
      </trkpt>
      <trkpt lat="45.9112" lon="6.16706">
        <ele>597</ele>
        <time>2000-01-01T23:00:19.000Z</time>
      </trkpt>
      <trkpt lat="45.9113" lon="6.16709">
        <ele>622.7</ele>
        <time>2000-01-01T23:00:09.000Z</time>
      </trkpt>
      <trkpt lat="45.9114" lon="6.16715">
        <ele>603</ele>
        <time>2000-01-01T22:59:59.000Z</time>
      </trkpt>
      <trkpt lat="45.91148" lon="6.16722">
        <ele>626.7</ele>
        <time>2000-01-01T22:59:49.000Z</time>
      </trkpt>
      <trkpt lat="45.91157" lon="6.1673">
        <ele>609</ele>
        <time>2000-01-01T22:59:39.000Z</time>
      </trkpt>
      <trkpt lat="45.91166" lon="6.16736">
        <ele>630.5</ele>
        <time>2000-01-01T22:59:29.000Z</time>
      </trkpt>
      <trkpt lat="45.91176" lon="6.1674">
        <ele>614</ele>
        <time>2000-01-01T22:59:19.000Z</time>
      </trkpt>
      <trkpt lat="45.91185" lon="6.16749">
        <ele>634.3</ele>
        <time>2000-01-01T22:59:09.000Z</time>
      </trkpt>
      <trkpt lat="45.91192" lon="6.16758">
        <ele>618</ele>
        <time>2000-01-01T22:58:59.000Z</time>
      </trkpt>
      <trkpt lat="45.91204" lon="6.16764">
        <ele>639.1</ele>
        <time>2000-01-01T22:58:49.000Z</time>
      </trkpt>
      <trkpt lat="45.91213" lon="6.16768">
        <ele>622</ele>
        <time>2000-01-01T22:58:39.000Z</time>
      </trkpt>
      <trkpt lat="45.91222" lon="6.16767">
        <ele>638.4</ele>
        <time>2000-01-01T22:58:29.000Z</time>
      </trkpt>
      <trkpt lat="45.91234" lon="6.16768">
        <ele>623</ele>
        <time>2000-01-01T22:58:19.000Z</time>
      </trkpt>
      <trkpt lat="45.91244" lon="6.16775">
        <ele>638.8</ele>
        <time>2000-01-01T22:58:09.000Z</time>
      </trkpt>
      <trkpt lat="45.91252" lon="6.16782">
        <ele>640.4</ele>
        <time>2000-01-01T22:57:59.000Z</time>
      </trkpt>
      <trkpt lat="45.91258" lon="6.16792">
        <ele>630</ele>
        <time>2000-01-01T22:57:49.000Z</time>
      </trkpt>
      <trkpt lat="45.91265" lon="6.16805">
        <ele>647.3</ele>
        <time>2000-01-01T22:57:39.000Z</time>
      </trkpt>
      <trkpt lat="45.91271" lon="6.16821">
        <ele>636</ele>
        <time>2000-01-01T22:57:29.000Z</time>
      </trkpt>
      <trkpt lat="45.91274" lon="6.16834">
        <ele>654.9</ele>
        <time>2000-01-01T22:57:19.000Z</time>
      </trkpt>
      <trkpt lat="45.91279" lon="6.1685">
        <ele>642</ele>
        <time>2000-01-01T22:57:09.000Z</time>
      </trkpt>
      <trkpt lat="45.91281" lon="6.16863">
        <ele>662.6</ele>
        <time>2000-01-01T22:56:59.000Z</time>
      </trkpt>
      <trkpt lat="45.91289" lon="6.16879">
        <ele>649</ele>
        <time>2000-01-01T22:56:49.000Z</time>
      </trkpt>
      <trkpt lat="45.91291" lon="6.16892">
        <ele>668.3</ele>
        <time>2000-01-01T22:56:39.000Z</time>
      </trkpt>
      <trkpt lat="45.91289" lon="6.16906">
        <ele>657</ele>
        <time>2000-01-01T22:56:29.000Z</time>
      </trkpt>
      <trkpt lat="45.91288" lon="6.16922">
        <ele>678</ele>
        <time>2000-01-01T22:56:19.000Z</time>
      </trkpt>
      <trkpt lat="45.91287" lon="6.16925">
        <ele>679.6</ele>
        <time>2000-01-01T22:56:09.000Z</time>
      </trkpt>
      <trkpt lat="45.91287" lon="6.16934">
        <ele>666</ele>
        <time>2000-01-01T22:55:59.000Z</time>
      </trkpt>
      <trkpt lat="45.91298" lon="6.16945">
        <ele>683.9</ele>
        <time>2000-01-01T22:55:49.000Z</time>
      </trkpt>
      <trkpt lat="45.91308" lon="6.16948">
        <ele>666</ele>
        <time>2000-01-01T22:55:39.000Z</time>
      </trkpt>
      <trkpt lat="45.91318" lon="6.16951">
        <ele>678.9</ele>
        <time>2000-01-01T22:55:29.000Z</time>
      </trkpt>
      <trkpt lat="45.91328" lon="6.16958">
        <ele>666</ele>
        <time>2000-01-01T22:55:19.000Z</time>
      </trkpt>
      <trkpt lat="45.91336" lon="6.16969">
        <ele>679.4</ele>
        <time>2000-01-01T22:55:09.000Z</time>
      </trkpt>
      <trkpt lat="45.91343" lon="6.16977">
        <ele>665</ele>
        <time>2000-01-01T22:54:59.000Z</time>
      </trkpt>
      <trkpt lat="45.9135" lon="6.16986">
        <ele>681.8</ele>
        <time>2000-01-01T22:54:49.000Z</time>
      </trkpt>
      <trkpt lat="45.91358" lon="6.16993">
        <ele>665</ele>
        <time>2000-01-01T22:54:39.000Z</time>
      </trkpt>
      <trkpt lat="45.91366" lon="6.17001">
        <ele>681.8</ele>
        <time>2000-01-01T22:54:29.000Z</time>
      </trkpt>
      <trkpt lat="45.91376" lon="6.17007">
        <ele>665</ele>
        <time>2000-01-01T22:54:19.000Z</time>
      </trkpt>
      <trkpt lat="45.91384" lon="6.17012">
        <ele>680.1</ele>
        <time>2000-01-01T22:54:09.000Z</time>
      </trkpt>
      <trkpt lat="45.91394" lon="6.17015">
        <ele>662</ele>
        <time>2000-01-01T22:53:59.000Z</time>
      </trkpt>
      <trkpt lat="45.91403" lon="6.17019">
        <ele>676.1</ele>
        <time>2000-01-01T22:53:49.000Z</time>
      </trkpt>
      <trkpt lat="45.91412" lon="6.17027">
        <ele>659</ele>
        <time>2000-01-01T22:53:39.000Z</time>
      </trkpt>
      <trkpt lat="45.91423" lon="6.17032">
        <ele>674.5</ele>
        <time>2000-01-01T22:53:29.000Z</time>
      </trkpt>
      <trkpt lat="45.91434" lon="6.17039">
        <ele>657</ele>
        <time>2000-01-01T22:53:19.000Z</time>
      </trkpt>
      <trkpt lat="45.91445" lon="6.17041">
        <ele>672.5</ele>
        <time>2000-01-01T22:53:09.000Z</time>
      </trkpt>
      <trkpt lat="45.91454" lon="6.17046">
        <ele>654</ele>
        <time>2000-01-01T22:52:59.000Z</time>
      </trkpt>
      <trkpt lat="45.91463" lon="6.17049">
        <ele>670.4</ele>
        <time>2000-01-01T22:52:49.000Z</time>
      </trkpt>
      <trkpt lat="45.91472" lon="6.17051">
        <ele>654</ele>
        <time>2000-01-01T22:52:39.000Z</time>
      </trkpt>
      <trkpt lat="45.91482" lon="6.17057">
        <ele>667.5</ele>
        <time>2000-01-01T22:52:29.000Z</time>
      </trkpt>
      <trkpt lat="45.91491" lon="6.17062">
        <ele>654</ele>
        <time>2000-01-01T22:52:19.000Z</time>
      </trkpt>
      <trkpt lat="45.91499" lon="6.17073">
        <ele>665.7</ele>
        <time>2000-01-01T22:52:09.000Z</time>
      </trkpt>
      <trkpt lat="45.91506" lon="6.17083">
        <ele>656</ele>
        <time>2000-01-01T22:51:59.000Z</time>
      </trkpt>
      <trkpt lat="45.91511" lon="6.17095">
        <ele>668.8</ele>
        <time>2000-01-01T22:51:49.000Z</time>
      </trkpt>
      <trkpt lat="45.91516" lon="6.17106">
        <ele>671.2</ele>
        <time>2000-01-01T22:51:39.000Z</time>
      </trkpt>
      <trkpt lat="45.9152" lon="6.17119">
        <ele>662</ele>
        <time>2000-01-01T22:51:29.000Z</time>
      </trkpt>
      <trkpt lat="45.91526" lon="6.17133">
        <ele>677.1</ele>
        <time>2000-01-01T22:51:19.000Z</time>
      </trkpt>
      <trkpt lat="45.9153" lon="6.17149">
        <ele>669</ele>
        <time>2000-01-01T22:51:09.000Z</time>
      </trkpt>
      <trkpt lat="45.91534" lon="6.17164">
        <ele>684</ele>
        <time>2000-01-01T22:50:59.000Z</time>
      </trkpt>
      <trkpt lat="45.91538" lon="6.17176">
        <ele>686.6</ele>
        <time>2000-01-01T22:50:49.000Z</time>
      </trkpt>
      <trkpt lat="45.91529" lon="6.17174">
        <ele>676</ele>
        <time>2000-01-01T22:50:39.000Z</time>
      </trkpt>
      <trkpt lat="45.9152" lon="6.17169">
        <ele>689.8</ele>
        <time>2000-01-01T22:50:29.000Z</time>
      </trkpt>
      <trkpt lat="45.91508" lon="6.17165">
        <ele>679</ele>
        <time>2000-01-01T22:50:19.000Z</time>
      </trkpt>
      <trkpt lat="45.91498" lon="6.1716">
        <ele>693.6</ele>
        <time>2000-01-01T22:50:09.000Z</time>
      </trkpt>
      <trkpt lat="45.91488" lon="6.17155">
        <ele>683</ele>
        <time>2000-01-01T22:49:59.000Z</time>
      </trkpt>
      <trkpt lat="45.91479" lon="6.17146">
        <ele>696.7</ele>
        <time>2000-01-01T22:49:49.000Z</time>
      </trkpt>
      <trkpt lat="45.9147" lon="6.17142">
        <ele>689</ele>
        <time>2000-01-01T22:49:39.000Z</time>
      </trkpt>
      <trkpt lat="45.91464" lon="6.17152">
        <ele>705.2</ele>
        <time>2000-01-01T22:49:29.000Z</time>
      </trkpt>
      <trkpt lat="45.9147" lon="6.17163">
        <ele>690</ele>
        <time>2000-01-01T22:49:19.000Z</time>
      </trkpt>
      <trkpt lat="45.91477" lon="6.17172">
        <ele>707.2</ele>
        <time>2000-01-01T22:49:09.000Z</time>
      </trkpt>
      <trkpt lat="45.91484" lon="6.17183">
        <ele>697</ele>
        <time>2000-01-01T22:48:59.000Z</time>
      </trkpt>
      <trkpt lat="45.9149" lon="6.17194">
        <ele>709.4</ele>
        <time>2000-01-01T22:48:49.000Z</time>
      </trkpt>
      <trkpt lat="45.91487" lon="6.17193">
        <ele>710.4</ele>
        <time>2000-01-01T22:48:39.000Z</time>
      </trkpt>
      <trkpt lat="45.91482" lon="6.17192">
        <ele>712.4</ele>
        <time>2000-01-01T22:48:29.000Z</time>
      </trkpt>
      <trkpt lat="45.91476" lon="6.17193">
        <ele>715.5</ele>
        <time>2000-01-01T22:48:19.000Z</time>
      </trkpt>
      <trkpt lat="45.91473" lon="6.17198">
        <ele>704</ele>
        <time>2000-01-01T22:48:09.000Z</time>
      </trkpt>
      <trkpt lat="45.91478" lon="6.17211">
        <ele>721.3</ele>
        <time>2000-01-01T22:47:59.000Z</time>
      </trkpt>
      <trkpt lat="45.91485" lon="6.17222">
        <ele>712</ele>
        <time>2000-01-01T22:47:49.000Z</time>
      </trkpt>
      <trkpt lat="45.9149" lon="6.17237">
        <ele>725.2</ele>
        <time>2000-01-01T22:47:39.000Z</time>
      </trkpt>
      <trkpt lat="45.91497" lon="6.17251">
        <ele>719</ele>
        <time>2000-01-01T22:47:29.000Z</time>
      </trkpt>
      <trkpt lat="45.91503" lon="6.17265">
        <ele>729.7</ele>
        <time>2000-01-01T22:47:19.000Z</time>
      </trkpt>
      <trkpt lat="45.91509" lon="6.17279">
        <ele>721</ele>
        <time>2000-01-01T22:47:09.000Z</time>
      </trkpt>
      <trkpt lat="45.91515" lon="6.1729">
        <ele>734.2</ele>
        <time>2000-01-01T22:46:59.000Z</time>
      </trkpt>
      <trkpt lat="45.91521" lon="6.17305">
        <ele>722</ele>
        <time>2000-01-01T22:46:49.000Z</time>
      </trkpt>
      <trkpt lat="45.91527" lon="6.17317">
        <ele>738.6</ele>
        <time>2000-01-01T22:46:39.000Z</time>
      </trkpt>
      <trkpt lat="45.91535" lon="6.17327">
        <ele>723</ele>
        <time>2000-01-01T22:46:29.000Z</time>
      </trkpt>
      <trkpt lat="45.91544" lon="6.17332">
        <ele>735.4</ele>
        <time>2000-01-01T22:46:19.000Z</time>
      </trkpt>
      <trkpt lat="45.91553" lon="6.1734">
        <ele>733.2</ele>
        <time>2000-01-01T22:46:09.000Z</time>
      </trkpt>
      <trkpt lat="45.91557" lon="6.17346">
        <ele>723</ele>
        <time>2000-01-01T22:45:59.000Z</time>
      </trkpt>
      <trkpt lat="45.9157" lon="6.17361">
        <ele>730.5</ele>
        <time>2000-01-01T22:45:49.000Z</time>
      </trkpt>
      <trkpt lat="45.91579" lon="6.17367">
        <ele>721</ele>
        <time>2000-01-01T22:45:39.000Z</time>
      </trkpt>
      <trkpt lat="45.91589" lon="6.17373">
        <ele>724.3</ele>
        <time>2000-01-01T22:45:29.000Z</time>
      </trkpt>
      <trkpt lat="45.91596" lon="6.17384">
        <ele>715</ele>
        <time>2000-01-01T22:45:19.000Z</time>
      </trkpt>
      <trkpt lat="45.91603" lon="6.17395">
        <ele>723.4</ele>
        <time>2000-01-01T22:45:09.000Z</time>
      </trkpt>
      <trkpt lat="45.91608" lon="6.17409">
        <ele>715</ele>
        <time>2000-01-01T22:44:59.000Z</time>
      </trkpt>
      <trkpt lat="45.9161" lon="6.17422">
        <ele>726.6</ele>
        <time>2000-01-01T22:44:49.000Z</time>
      </trkpt>
      <trkpt lat="45.91616" lon="6.17435">
        <ele>719</ele>
        <time>2000-01-01T22:44:39.000Z</time>
      </trkpt>
      <trkpt lat="45.91619" lon="6.17447">
        <ele>726.5</ele>
        <time>2000-01-01T22:44:29.000Z</time>
      </trkpt>
      <trkpt lat="45.91623" lon="6.17462">
        <ele>721</ele>
        <time>2000-01-01T22:44:19.000Z</time>
      </trkpt>
      <trkpt lat="45.91628" lon="6.17475">
        <ele>726.4</ele>
        <time>2000-01-01T22:44:09.000Z</time>
      </trkpt>
      <trkpt lat="45.91631" lon="6.1749">
        <ele>723</ele>
        <time>2000-01-01T22:43:59.000Z</time>
      </trkpt>
      <trkpt lat="45.91628" lon="6.17505">
        <ele>730.7</ele>
        <time>2000-01-01T22:43:49.000Z</time>
      </trkpt>
      <trkpt lat="45.9162" lon="6.17518">
        <ele>729</ele>
        <time>2000-01-01T22:43:39.000Z</time>
      </trkpt>
      <trkpt lat="45.91613" lon="6.1753">
        <ele>739.3</ele>
        <time>2000-01-01T22:43:29.000Z</time>
      </trkpt>
      <trkpt lat="45.91606" lon="6.1754">
        <ele>743</ele>
        <time>2000-01-01T22:43:19.000Z</time>
      </trkpt>
      <trkpt lat="45.916" lon="6.17548">
        <ele>740</ele>
        <time>2000-01-01T22:43:09.000Z</time>
      </trkpt>
      <trkpt lat="45.91594" lon="6.1756">
        <ele>748.8</ele>
        <time>2000-01-01T22:42:59.000Z</time>
      </trkpt>
      <trkpt lat="45.91589" lon="6.17573">
        <ele>741</ele>
        <time>2000-01-01T22:42:49.000Z</time>
      </trkpt>
      <trkpt lat="45.91585" lon="6.17589">
        <ele>752</ele>
        <time>2000-01-01T22:42:39.000Z</time>
      </trkpt>
      <trkpt lat="45.9158" lon="6.17604">
        <ele>743</ele>
        <time>2000-01-01T22:42:29.000Z</time>
      </trkpt>
      <trkpt lat="45.91574" lon="6.17616">
        <ele>757.2</ele>
        <time>2000-01-01T22:42:19.000Z</time>
      </trkpt>
      <trkpt lat="45.9157" lon="6.1763">
        <ele>743</ele>
        <time>2000-01-01T22:42:09.000Z</time>
      </trkpt>
      <trkpt lat="45.91566" lon="6.17646">
        <ele>760.4</ele>
        <time>2000-01-01T22:41:59.000Z</time>
      </trkpt>
      <trkpt lat="45.91562" lon="6.17659">
        <ele>747</ele>
        <time>2000-01-01T22:41:49.000Z</time>
      </trkpt>
      <trkpt lat="45.91558" lon="6.17673">
        <ele>763.5</ele>
        <time>2000-01-01T22:41:39.000Z</time>
      </trkpt>
      <trkpt lat="45.91554" lon="6.17689">
        <ele>747</ele>
        <time>2000-01-01T22:41:29.000Z</time>
      </trkpt>
      <trkpt lat="45.91553" lon="6.17704">
        <ele>764.9</ele>
        <time>2000-01-01T22:41:19.000Z</time>
      </trkpt>
      <trkpt lat="45.91554" lon="6.17717">
        <ele>746</ele>
        <time>2000-01-01T22:41:09.000Z</time>
      </trkpt>
      <trkpt lat="45.91554" lon="6.17731">
        <ele>763.4</ele>
        <time>2000-01-01T22:40:59.000Z</time>
      </trkpt>
      <trkpt lat="45.91553" lon="6.17745">
        <ele>745</ele>
        <time>2000-01-01T22:40:49.000Z</time>
      </trkpt>
      <trkpt lat="45.9155" lon="6.1776">
        <ele>763.9</ele>
        <time>2000-01-01T22:40:39.000Z</time>
      </trkpt>
      <trkpt lat="45.91547" lon="6.17775">
        <ele>745</ele>
        <time>2000-01-01T22:40:29.000Z</time>
      </trkpt>
      <trkpt lat="45.91544" lon="6.1779">
        <ele>765.3</ele>
        <time>2000-01-01T22:40:19.000Z</time>
      </trkpt>
      <trkpt lat="45.91541" lon="6.17801">
        <ele>746</ele>
        <time>2000-01-01T22:40:09.000Z</time>
      </trkpt>
      <trkpt lat="45.91537" lon="6.17814">
        <ele>767.5</ele>
        <time>2000-01-01T22:39:59.000Z</time>
      </trkpt>
      <trkpt lat="45.91534" lon="6.17829">
        <ele>750</ele>
        <time>2000-01-01T22:39:49.000Z</time>
      </trkpt>
      <trkpt lat="45.91531" lon="6.17844">
        <ele>769.1</ele>
        <time>2000-01-01T22:39:39.000Z</time>
      </trkpt>
      <trkpt lat="45.91526" lon="6.17858">
        <ele>756</ele>
        <time>2000-01-01T22:39:29.000Z</time>
      </trkpt>
      <trkpt lat="45.91521" lon="6.17872">
        <ele>772.9</ele>
        <time>2000-01-01T22:39:19.000Z</time>
      </trkpt>
      <trkpt lat="45.91518" lon="6.17887">
        <ele>761</ele>
        <time>2000-01-01T22:39:09.000Z</time>
      </trkpt>
      <trkpt lat="45.91518" lon="6.17902">
        <ele>773.4</ele>
        <time>2000-01-01T22:38:59.000Z</time>
      </trkpt>
      <trkpt lat="45.9152" lon="6.17915">
        <ele>761</ele>
        <time>2000-01-01T22:38:49.000Z</time>
      </trkpt>
      <trkpt lat="45.91522" lon="6.1793">
        <ele>769.9</ele>
        <time>2000-01-01T22:38:39.000Z</time>
      </trkpt>
      <trkpt lat="45.91523" lon="6.17943">
        <ele>762</ele>
        <time>2000-01-01T22:38:29.000Z</time>
      </trkpt>
      <trkpt lat="45.91518" lon="6.17956">
        <ele>769.9</ele>
        <time>2000-01-01T22:38:19.000Z</time>
      </trkpt>
      <trkpt lat="45.91511" lon="6.17966">
        <ele>762</ele>
        <time>2000-01-01T22:38:09.000Z</time>
      </trkpt>
      <trkpt lat="45.91504" lon="6.17977">
        <ele>774.4</ele>
        <time>2000-01-01T22:37:59.000Z</time>
      </trkpt>
      <trkpt lat="45.91498" lon="6.17987">
        <ele>768</ele>
        <time>2000-01-01T22:37:49.000Z</time>
      </trkpt>
      <trkpt lat="45.91489" lon="6.17997">
        <ele>776.7</ele>
        <time>2000-01-01T22:37:39.000Z</time>
      </trkpt>
      <trkpt lat="45.91481" lon="6.18008">
        <ele>768</ele>
        <time>2000-01-01T22:37:29.000Z</time>
      </trkpt>
      <trkpt lat="45.91473" lon="6.18016">
        <ele>776.9</ele>
        <time>2000-01-01T22:37:19.000Z</time>
      </trkpt>
      <trkpt lat="45.91464" lon="6.18024">
        <ele>768</ele>
        <time>2000-01-01T22:37:09.000Z</time>
      </trkpt>
      <trkpt lat="45.91454" lon="6.18025">
        <ele>779.7</ele>
        <time>2000-01-01T22:36:59.000Z</time>
      </trkpt>
      <trkpt lat="45.91445" lon="6.1803">
        <ele>770</ele>
        <time>2000-01-01T22:36:49.000Z</time>
      </trkpt>
      <trkpt lat="45.91436" lon="6.18031">
        <ele>782.9</ele>
        <time>2000-01-01T22:36:39.000Z</time>
      </trkpt>
      <trkpt lat="45.91433" lon="6.18044">
        <ele>768</ele>
        <time>2000-01-01T22:36:29.000Z</time>
      </trkpt>
      <trkpt lat="45.91426" lon="6.18054">
        <ele>781.8</ele>
        <time>2000-01-01T22:36:19.000Z</time>
      </trkpt>
      <trkpt lat="45.91416" lon="6.18061">
        <ele>767</ele>
        <time>2000-01-01T22:36:09.000Z</time>
      </trkpt>
      <trkpt lat="45.9141" lon="6.18071">
        <ele>782.6</ele>
        <time>2000-01-01T22:35:59.000Z</time>
      </trkpt>
      <trkpt lat="45.91402" lon="6.18082">
        <ele>767</ele>
        <time>2000-01-01T22:35:49.000Z</time>
      </trkpt>
      <trkpt lat="45.91393" lon="6.18087">
        <ele>782.4</ele>
        <time>2000-01-01T22:35:39.000Z</time>
      </trkpt>
      <trkpt lat="45.91392" lon="6.18074">
        <ele>784.2</ele>
        <time>2000-01-01T22:35:29.000Z</time>
      </trkpt>
      <trkpt lat="45.91395" lon="6.18061">
        <ele>769</ele>
        <time>2000-01-01T22:35:19.000Z</time>
      </trkpt>
      <trkpt lat="45.91401" lon="6.1805">
        <ele>786.5</ele>
        <time>2000-01-01T22:35:09.000Z</time>
      </trkpt>
      <trkpt lat="45.91406" lon="6.18038">
        <ele>773</ele>
        <time>2000-01-01T22:34:59.000Z</time>
      </trkpt>
      <trkpt lat="45.91411" lon="6.18028">
        <ele>788.6</ele>
        <time>2000-01-01T22:34:49.000Z</time>
      </trkpt>
      <trkpt lat="45.91421" lon="6.18019">
        <ele>778</ele>
        <time>2000-01-01T22:34:39.000Z</time>
      </trkpt>
      <trkpt lat="45.91429" lon="6.18013">
        <ele>787.3</ele>
        <time>2000-01-01T22:34:29.000Z</time>
      </trkpt>
      <trkpt lat="45.9144" lon="6.18008">
        <ele>779</ele>
        <time>2000-01-01T22:34:19.000Z</time>
      </trkpt>
      <trkpt lat="45.91451" lon="6.18003">
        <ele>784.1</ele>
        <time>2000-01-01T22:34:09.000Z</time>
      </trkpt>
      <trkpt lat="45.91461" lon="6.17995">
        <ele>779</ele>
        <time>2000-01-01T22:33:59.000Z</time>
      </trkpt>
      <trkpt lat="45.91455" lon="6.17984">
        <ele>786.3</ele>
        <time>2000-01-01T22:33:49.000Z</time>
      </trkpt>
      <trkpt lat="45.91459" lon="6.17973">
        <ele>780</ele>
        <time>2000-01-01T22:33:39.000Z</time>
      </trkpt>
      <trkpt lat="45.91466" lon="6.17963">
        <ele>786.7</ele>
        <time>2000-01-01T22:33:29.000Z</time>
      </trkpt>
      <trkpt lat="45.91471" lon="6.1795">
        <ele>784</ele>
        <time>2000-01-01T22:33:19.000Z</time>
      </trkpt>
      <trkpt lat="45.91475" lon="6.17935">
        <ele>788</ele>
        <time>2000-01-01T22:33:09.000Z</time>
      </trkpt>
      <trkpt lat="45.91473" lon="6.17921">
        <ele>783</ele>
        <time>2000-01-01T22:32:59.000Z</time>
      </trkpt>
      <trkpt lat="45.91468" lon="6.1791">
        <ele>793.2</ele>
        <time>2000-01-01T22:32:49.000Z</time>
      </trkpt>
      <trkpt lat="45.91458" lon="6.17901">
        <ele>794</ele>
        <time>2000-01-01T22:32:39.000Z</time>
      </trkpt>
      <trkpt lat="45.91449" lon="6.17894">
        <ele>801.5</ele>
        <time>2000-01-01T22:32:29.000Z</time>
      </trkpt>
      <trkpt lat="45.9144" lon="6.17894">
        <ele>801</ele>
        <time>2000-01-01T22:32:19.000Z</time>
      </trkpt>
      <trkpt lat="45.91433" lon="6.17904">
        <ele>806.2</ele>
        <time>2000-01-01T22:32:09.000Z</time>
      </trkpt>
      <trkpt lat="45.91426" lon="6.17918">
        <ele>801</ele>
        <time>2000-01-01T22:31:59.000Z</time>
      </trkpt>
      <trkpt lat="45.91416" lon="6.17927">
        <ele>807.9</ele>
        <time>2000-01-01T22:31:49.000Z</time>
      </trkpt>
      <trkpt lat="45.91405" lon="6.17927">
        <ele>807</ele>
        <time>2000-01-01T22:31:39.000Z</time>
      </trkpt>
      <trkpt lat="45.91395" lon="6.1793">
        <ele>810.3</ele>
        <time>2000-01-01T22:31:29.000Z</time>
      </trkpt>
      <trkpt lat="45.91384" lon="6.17931">
        <ele>807</ele>
        <time>2000-01-01T22:31:19.000Z</time>
      </trkpt>
      <trkpt lat="45.91373" lon="6.1793">
        <ele>813.5</ele>
        <time>2000-01-01T22:31:09.000Z</time>
      </trkpt>
      <trkpt lat="45.91361" lon="6.17927">
        <ele>811</ele>
        <time>2000-01-01T22:30:59.000Z</time>
      </trkpt>
      <trkpt lat="45.91351" lon="6.17924">
        <ele>818.3</ele>
        <time>2000-01-01T22:30:49.000Z</time>
      </trkpt>
      <trkpt lat="45.91341" lon="6.17921">
        <ele>811</ele>
        <time>2000-01-01T22:30:39.000Z</time>
      </trkpt>
      <trkpt lat="45.9133" lon="6.17918">
        <ele>822.7</ele>
        <time>2000-01-01T22:30:29.000Z</time>
      </trkpt>
      <trkpt lat="45.91321" lon="6.17913">
        <ele>815</ele>
        <time>2000-01-01T22:30:19.000Z</time>
      </trkpt>
      <trkpt lat="45.91313" lon="6.17907">
        <ele>826</ele>
        <time>2000-01-01T22:30:09.000Z</time>
      </trkpt>
      <trkpt lat="45.91302" lon="6.17898">
        <ele>824</ele>
        <time>2000-01-01T22:29:59.000Z</time>
      </trkpt>
      <trkpt lat="45.91294" lon="6.1789">
        <ele>830.8</ele>
        <time>2000-01-01T22:29:49.000Z</time>
      </trkpt>
      <trkpt lat="45.91286" lon="6.1788">
        <ele>825</ele>
        <time>2000-01-01T22:29:39.000Z</time>
      </trkpt>
      <trkpt lat="45.91279" lon="6.17868">
        <ele>836.9</ele>
        <time>2000-01-01T22:29:29.000Z</time>
      </trkpt>
      <trkpt lat="45.91271" lon="6.1786">
        <ele>827</ele>
        <time>2000-01-01T22:29:19.000Z</time>
      </trkpt>
      <trkpt lat="45.91263" lon="6.17852">
        <ele>841.2</ele>
        <time>2000-01-01T22:29:09.000Z</time>
      </trkpt>
      <trkpt lat="45.91253" lon="6.17844">
        <ele>829</ele>
        <time>2000-01-01T22:28:59.000Z</time>
      </trkpt>
      <trkpt lat="45.91242" lon="6.17834">
        <ele>845.7</ele>
        <time>2000-01-01T22:28:49.000Z</time>
      </trkpt>
      <trkpt lat="45.91234" lon="6.17828">
        <ele>847.1</ele>
        <time>2000-01-01T22:28:39.000Z</time>
      </trkpt>
      <trkpt lat="45.91226" lon="6.17823">
        <ele>829</ele>
        <time>2000-01-01T22:28:29.000Z</time>
      </trkpt>
      <trkpt lat="45.91217" lon="6.17814">
        <ele>849.6</ele>
        <time>2000-01-01T22:28:19.000Z</time>
      </trkpt>
      <trkpt lat="45.91209" lon="6.17804">
        <ele>833</ele>
        <time>2000-01-01T22:28:09.000Z</time>
      </trkpt>
      <trkpt lat="45.91201" lon="6.17792">
        <ele>852.8</ele>
        <time>2000-01-01T22:27:59.000Z</time>
      </trkpt>
      <trkpt lat="45.91196" lon="6.17779">
        <ele>835</ele>
        <time>2000-01-01T22:27:49.000Z</time>
      </trkpt>
      <trkpt lat="45.91188" lon="6.17767">
        <ele>855.7</ele>
        <time>2000-01-01T22:27:39.000Z</time>
      </trkpt>
      <trkpt lat="45.91187" lon="6.1775">
        <ele>837</ele>
        <time>2000-01-01T22:27:29.000Z</time>
      </trkpt>
      <trkpt lat="45.91186" lon="6.17737">
        <ele>859.9</ele>
        <time>2000-01-01T22:27:19.000Z</time>
      </trkpt>
      <trkpt lat="45.91183" lon="6.17724">
        <ele>841</ele>
        <time>2000-01-01T22:27:09.000Z</time>
      </trkpt>
      <trkpt lat="45.91176" lon="6.17712">
        <ele>861.4</ele>
        <time>2000-01-01T22:26:59.000Z</time>
      </trkpt>
      <trkpt lat="45.91169" lon="6.17701">
        <ele>845</ele>
        <time>2000-01-01T22:26:49.000Z</time>
      </trkpt>
      <trkpt lat="45.91163" lon="6.17689">
        <ele>862.4</ele>
        <time>2000-01-01T22:26:39.000Z</time>
      </trkpt>
      <trkpt lat="45.91156" lon="6.1768">
        <ele>845</ele>
        <time>2000-01-01T22:26:29.000Z</time>
      </trkpt>
      <trkpt lat="45.91148" lon="6.17667">
        <ele>864.3</ele>
        <time>2000-01-01T22:26:19.000Z</time>
      </trkpt>
      <trkpt lat="45.91142" lon="6.17656">
        <ele>846</ele>
        <time>2000-01-01T22:26:09.000Z</time>
      </trkpt>
      <trkpt lat="45.91134" lon="6.17643">
        <ele>863.7</ele>
        <time>2000-01-01T22:25:59.000Z</time>
      </trkpt>
      <trkpt lat="45.91126" lon="6.17635">
        <ele>838</ele>
        <time>2000-01-01T22:25:49.000Z</time>
      </trkpt>
      <trkpt lat="45.91115" lon="6.17637">
        <ele>862.9</ele>
        <time>2000-01-01T22:25:39.000Z</time>
      </trkpt>
      <trkpt lat="45.91106" lon="6.17633">
        <ele>838</ele>
        <time>2000-01-01T22:25:29.000Z</time>
      </trkpt>
      <trkpt lat="45.91099" lon="6.1762">
        <ele>862.1</ele>
        <time>2000-01-01T22:25:19.000Z</time>
      </trkpt>
      <trkpt lat="45.91094" lon="6.17607">
        <ele>838</ele>
        <time>2000-01-01T22:25:09.000Z</time>
      </trkpt>
      <trkpt lat="45.91089" lon="6.17595">
        <ele>861.4</ele>
        <time>2000-01-01T22:24:59.000Z</time>
      </trkpt>
      <trkpt lat="45.91082" lon="6.17585">
        <ele>840</ele>
        <time>2000-01-01T22:24:49.000Z</time>
      </trkpt>
      <trkpt lat="45.91075" lon="6.17574">
        <ele>863.2</ele>
        <time>2000-01-01T22:24:39.000Z</time>
      </trkpt>
      <trkpt lat="45.91067" lon="6.17561">
        <ele>850</ele>
        <time>2000-01-01T22:24:29.000Z</time>
      </trkpt>
      <trkpt lat="45.91058" lon="6.17553">
        <ele>868.2</ele>
        <time>2000-01-01T22:24:19.000Z</time>
      </trkpt>
      <trkpt lat="45.9105" lon="6.17544">
        <ele>856</ele>
        <time>2000-01-01T22:24:09.000Z</time>
      </trkpt>
      <trkpt lat="45.91045" lon="6.17533">
        <ele>872.4</ele>
        <time>2000-01-01T22:23:59.000Z</time>
      </trkpt>
      <trkpt lat="45.91043" lon="6.17518">
        <ele>868</ele>
        <time>2000-01-01T22:23:49.000Z</time>
      </trkpt>
      <trkpt lat="45.91047" lon="6.17505">
        <ele>872.1</ele>
        <time>2000-01-01T22:23:39.000Z</time>
      </trkpt>
      <trkpt lat="45.91049" lon="6.17492">
        <ele>874</ele>
        <time>2000-01-01T22:23:29.000Z</time>
      </trkpt>
      <trkpt lat="45.91054" lon="6.17481">
        <ele>871.1</ele>
        <time>2000-01-01T22:23:19.000Z</time>
      </trkpt>
      <trkpt lat="45.91048" lon="6.17469">
        <ele>880</ele>
        <time>2000-01-01T22:23:09.000Z</time>
      </trkpt>
      <trkpt lat="45.9104" lon="6.17459">
        <ele>877.6</ele>
        <time>2000-01-01T22:22:59.000Z</time>
      </trkpt>
      <trkpt lat="45.91032" lon="6.17454">
        <ele>880</ele>
        <time>2000-01-01T22:22:49.000Z</time>
      </trkpt>
      <trkpt lat="45.91022" lon="6.17451">
        <ele>884.7</ele>
        <time>2000-01-01T22:22:39.000Z</time>
      </trkpt>
      <trkpt lat="45.91014" lon="6.17444">
        <ele>883</ele>
        <time>2000-01-01T22:22:29.000Z</time>
      </trkpt>
      <trkpt lat="45.91007" lon="6.17435">
        <ele>891.6</ele>
        <time>2000-01-01T22:22:19.000Z</time>
      </trkpt>
      <trkpt lat="45.91002" lon="6.17421">
        <ele>885</ele>
        <time>2000-01-01T22:22:09.000Z</time>
      </trkpt>
      <trkpt lat="45.90994" lon="6.17412">
        <ele>898.2</ele>
        <time>2000-01-01T22:21:59.000Z</time>
      </trkpt>
      <trkpt lat="45.90984" lon="6.17401">
        <ele>887</ele>
        <time>2000-01-01T22:21:49.000Z</time>
      </trkpt>
      <trkpt lat="45.90973" lon="6.17392">
        <ele>905.8</ele>
        <time>2000-01-01T22:21:39.000Z</time>
      </trkpt>
      <trkpt lat="45.90964" lon="6.17387">
        <ele>889</ele>
        <time>2000-01-01T22:21:29.000Z</time>
      </trkpt>
      <trkpt lat="45.90957" lon="6.17377">
        <ele>910.9</ele>
        <time>2000-01-01T22:21:19.000Z</time>
      </trkpt>
      <trkpt lat="45.9095" lon="6.17367">
        <ele>892</ele>
        <time>2000-01-01T22:21:09.000Z</time>
      </trkpt>
      <trkpt lat="45.90942" lon="6.17361">
        <ele>915.5</ele>
        <time>2000-01-01T22:20:59.000Z</time>
      </trkpt>
      <trkpt lat="45.9093" lon="6.17357">
        <ele>894</ele>
        <time>2000-01-01T22:20:49.000Z</time>
      </trkpt>
      <trkpt lat="45.90923" lon="6.17348">
        <ele>920.3</ele>
        <time>2000-01-01T22:20:39.000Z</time>
      </trkpt>
      <trkpt lat="45.90915" lon="6.1734">
        <ele>900</ele>
        <time>2000-01-01T22:20:29.000Z</time>
      </trkpt>
      <trkpt lat="45.90907" lon="6.17332">
        <ele>923.7</ele>
        <time>2000-01-01T22:20:19.000Z</time>
      </trkpt>
      <trkpt lat="45.909" lon="6.17323">
        <ele>903</ele>
        <time>2000-01-01T22:20:09.000Z</time>
      </trkpt>
      <trkpt lat="45.90895" lon="6.17312">
        <ele>927.3</ele>
        <time>2000-01-01T22:19:59.000Z</time>
      </trkpt>
      <trkpt lat="45.9089" lon="6.17298">
        <ele>909</ele>
        <time>2000-01-01T22:19:49.000Z</time>
      </trkpt>
      <trkpt lat="45.90883" lon="6.17288">
        <ele>930.2</ele>
        <time>2000-01-01T22:19:39.000Z</time>
      </trkpt>
      <trkpt lat="45.90872" lon="6.1728">
        <ele>912</ele>
        <time>2000-01-01T22:19:29.000Z</time>
      </trkpt>
      <trkpt lat="45.90862" lon="6.17274">
        <ele>931.8</ele>
        <time>2000-01-01T22:19:19.000Z</time>
      </trkpt>
      <trkpt lat="45.90852" lon="6.17262">
        <ele>914</ele>
        <time>2000-01-01T22:19:09.000Z</time>
      </trkpt>
      <trkpt lat="45.90842" lon="6.17253">
        <ele>932.2</ele>
        <time>2000-01-01T22:18:59.000Z</time>
      </trkpt>
      <trkpt lat="45.90831" lon="6.17247">
        <ele>914</ele>
        <time>2000-01-01T22:18:49.000Z</time>
      </trkpt>
      <trkpt lat="45.90825" lon="6.17253">
        <ele>933.8</ele>
        <time>2000-01-01T22:18:39.000Z</time>
      </trkpt>
      <trkpt lat="45.90826" lon="6.17261">
        <ele>934</ele>
        <time>2000-01-01T22:18:29.000Z</time>
      </trkpt>
      <trkpt lat="45.90823" lon="6.17274">
        <ele>918</ele>
        <time>2000-01-01T22:18:19.000Z</time>
      </trkpt>
      <trkpt lat="45.90822" lon="6.17289">
        <ele>936.5</ele>
        <time>2000-01-01T22:18:09.000Z</time>
      </trkpt>
      <trkpt lat="45.90821" lon="6.17304">
        <ele>923</ele>
        <time>2000-01-01T22:17:59.000Z</time>
      </trkpt>
      <trkpt lat="45.90819" lon="6.17319">
        <ele>939.4</ele>
        <time>2000-01-01T22:17:49.000Z</time>
      </trkpt>
      <trkpt lat="45.90818" lon="6.17335">
        <ele>931</ele>
        <time>2000-01-01T22:17:39.000Z</time>
      </trkpt>
      <trkpt lat="45.90812" lon="6.17347">
        <ele>944.9</ele>
        <time>2000-01-01T22:17:29.000Z</time>
      </trkpt>
      <trkpt lat="45.90809" lon="6.17362">
        <ele>939</ele>
        <time>2000-01-01T22:17:19.000Z</time>
      </trkpt>
      <trkpt lat="45.90804" lon="6.17377">
        <ele>952.4</ele>
        <time>2000-01-01T22:17:09.000Z</time>
      </trkpt>
      <trkpt lat="45.90797" lon="6.17386">
        <ele>956.6</ele>
        <time>2000-01-01T22:16:59.000Z</time>
      </trkpt>
      <trkpt lat="45.90795" lon="6.17392">
        <ele>947</ele>
        <time>2000-01-01T22:16:49.000Z</time>
      </trkpt>
      <trkpt lat="45.90789" lon="6.17411">
        <ele>963.7</ele>
        <time>2000-01-01T22:16:39.000Z</time>
      </trkpt>
      <trkpt lat="45.90785" lon="6.17426">
        <ele>958</ele>
        <time>2000-01-01T22:16:29.000Z</time>
      </trkpt>
      <trkpt lat="45.90783" lon="6.1744">
        <ele>971.6</ele>
        <time>2000-01-01T22:16:19.000Z</time>
      </trkpt>
      <trkpt lat="45.90781" lon="6.17453">
        <ele>974.9</ele>
        <time>2000-01-01T22:16:09.000Z</time>
      </trkpt>
      <trkpt lat="45.90779" lon="6.17465">
        <ele>970</ele>
        <time>2000-01-01T22:15:59.000Z</time>
      </trkpt>
      <trkpt lat="45.90774" lon="6.17482">
        <ele>983.6</ele>
        <time>2000-01-01T22:15:49.000Z</time>
      </trkpt>
      <trkpt lat="45.9077" lon="6.17496">
        <ele>976</ele>
        <time>2000-01-01T22:15:39.000Z</time>
      </trkpt>
      <trkpt lat="45.90766" lon="6.17511">
        <ele>992.3</ele>
        <time>2000-01-01T22:15:29.000Z</time>
      </trkpt>
      <trkpt lat="45.90763" lon="6.17525">
        <ele>985</ele>
        <time>2000-01-01T22:15:19.000Z</time>
      </trkpt>
      <trkpt lat="45.90765" lon="6.17538">
        <ele>996.7</ele>
        <time>2000-01-01T22:15:09.000Z</time>
      </trkpt>
      <trkpt lat="45.90767" lon="6.17552">
        <ele>990</ele>
        <time>2000-01-01T22:14:59.000Z</time>
      </trkpt>
      <trkpt lat="45.90765" lon="6.17568">
        <ele>1001.1</ele>
        <time>2000-01-01T22:14:49.000Z</time>
      </trkpt>
      <trkpt lat="45.90761" lon="6.1758">
        <ele>994</ele>
        <time>2000-01-01T22:14:39.000Z</time>
      </trkpt>
      <trkpt lat="45.90759" lon="6.17587">
        <ele>1006.3</ele>
        <time>2000-01-01T22:14:29.000Z</time>
      </trkpt>
      <trkpt lat="45.90755" lon="6.17608">
        <ele>1001</ele>
        <time>2000-01-01T22:14:19.000Z</time>
      </trkpt>
      <trkpt lat="45.90754" lon="6.17624">
        <ele>1012</ele>
        <time>2000-01-01T22:14:09.000Z</time>
      </trkpt>
      <trkpt lat="45.90754" lon="6.17638">
        <ele>1005</ele>
        <time>2000-01-01T22:13:59.000Z</time>
      </trkpt>
      <trkpt lat="45.90751" lon="6.17655">
        <ele>1016.4</ele>
        <time>2000-01-01T22:13:49.000Z</time>
      </trkpt>
      <trkpt lat="45.90746" lon="6.1767">
        <ele>1013</ele>
        <time>2000-01-01T22:13:39.000Z</time>
      </trkpt>
      <trkpt lat="45.90743" lon="6.17682">
        <ele>1023.8</ele>
        <time>2000-01-01T22:13:29.000Z</time>
      </trkpt>
      <trkpt lat="45.90736" lon="6.17693">
        <ele>1019</ele>
        <time>2000-01-01T22:13:19.000Z</time>
      </trkpt>
      <trkpt lat="45.90736" lon="6.17707">
        <ele>1030.6</ele>
        <time>2000-01-01T22:13:09.000Z</time>
      </trkpt>
      <trkpt lat="45.90735" lon="6.17721">
        <ele>1021</ele>
        <time>2000-01-01T22:12:59.000Z</time>
      </trkpt>
      <trkpt lat="45.90734" lon="6.17737">
        <ele>1035.3</ele>
        <time>2000-01-01T22:12:49.000Z</time>
      </trkpt>
      <trkpt lat="45.90731" lon="6.17751">
        <ele>1025</ele>
        <time>2000-01-01T22:12:39.000Z</time>
      </trkpt>
      <trkpt lat="45.90728" lon="6.17767">
        <ele>1041.4</ele>
        <time>2000-01-01T22:12:29.000Z</time>
      </trkpt>
      <trkpt lat="45.90724" lon="6.1778">
        <ele>1029</ele>
        <time>2000-01-01T22:12:19.000Z</time>
      </trkpt>
      <trkpt lat="45.90722" lon="6.17792">
        <ele>1046.6</ele>
        <time>2000-01-01T22:12:09.000Z</time>
      </trkpt>
      <trkpt lat="45.90719" lon="6.178">
        <ele>1048.8</ele>
        <time>2000-01-01T22:11:59.000Z</time>
      </trkpt>
      <trkpt lat="45.90718" lon="6.17807">
        <ele>1050</ele>
        <time>2000-01-01T22:11:49.000Z</time>
      </trkpt>
      <trkpt lat="45.90718" lon="6.1781">
        <ele>1040</ele>
        <time>2000-01-01T22:11:39.000Z</time>
      </trkpt>
      <trkpt lat="45.90716" lon="6.17825">
        <ele>1052.6</ele>
        <time>2000-01-01T22:11:29.000Z</time>
      </trkpt>
      <trkpt lat="45.90715" lon="6.17828">
        <ele>1053.3</ele>
        <time>2000-01-01T22:11:19.000Z</time>
      </trkpt>
      <trkpt lat="45.90711" lon="6.17849">
        <ele>1045</ele>
        <time>2000-01-01T22:11:09.000Z</time>
      </trkpt>
      <trkpt lat="45.90707" lon="6.17864">
        <ele>1061.1</ele>
        <time>2000-01-01T22:10:59.000Z</time>
      </trkpt>
      <trkpt lat="45.90701" lon="6.17878">
        <ele>1049</ele>
        <time>2000-01-01T22:10:49.000Z</time>
      </trkpt>
      <trkpt lat="45.90697" lon="6.17891">
        <ele>1068.9</ele>
        <time>2000-01-01T22:10:39.000Z</time>
      </trkpt>
      <trkpt lat="45.90698" lon="6.17906">
        <ele>1056</ele>
        <time>2000-01-01T22:10:29.000Z</time>
      </trkpt>
      <trkpt lat="45.90701" lon="6.17922">
        <ele>1070</ele>
        <time>2000-01-01T22:10:19.000Z</time>
      </trkpt>
      <trkpt lat="45.90704" lon="6.17937">
        <ele>1056</ele>
        <time>2000-01-01T22:10:09.000Z</time>
      </trkpt>
      <trkpt lat="45.90704" lon="6.17954">
        <ele>1068.8</ele>
        <time>2000-01-01T22:09:59.000Z</time>
      </trkpt>
      <trkpt lat="45.90706" lon="6.17969">
        <ele>1058</ele>
        <time>2000-01-01T22:09:49.000Z</time>
      </trkpt>
      <trkpt lat="45.90705" lon="6.17983">
        <ele>1068.6</ele>
        <time>2000-01-01T22:09:39.000Z</time>
      </trkpt>
      <trkpt lat="45.907" lon="6.18">
        <ele>1059</ele>
        <time>2000-01-01T22:09:29.000Z</time>
      </trkpt>
      <trkpt lat="45.90695" lon="6.18013">
        <ele>1073.5</ele>
        <time>2000-01-01T22:09:19.000Z</time>
      </trkpt>
      <trkpt lat="45.90691" lon="6.18028">
        <ele>1063</ele>
        <time>2000-01-01T22:09:09.000Z</time>
      </trkpt>
      <trkpt lat="45.90685" lon="6.18043">
        <ele>1077.8</ele>
        <time>2000-01-01T22:08:59.000Z</time>
      </trkpt>
      <trkpt lat="45.9068" lon="6.18053">
        <ele>1079.9</ele>
        <time>2000-01-01T22:08:49.000Z</time>
      </trkpt>
      <trkpt lat="45.90675" lon="6.18062">
        <ele>1069</ele>
        <time>2000-01-01T22:08:39.000Z</time>
      </trkpt>
      <trkpt lat="45.9067" lon="6.18081">
        <ele>1083.6</ele>
        <time>2000-01-01T22:08:29.000Z</time>
      </trkpt>
      <trkpt lat="45.90666" lon="6.18093">
        <ele>1074</ele>
        <time>2000-01-01T22:08:19.000Z</time>
      </trkpt>
      <trkpt lat="45.90665" lon="6.18107">
        <ele>1084.6</ele>
        <time>2000-01-01T22:08:09.000Z</time>
      </trkpt>
      <trkpt lat="45.90664" lon="6.1812">
        <ele>1074</ele>
        <time>2000-01-01T22:07:59.000Z</time>
      </trkpt>
      <trkpt lat="45.90659" lon="6.18133">
        <ele>1086</ele>
        <time>2000-01-01T22:07:49.000Z</time>
      </trkpt>
      <trkpt lat="45.90654" lon="6.18146">
        <ele>1087.5</ele>
        <time>2000-01-01T22:07:39.000Z</time>
      </trkpt>
      <trkpt lat="45.90651" lon="6.18155">
        <ele>1077</ele>
        <time>2000-01-01T22:07:29.000Z</time>
      </trkpt>
      <trkpt lat="45.90645" lon="6.18176">
        <ele>1089.9</ele>
        <time>2000-01-01T22:07:19.000Z</time>
      </trkpt>
      <trkpt lat="45.90645" lon="6.18182">
        <ele>1089.5</ele>
        <time>2000-01-01T22:07:09.000Z</time>
      </trkpt>
      <trkpt lat="45.90649" lon="6.18198">
        <ele>1087</ele>
        <time>2000-01-01T22:06:59.000Z</time>
      </trkpt>
      <trkpt lat="45.90648" lon="6.182">
        <ele>1080</ele>
        <time>2000-01-01T22:06:49.000Z</time>
      </trkpt>
      <trkpt lat="45.90641" lon="6.18216">
        <ele>1089.4</ele>
        <time>2000-01-01T22:06:39.000Z</time>
      </trkpt>
      <trkpt lat="45.90638" lon="6.18233">
        <ele>1079</ele>
        <time>2000-01-01T22:06:29.000Z</time>
      </trkpt>
      <trkpt lat="45.90633" lon="6.18244">
        <ele>1091.1</ele>
        <time>2000-01-01T22:06:19.000Z</time>
      </trkpt>
      <trkpt lat="45.90627" lon="6.18259">
        <ele>1084</ele>
        <time>2000-01-01T22:06:09.000Z</time>
      </trkpt>
      <trkpt lat="45.90624" lon="6.18271">
        <ele>1092.1</ele>
        <time>2000-01-01T22:05:59.000Z</time>
      </trkpt>
      <trkpt lat="45.90624" lon="6.18285">
        <ele>1090.6</ele>
        <time>2000-01-01T22:05:49.000Z</time>
      </trkpt>
      <trkpt lat="45.90623" lon="6.18288">
        <ele>1084</ele>
        <time>2000-01-01T22:05:39.000Z</time>
      </trkpt>
      <trkpt lat="45.90618" lon="6.18301">
        <ele>1091.2</ele>
        <time>2000-01-01T22:05:29.000Z</time>
      </trkpt>
      <trkpt lat="45.90614" lon="6.18314">
        <ele>1084</ele>
        <time>2000-01-01T22:05:19.000Z</time>
      </trkpt>
      <trkpt lat="45.90607" lon="6.18336">
        <ele>1091.8</ele>
        <time>2000-01-01T22:05:09.000Z</time>
      </trkpt>
      <trkpt lat="45.90603" lon="6.18349">
        <ele>1084</ele>
        <time>2000-01-01T22:04:59.000Z</time>
      </trkpt>
      <trkpt lat="45.90597" lon="6.1836">
        <ele>1094</ele>
        <time>2000-01-01T22:04:49.000Z</time>
      </trkpt>
      <trkpt lat="45.9059" lon="6.18369">
        <ele>1092</ele>
        <time>2000-01-01T22:04:39.000Z</time>
      </trkpt>
      <trkpt lat="45.90582" lon="6.18377">
        <ele>1098.4</ele>
        <time>2000-01-01T22:04:29.000Z</time>
      </trkpt>
      <trkpt lat="45.9057" lon="6.18381">
        <ele>1092</ele>
        <time>2000-01-01T22:04:19.000Z</time>
      </trkpt>
      <trkpt lat="45.90561" lon="6.18386">
        <ele>1105.6</ele>
        <time>2000-01-01T22:04:09.000Z</time>
      </trkpt>
      <trkpt lat="45.90555" lon="6.18397">
        <ele>1097</ele>
        <time>2000-01-01T22:03:59.000Z</time>
      </trkpt>
      <trkpt lat="45.90549" lon="6.18407">
        <ele>1107.9</ele>
        <time>2000-01-01T22:03:49.000Z</time>
      </trkpt>
      <trkpt lat="45.90541" lon="6.18416">
        <ele>1098</ele>
        <time>2000-01-01T22:03:39.000Z</time>
      </trkpt>
      <trkpt lat="45.90532" lon="6.18424">
        <ele>1111.7</ele>
        <time>2000-01-01T22:03:29.000Z</time>
      </trkpt>
      <trkpt lat="45.90522" lon="6.18432">
        <ele>1100</ele>
        <time>2000-01-01T22:03:19.000Z</time>
      </trkpt>
      <trkpt lat="45.90512" lon="6.18438">
        <ele>1116.4</ele>
        <time>2000-01-01T22:03:09.000Z</time>
      </trkpt>
      <trkpt lat="45.90502" lon="6.18444">
        <ele>1105</ele>
        <time>2000-01-01T22:02:59.000Z</time>
      </trkpt>
      <trkpt lat="45.90491" lon="6.18449">
        <ele>1121.7</ele>
        <time>2000-01-01T22:02:49.000Z</time>
      </trkpt>
      <trkpt lat="45.90484" lon="6.18458">
        <ele>1111</ele>
        <time>2000-01-01T22:02:39.000Z</time>
      </trkpt>
      <trkpt lat="45.90476" lon="6.18465">
        <ele>1123.9</ele>
        <time>2000-01-01T22:02:29.000Z</time>
      </trkpt>
      <trkpt lat="45.90465" lon="6.1847">
        <ele>1114</ele>
        <time>2000-01-01T22:02:19.000Z</time>
      </trkpt>
      <trkpt lat="45.90455" lon="6.18475">
        <ele>1128.8</ele>
        <time>2000-01-01T22:02:09.000Z</time>
      </trkpt>
      <trkpt lat="45.90443" lon="6.18478">
        <ele>1121</ele>
        <time>2000-01-01T22:01:59.000Z</time>
      </trkpt>
      <trkpt lat="45.90432" lon="6.18481">
        <ele>1134.9</ele>
        <time>2000-01-01T22:01:49.000Z</time>
      </trkpt>
      <trkpt lat="45.90421" lon="6.18482">
        <ele>1124</ele>
        <time>2000-01-01T22:01:39.000Z</time>
      </trkpt>
      <trkpt lat="45.9041" lon="6.18483">
        <ele>1141</ele>
        <time>2000-01-01T22:01:29.000Z</time>
      </trkpt>
      <trkpt lat="45.90401" lon="6.18485">
        <ele>1131</ele>
        <time>2000-01-01T22:01:19.000Z</time>
      </trkpt>
      <trkpt lat="45.90391" lon="6.18487">
        <ele>1144.9</ele>
        <time>2000-01-01T22:01:09.000Z</time>
      </trkpt>
      <trkpt lat="45.90381" lon="6.18491">
        <ele>1133</ele>
        <time>2000-01-01T22:00:59.000Z</time>
      </trkpt>
      <trkpt lat="45.90371" lon="6.18493">
        <ele>1148.4</ele>
        <time>2000-01-01T22:00:49.000Z</time>
      </trkpt>
      <trkpt lat="45.9036" lon="6.1849">
        <ele>1146</ele>
        <time>2000-01-01T22:00:39.000Z</time>
      </trkpt>
      <trkpt lat="45.90351" lon="6.18486">
        <ele>1155.5</ele>
        <time>2000-01-01T22:00:29.000Z</time>
      </trkpt>
      <trkpt lat="45.9034" lon="6.18485">
        <ele>1149</ele>
        <time>2000-01-01T22:00:19.000Z</time>
      </trkpt>
      <trkpt lat="45.9033" lon="6.18485">
        <ele>1161.3</ele>
        <time>2000-01-01T22:00:09.000Z</time>
      </trkpt>
      <trkpt lat="45.90319" lon="6.1849">
        <ele>1155</ele>
        <time>2000-01-01T21:59:59.000Z</time>
      </trkpt>
      <trkpt lat="45.90309" lon="6.18494">
        <ele>1165</ele>
        <time>2000-01-01T21:59:49.000Z</time>
      </trkpt>
      <trkpt lat="45.903" lon="6.18498">
        <ele>1166.6</ele>
        <time>2000-01-01T21:59:39.000Z</time>
      </trkpt>
      <trkpt lat="45.90291" lon="6.18497">
        <ele>1156</ele>
        <time>2000-01-01T21:59:29.000Z</time>
      </trkpt>
      <trkpt lat="45.90281" lon="6.18498">
        <ele>1172.3</ele>
        <time>2000-01-01T21:59:19.000Z</time>
      </trkpt>
      <trkpt lat="45.90271" lon="6.18498">
        <ele>1162</ele>
        <time>2000-01-01T21:59:09.000Z</time>
      </trkpt>
      <trkpt lat="45.90262" lon="6.18505">
        <ele>1176.9</ele>
        <time>2000-01-01T21:58:59.000Z</time>
      </trkpt>
      <trkpt lat="45.90252" lon="6.18515">
        <ele>1164</ele>
        <time>2000-01-01T21:58:49.000Z</time>
      </trkpt>
      <trkpt lat="45.9024" lon="6.18521">
        <ele>1180.9</ele>
        <time>2000-01-01T21:58:39.000Z</time>
      </trkpt>
      <trkpt lat="45.9023" lon="6.18524">
        <ele>1169</ele>
        <time>2000-01-01T21:58:29.000Z</time>
      </trkpt>
      <trkpt lat="45.90219" lon="6.18527">
        <ele>1184.8</ele>
        <time>2000-01-01T21:58:19.000Z</time>
      </trkpt>
      <trkpt lat="45.90208" lon="6.18526">
        <ele>1187.3</ele>
        <time>2000-01-01T21:58:09.000Z</time>
      </trkpt>
      <trkpt lat="45.90204" lon="6.18527">
        <ele>1172</ele>
        <time>2000-01-01T21:57:59.000Z</time>
      </trkpt>
      <trkpt lat="45.9019" lon="6.18537">
        <ele>1189.7</ele>
        <time>2000-01-01T21:57:49.000Z</time>
      </trkpt>
      <trkpt lat="45.90177" lon="6.18548">
        <ele>1174</ele>
        <time>2000-01-01T21:57:39.000Z</time>
      </trkpt>
      <trkpt lat="45.90167" lon="6.18552">
        <ele>1192.4</ele>
        <time>2000-01-01T21:57:29.000Z</time>
      </trkpt>
      <trkpt lat="45.90156" lon="6.18557">
        <ele>1178</ele>
        <time>2000-01-01T21:57:19.000Z</time>
      </trkpt>
      <trkpt lat="45.90148" lon="6.18567">
        <ele>1196.6</ele>
        <time>2000-01-01T21:57:09.000Z</time>
      </trkpt>
      <trkpt lat="45.90141" lon="6.18576">
        <ele>1178</ele>
        <time>2000-01-01T21:56:59.000Z</time>
      </trkpt>
      <trkpt lat="45.90134" lon="6.18585">
        <ele>1198.7</ele>
        <time>2000-01-01T21:56:49.000Z</time>
      </trkpt>
      <trkpt lat="45.90133" lon="6.18598">
        <ele>1178</ele>
        <time>2000-01-01T21:56:39.000Z</time>
      </trkpt>
      <trkpt lat="45.90123" lon="6.18597">
        <ele>1200.5</ele>
        <time>2000-01-01T21:56:29.000Z</time>
      </trkpt>
      <trkpt lat="45.90113" lon="6.18596">
        <ele>1188</ele>
        <time>2000-01-01T21:56:19.000Z</time>
      </trkpt>
      <trkpt lat="45.90105" lon="6.18603">
        <ele>1205.5</ele>
        <time>2000-01-01T21:56:09.000Z</time>
      </trkpt>
      <trkpt lat="45.90101" lon="6.18611">
        <ele>1205.5</ele>
        <time>2000-01-01T21:55:59.000Z</time>
      </trkpt>
      <trkpt lat="45.90096" lon="6.18612">
        <ele>1190</ele>
        <time>2000-01-01T21:55:49.000Z</time>
      </trkpt>
      <trkpt lat="45.90087" lon="6.18611">
        <ele>1210.1</ele>
        <time>2000-01-01T21:55:39.000Z</time>
      </trkpt>
      <trkpt lat="45.90077" lon="6.18609">
        <ele>1202</ele>
        <time>2000-01-01T21:55:29.000Z</time>
      </trkpt>
      <trkpt lat="45.90068" lon="6.18607">
        <ele>1217.3</ele>
        <time>2000-01-01T21:55:19.000Z</time>
      </trkpt>
      <trkpt lat="45.90057" lon="6.18604">
        <ele>1209</ele>
        <time>2000-01-01T21:55:09.000Z</time>
      </trkpt>
      <trkpt lat="45.90047" lon="6.186">
        <ele>1225.7</ele>
        <time>2000-01-01T21:54:59.000Z</time>
      </trkpt>
      <trkpt lat="45.90038" lon="6.18592">
        <ele>1220</ele>
        <time>2000-01-01T21:54:49.000Z</time>
      </trkpt>
      <trkpt lat="45.90029" lon="6.18588">
        <ele>1234.1</ele>
        <time>2000-01-01T21:54:39.000Z</time>
      </trkpt>
      <trkpt lat="45.9002" lon="6.18582">
        <ele>1231</ele>
        <time>2000-01-01T21:54:29.000Z</time>
      </trkpt>
      <trkpt lat="45.90012" lon="6.18575">
        <ele>1241.7</ele>
        <time>2000-01-01T21:54:19.000Z</time>
      </trkpt>
      <trkpt lat="45.9001" lon="6.18573">
        <ele>1242.6</ele>
        <time>2000-01-01T21:54:09.000Z</time>
      </trkpt>
      <trkpt lat="45.90003" lon="6.18564">
        <ele>1238</ele>
        <time>2000-01-01T21:53:59.000Z</time>
      </trkpt>
      <trkpt lat="45.89991" lon="6.1856">
        <ele>1249.9</ele>
        <time>2000-01-01T21:53:49.000Z</time>
      </trkpt>
      <trkpt lat="45.89982" lon="6.18559">
        <ele>1248</ele>
        <time>2000-01-01T21:53:39.000Z</time>
      </trkpt>
      <trkpt lat="45.89972" lon="6.18561">
        <ele>1255.6</ele>
        <time>2000-01-01T21:53:29.000Z</time>
      </trkpt>
      <trkpt lat="45.89961" lon="6.18563">
        <ele>1251</ele>
        <time>2000-01-01T21:53:19.000Z</time>
      </trkpt>
      <trkpt lat="45.89951" lon="6.18566">
        <ele>1261.7</ele>
        <time>2000-01-01T21:53:09.000Z</time>
      </trkpt>
      <trkpt lat="45.89939" lon="6.18569">
        <ele>1259</ele>
        <time>2000-01-01T21:52:59.000Z</time>
      </trkpt>
      <trkpt lat="45.89928" lon="6.18569">
        <ele>1268.7</ele>
        <time>2000-01-01T21:52:49.000Z</time>
      </trkpt>
      <trkpt lat="45.89919" lon="6.18573">
        <ele>1271.4</ele>
        <time>2000-01-01T21:52:39.000Z</time>
      </trkpt>
      <trkpt lat="45.8991" lon="6.18574">
        <ele>1264</ele>
        <time>2000-01-01T21:52:29.000Z</time>
      </trkpt>
      <trkpt lat="45.89899" lon="6.18577">
        <ele>1274</ele>
        <time>2000-01-01T21:52:19.000Z</time>
      </trkpt>
      <trkpt lat="45.89889" lon="6.18578">
        <ele>1268</ele>
        <time>2000-01-01T21:52:09.000Z</time>
      </trkpt>
      <trkpt lat="45.89884" lon="6.18591">
        <ele>1274.6</ele>
        <time>2000-01-01T21:51:59.000Z</time>
      </trkpt>
      <trkpt lat="45.89883" lon="6.18604">
        <ele>1272.4</ele>
        <time>2000-01-01T21:51:49.000Z</time>
      </trkpt>
      <trkpt lat="45.89879" lon="6.18603">
        <ele>1272</ele>
        <time>2000-01-01T21:51:39.000Z</time>
      </trkpt>
      <trkpt lat="45.89869" lon="6.18598">
        <ele>1275.2</ele>
        <time>2000-01-01T21:51:29.000Z</time>
      </trkpt>
      <trkpt lat="45.89856" lon="6.18596">
        <ele>1275</ele>
        <time>2000-01-01T21:51:19.000Z</time>
      </trkpt>
      <trkpt lat="45.89845" lon="6.18595">
        <ele>1278.7</ele>
        <time>2000-01-01T21:51:09.000Z</time>
      </trkpt>
      <trkpt lat="45.89834" lon="6.18596">
        <ele>1279</ele>
        <time>2000-01-01T21:50:59.000Z</time>
      </trkpt>
      <trkpt lat="45.89825" lon="6.18599">
        <ele>1279.8</ele>
        <time>2000-01-01T21:50:49.000Z</time>
      </trkpt>
      <trkpt lat="45.89815" lon="6.18602">
        <ele>1281</ele>
        <time>2000-01-01T21:50:39.000Z</time>
      </trkpt>
      <trkpt lat="45.89805" lon="6.186">
        <ele>1280.2</ele>
        <time>2000-01-01T21:50:29.000Z</time>
      </trkpt>
      <trkpt lat="45.89796" lon="6.18597">
        <ele>1283</ele>
        <time>2000-01-01T21:50:19.000Z</time>
      </trkpt>
      <trkpt lat="45.89784" lon="6.18598">
        <ele>1280.8</ele>
        <time>2000-01-01T21:50:09.000Z</time>
      </trkpt>
      <trkpt lat="45.89775" lon="6.186">
        <ele>1288</ele>
        <time>2000-01-01T21:49:59.000Z</time>
      </trkpt>
      <trkpt lat="45.89766" lon="6.18604">
        <ele>1281.6</ele>
        <time>2000-01-01T21:49:49.000Z</time>
      </trkpt>
      <trkpt lat="45.89755" lon="6.18606">
        <ele>1288</ele>
        <time>2000-01-01T21:49:39.000Z</time>
      </trkpt>
      <trkpt lat="45.89744" lon="6.18607">
        <ele>1279.3</ele>
        <time>2000-01-01T21:49:29.000Z</time>
      </trkpt>
      <trkpt lat="45.89735" lon="6.1861">
        <ele>1288</ele>
        <time>2000-01-01T21:49:19.000Z</time>
      </trkpt>
      <trkpt lat="45.89726" lon="6.18618">
        <ele>1272.6</ele>
        <time>2000-01-01T21:49:09.000Z</time>
      </trkpt>
      <trkpt lat="45.89716" lon="6.18622">
        <ele>1269.5</ele>
        <time>2000-01-01T21:48:59.000Z</time>
      </trkpt>
      <trkpt lat="45.89712" lon="6.1862">
        <ele>1290</ele>
        <time>2000-01-01T21:48:49.000Z</time>
      </trkpt>
      <trkpt lat="45.89707" lon="6.18609">
        <ele>1259.9</ele>
        <time>2000-01-01T21:48:39.000Z</time>
      </trkpt>
      <trkpt lat="45.897" lon="6.186">
        <ele>1251.7</ele>
        <time>2000-01-01T21:48:29.000Z</time>
      </trkpt>
      <trkpt lat="45.89691" lon="6.18597">
        <ele>1290</ele>
        <time>2000-01-01T21:48:19.000Z</time>
      </trkpt>
      <trkpt lat="45.89689" lon="6.18598">
        <ele>1243.9</ele>
        <time>2000-01-01T21:48:09.000Z</time>
      </trkpt>
      <trkpt lat="45.89687" lon="6.18601">
        <ele>1244.4</ele>
        <time>2000-01-01T21:47:59.000Z</time>
      </trkpt>
      <trkpt lat="45.89677" lon="6.18618">
        <ele>1290</ele>
        <time>2000-01-01T21:47:49.000Z</time>
      </trkpt>
      <trkpt lat="45.89673" lon="6.18631">
        <ele>1257.3</ele>
        <time>2000-01-01T21:47:39.000Z</time>
      </trkpt>
      <trkpt lat="45.89674" lon="6.18634">
        <ele>1259.8</ele>
        <time>2000-01-01T21:47:29.000Z</time>
      </trkpt>
      <trkpt lat="45.89677" lon="6.18639">
        <ele>1264.2</ele>
        <time>2000-01-01T21:47:19.000Z</time>
      </trkpt>
      <trkpt lat="45.89678" lon="6.18638">
        <ele>1263.8</ele>
        <time>2000-01-01T21:47:09.000Z</time>
      </trkpt>
      <trkpt lat="45.8968" lon="6.18638">
        <ele>1264.4</ele>
        <time>2000-01-01T21:46:59.000Z</time>
      </trkpt>
      <trkpt lat="45.89684" lon="6.1864">
        <ele>1295</ele>
        <time>2000-01-01T21:46:49.000Z</time>
      </trkpt>
      <trkpt lat="45.89683" lon="6.18644">
        <ele>1269.1</ele>
        <time>2000-01-01T21:46:39.000Z</time>
      </trkpt>
      <trkpt lat="45.89683" lon="6.18645">
        <ele>1269.7</ele>
        <time>2000-01-01T21:46:29.000Z</time>
      </trkpt>
      <trkpt lat="45.8968" lon="6.1865">
        <ele>1272.2</ele>
        <time>2000-01-01T21:46:19.000Z</time>
      </trkpt>
      <trkpt lat="45.89679" lon="6.18651">
        <ele>1272.7</ele>
        <time>2000-01-01T21:46:09.000Z</time>
      </trkpt>
      <trkpt lat="45.89676" lon="6.18659">
        <ele>1277.5</ele>
        <time>2000-01-01T21:45:59.000Z</time>
      </trkpt>
      <trkpt lat="45.89675" lon="6.18666">
        <ele>1296</ele>
        <time>2000-01-01T21:45:49.000Z</time>
      </trkpt>
      <trkpt lat="45.89673" lon="6.18674">
        <ele>1281.6</ele>
        <time>2000-01-01T21:45:39.000Z</time>
      </trkpt>
      <trkpt lat="45.89672" lon="6.18679">
        <ele>1280.9</ele>
        <time>2000-01-01T21:45:29.000Z</time>
      </trkpt>
      <trkpt lat="45.8967" lon="6.18681">
        <ele>1280.6</ele>
        <time>2000-01-01T21:45:19.000Z</time>
      </trkpt>
      <trkpt lat="45.89668" lon="6.18685">
        <ele>1280.1</ele>
        <time>2000-01-01T21:45:09.000Z</time>
      </trkpt>
      <trkpt lat="45.89663" lon="6.18687">
        <ele>1296</ele>
        <time>2000-01-01T21:44:59.000Z</time>
      </trkpt>
      <trkpt lat="45.89658" lon="6.18689">
        <ele>1275.4</ele>
        <time>2000-01-01T21:44:49.000Z</time>
      </trkpt>
      <trkpt lat="45.89654" lon="6.1869">
        <ele>1273.5</ele>
        <time>2000-01-01T21:44:39.000Z</time>
      </trkpt>
      <trkpt lat="45.8965" lon="6.18693">
        <ele>1271.5</ele>
        <time>2000-01-01T21:44:29.000Z</time>
      </trkpt>
      <trkpt lat="45.89646" lon="6.18694">
        <ele>1269.7</ele>
        <time>2000-01-01T21:44:19.000Z</time>
      </trkpt>
      <trkpt lat="45.89642" lon="6.18696">
        <ele>1290</ele>
        <time>2000-01-01T21:44:09.000Z</time>
      </trkpt>
      <trkpt lat="45.89636" lon="6.18696">
        <ele>1265.4</ele>
        <time>2000-01-01T21:43:59.000Z</time>
      </trkpt>
      <trkpt lat="45.89632" lon="6.18698">
        <ele>1263.8</ele>
        <time>2000-01-01T21:43:49.000Z</time>
      </trkpt>
      <trkpt lat="45.89632" lon="6.18698">
        <ele>1263.8</ele>
        <time>2000-01-01T21:43:39.000Z</time>
      </trkpt>
      <trkpt lat="45.8963" lon="6.18701">
        <ele>1263.3</ele>
        <time>2000-01-01T21:43:29.000Z</time>
      </trkpt>
      <trkpt lat="45.89628" lon="6.18703">
        <ele>1262.7</ele>
        <time>2000-01-01T21:43:19.000Z</time>
      </trkpt>
      <trkpt lat="45.89626" lon="6.18708">
        <ele>1262.6</ele>
        <time>2000-01-01T21:43:09.000Z</time>
      </trkpt>
      <trkpt lat="45.89624" lon="6.18709">
        <ele>1284</ele>
        <time>2000-01-01T21:42:59.000Z</time>
      </trkpt>
      <trkpt lat="45.89621" lon="6.18713">
        <ele>1261.5</ele>
        <time>2000-01-01T21:42:49.000Z</time>
      </trkpt>
      <trkpt lat="45.89617" lon="6.18715">
        <ele>1260.6</ele>
        <time>2000-01-01T21:42:39.000Z</time>
      </trkpt>
      <trkpt lat="45.89615" lon="6.18719">
        <ele>1260.7</ele>
        <time>2000-01-01T21:42:29.000Z</time>
      </trkpt>
      <trkpt lat="45.89613" lon="6.18721">
        <ele>1260.5</ele>
        <time>2000-01-01T21:42:19.000Z</time>
      </trkpt>
      <trkpt lat="45.8961" lon="6.18725">
        <ele>1260.5</ele>
        <time>2000-01-01T21:42:09.000Z</time>
      </trkpt>
      <trkpt lat="45.89608" lon="6.18726">
        <ele>1277</ele>
        <time>2000-01-01T21:41:59.000Z</time>
      </trkpt>
      <trkpt lat="45.89606" lon="6.18728">
        <ele>1260.2</ele>
        <time>2000-01-01T21:41:49.000Z</time>
      </trkpt>
      <trkpt lat="45.89603" lon="6.18731">
        <ele>1260.3</ele>
        <time>2000-01-01T21:41:39.000Z</time>
      </trkpt>
      <trkpt lat="45.896" lon="6.18732">
        <ele>1259.9</ele>
        <time>2000-01-01T21:41:29.000Z</time>
      </trkpt>
      <trkpt lat="45.89596" lon="6.18731">
        <ele>1258.6</ele>
        <time>2000-01-01T21:41:19.000Z</time>
      </trkpt>
      <trkpt lat="45.89594" lon="6.1873">
        <ele>1257.9</ele>
        <time>2000-01-01T21:41:09.000Z</time>
      </trkpt>
      <trkpt lat="45.89589" lon="6.18729">
        <ele>1271</ele>
        <time>2000-01-01T21:40:59.000Z</time>
      </trkpt>
      <trkpt lat="45.89585" lon="6.18729">
        <ele>1255.3</ele>
        <time>2000-01-01T21:40:49.000Z</time>
      </trkpt>
      <trkpt lat="45.89576" lon="6.18731">
        <ele>1252</ele>
        <time>2000-01-01T21:40:39.000Z</time>
      </trkpt>
      <trkpt lat="45.89569" lon="6.18741">
        <ele>1269</ele>
        <time>2000-01-01T21:40:29.000Z</time>
      </trkpt>
      <trkpt lat="45.8956" lon="6.18748">
        <ele>1255.7</ele>
        <time>2000-01-01T21:40:19.000Z</time>
      </trkpt>
      <trkpt lat="45.89552" lon="6.18754">
        <ele>1254.4</ele>
        <time>2000-01-01T21:40:09.000Z</time>
      </trkpt>
      <trkpt lat="45.89544" lon="6.18761">
        <ele>1267</ele>
        <time>2000-01-01T21:39:59.000Z</time>
      </trkpt>
      <trkpt lat="45.89535" lon="6.18767">
        <ele>1248.8</ele>
        <time>2000-01-01T21:39:49.000Z</time>
      </trkpt>
      <trkpt lat="45.89531" lon="6.18767">
        <ele>1248.1</ele>
        <time>2000-01-01T21:39:39.000Z</time>
      </trkpt>
      <trkpt lat="45.89524" lon="6.18764">
        <ele>1266</ele>
        <time>2000-01-01T21:39:29.000Z</time>
      </trkpt>
      <trkpt lat="45.89515" lon="6.18762">
        <ele>1245.3</ele>
        <time>2000-01-01T21:39:19.000Z</time>
      </trkpt>
      <trkpt lat="45.89511" lon="6.18762">
        <ele>1244.5</ele>
        <time>2000-01-01T21:39:09.000Z</time>
      </trkpt>
      <trkpt lat="45.89508" lon="6.18765">
        <ele>1243.9</ele>
        <time>2000-01-01T21:38:59.000Z</time>
      </trkpt>
      <trkpt lat="45.89504" lon="6.18768">
        <ele>1266</ele>
        <time>2000-01-01T21:38:49.000Z</time>
      </trkpt>
      <trkpt lat="45.895" lon="6.18769">
        <ele>1242.5</ele>
        <time>2000-01-01T21:38:39.000Z</time>
      </trkpt>
      <trkpt lat="45.89495" lon="6.18768">
        <ele>1240.9</ele>
        <time>2000-01-01T21:38:29.000Z</time>
      </trkpt>
      <trkpt lat="45.89494" lon="6.18771">
        <ele>1240.8</ele>
        <time>2000-01-01T21:38:19.000Z</time>
      </trkpt>
      <trkpt lat="45.89492" lon="6.18776">
        <ele>1240.5</ele>
        <time>2000-01-01T21:38:09.000Z</time>
      </trkpt>
      <trkpt lat="45.89491" lon="6.18781">
        <ele>1240.6</ele>
        <time>2000-01-01T21:37:59.000Z</time>
      </trkpt>
      <trkpt lat="45.89489" lon="6.18785">
        <ele>1251</ele>
        <time>2000-01-01T21:37:49.000Z</time>
      </trkpt>
      <trkpt lat="45.89486" lon="6.18787">
        <ele>1240</ele>
        <time>2000-01-01T21:37:39.000Z</time>
      </trkpt>
      <trkpt lat="45.89482" lon="6.18789">
        <ele>1239.4</ele>
        <time>2000-01-01T21:37:29.000Z</time>
      </trkpt>
      <trkpt lat="45.89478" lon="6.18794">
        <ele>1239.2</ele>
        <time>2000-01-01T21:37:19.000Z</time>
      </trkpt>
      <trkpt lat="45.89474" lon="6.18793">
        <ele>1238.4</ele>
        <time>2000-01-01T21:37:09.000Z</time>
      </trkpt>
      <trkpt lat="45.89471" lon="6.18797">
        <ele>1249</ele>
        <time>2000-01-01T21:36:59.000Z</time>
      </trkpt>
      <trkpt lat="45.89461" lon="6.18804">
        <ele>1238.3</ele>
        <time>2000-01-01T21:36:49.000Z</time>
      </trkpt>
      <trkpt lat="45.89453" lon="6.18809">
        <ele>1248</ele>
        <time>2000-01-01T21:36:39.000Z</time>
      </trkpt>
      <trkpt lat="45.89444" lon="6.18814">
        <ele>1239.1</ele>
        <time>2000-01-01T21:36:29.000Z</time>
      </trkpt>
      <trkpt lat="45.89442" lon="6.18815">
        <ele>1239.2</ele>
        <time>2000-01-01T21:36:19.000Z</time>
      </trkpt>
      <trkpt lat="45.89436" lon="6.18822">
        <ele>1241</ele>
        <time>2000-01-01T21:36:09.000Z</time>
      </trkpt>
      <trkpt lat="45.89434" lon="6.18822">
        <ele>1241</ele>
        <time>2000-01-01T21:35:59.000Z</time>
      </trkpt>
      <trkpt lat="45.89431" lon="6.18821">
        <ele>1248</ele>
        <time>2000-01-01T21:35:49.000Z</time>
      </trkpt>
      <trkpt lat="45.89427" lon="6.18821">
        <ele>1240.3</ele>
        <time>2000-01-01T21:35:39.000Z</time>
      </trkpt>
      <trkpt lat="45.89422" lon="6.18821">
        <ele>1240.1</ele>
        <time>2000-01-01T21:35:29.000Z</time>
      </trkpt>
      <trkpt lat="45.89418" lon="6.18822">
        <ele>1240.3</ele>
        <time>2000-01-01T21:35:19.000Z</time>
      </trkpt>
      <trkpt lat="45.89414" lon="6.18825">
        <ele>1240.9</ele>
        <time>2000-01-01T21:35:09.000Z</time>
      </trkpt>
      <trkpt lat="45.89412" lon="6.18827">
        <ele>1248</ele>
        <time>2000-01-01T21:34:59.000Z</time>
      </trkpt>
      <trkpt lat="45.89408" lon="6.18832">
        <ele>1243.1</ele>
        <time>2000-01-01T21:34:49.000Z</time>
      </trkpt>
      <trkpt lat="45.89403" lon="6.18835">
        <ele>1242.6</ele>
        <time>2000-01-01T21:34:39.000Z</time>
      </trkpt>
      <trkpt lat="45.89398" lon="6.18838">
        <ele>1241.3</ele>
        <time>2000-01-01T21:34:29.000Z</time>
      </trkpt>
      <trkpt lat="45.89396" lon="6.18838">
        <ele>1241</ele>
        <time>2000-01-01T21:34:19.000Z</time>
      </trkpt>
      <trkpt lat="45.89391" lon="6.18841">
        <ele>1246</ele>
        <time>2000-01-01T21:34:09.000Z</time>
      </trkpt>
      <trkpt lat="45.89387" lon="6.18842">
        <ele>1239.1</ele>
        <time>2000-01-01T21:33:59.000Z</time>
      </trkpt>
      <trkpt lat="45.89383" lon="6.18844">
        <ele>1238.3</ele>
        <time>2000-01-01T21:33:49.000Z</time>
      </trkpt>
      <trkpt lat="45.89379" lon="6.18844">
        <ele>1237.8</ele>
        <time>2000-01-01T21:33:39.000Z</time>
      </trkpt>
      <trkpt lat="45.89374" lon="6.18846">
        <ele>1237</ele>
        <time>2000-01-01T21:33:29.000Z</time>
      </trkpt>
      <trkpt lat="45.89373" lon="6.18849">
        <ele>1242</ele>
        <time>2000-01-01T21:33:19.000Z</time>
      </trkpt>
      <trkpt lat="45.89371" lon="6.18851">
        <ele>1236</ele>
        <time>2000-01-01T21:33:09.000Z</time>
      </trkpt>
      <trkpt lat="45.89366" lon="6.18856">
        <ele>1235</ele>
        <time>2000-01-01T21:32:59.000Z</time>
      </trkpt>
      <trkpt lat="45.89362" lon="6.18859">
        <ele>1234.4</ele>
        <time>2000-01-01T21:32:49.000Z</time>
      </trkpt>
      <trkpt lat="45.89356" lon="6.1886">
        <ele>1240</ele>
        <time>2000-01-01T21:32:39.000Z</time>
      </trkpt>
      <trkpt lat="45.8935" lon="6.18862">
        <ele>1233.5</ele>
        <time>2000-01-01T21:32:29.000Z</time>
      </trkpt>
      <trkpt lat="45.89344" lon="6.18862">
        <ele>1233.2</ele>
        <time>2000-01-01T21:32:19.000Z</time>
      </trkpt>
      <trkpt lat="45.89338" lon="6.18863">
        <ele>1232.9</ele>
        <time>2000-01-01T21:32:09.000Z</time>
      </trkpt>
      <trkpt lat="45.89334" lon="6.18865">
        <ele>1240</ele>
        <time>2000-01-01T21:31:59.000Z</time>
      </trkpt>
      <trkpt lat="45.8932" lon="6.18872">
        <ele>1232.8</ele>
        <time>2000-01-01T21:31:49.000Z</time>
      </trkpt>
      <trkpt lat="45.8932" lon="6.18872">
        <ele>1232.8</ele>
        <time>2000-01-01T21:31:39.000Z</time>
      </trkpt>
      <trkpt lat="45.89318" lon="6.18873">
        <ele>1232.8</ele>
        <time>2000-01-01T21:31:29.000Z</time>
      </trkpt>
      <trkpt lat="45.89316" lon="6.18874">
        <ele>1232.9</ele>
        <time>2000-01-01T21:31:19.000Z</time>
      </trkpt>
      <trkpt lat="45.89311" lon="6.18877">
        <ele>1241</ele>
        <time>2000-01-01T21:31:09.000Z</time>
      </trkpt>
      <trkpt lat="45.89309" lon="6.18879">
        <ele>1233.3</ele>
        <time>2000-01-01T21:30:59.000Z</time>
      </trkpt>
      <trkpt lat="45.89304" lon="6.18883">
        <ele>1233.7</ele>
        <time>2000-01-01T21:30:49.000Z</time>
      </trkpt>
      <trkpt lat="45.89298" lon="6.18886">
        <ele>1234.2</ele>
        <time>2000-01-01T21:30:39.000Z</time>
      </trkpt>
      <trkpt lat="45.89293" lon="6.1889">
        <ele>1241</ele>
        <time>2000-01-01T21:30:29.000Z</time>
      </trkpt>
      <trkpt lat="45.89281" lon="6.18895">
        <ele>1236.2</ele>
        <time>2000-01-01T21:30:19.000Z</time>
      </trkpt>
      <trkpt lat="45.89272" lon="6.18898">
        <ele>1242</ele>
        <time>2000-01-01T21:30:09.000Z</time>
      </trkpt>
      <trkpt lat="45.89269" lon="6.18899">
        <ele>1237.8</ele>
        <time>2000-01-01T21:29:59.000Z</time>
      </trkpt>
      <trkpt lat="45.89265" lon="6.18902">
        <ele>1238.6</ele>
        <time>2000-01-01T21:29:49.000Z</time>
      </trkpt>
      <trkpt lat="45.89261" lon="6.18903">
        <ele>1239.1</ele>
        <time>2000-01-01T21:29:39.000Z</time>
      </trkpt>
      <trkpt lat="45.89258" lon="6.18902">
        <ele>1239.3</ele>
        <time>2000-01-01T21:29:29.000Z</time>
      </trkpt>
      <trkpt lat="45.89253" lon="6.18901">
        <ele>1239.5</ele>
        <time>2000-01-01T21:29:19.000Z</time>
      </trkpt>
      <trkpt lat="45.89251" lon="6.18901">
        <ele>1251</ele>
        <time>2000-01-01T21:29:09.000Z</time>
      </trkpt>
      <trkpt lat="45.89247" lon="6.18901">
        <ele>1239.3</ele>
        <time>2000-01-01T21:28:59.000Z</time>
      </trkpt>
      <trkpt lat="45.89241" lon="6.18903">
        <ele>1238.8</ele>
        <time>2000-01-01T21:28:49.000Z</time>
      </trkpt>
      <trkpt lat="45.89237" lon="6.18905">
        <ele>1238.9</ele>
        <time>2000-01-01T21:28:39.000Z</time>
      </trkpt>
      <trkpt lat="45.89233" lon="6.18911">
        <ele>1253</ele>
        <time>2000-01-01T21:28:29.000Z</time>
      </trkpt>
      <trkpt lat="45.89229" lon="6.18916">
        <ele>1243.2</ele>
        <time>2000-01-01T21:28:19.000Z</time>
      </trkpt>
      <trkpt lat="45.89227" lon="6.18917">
        <ele>1243.5</ele>
        <time>2000-01-01T21:28:09.000Z</time>
      </trkpt>
      <trkpt lat="45.89222" lon="6.18919">
        <ele>1243</ele>
        <time>2000-01-01T21:27:59.000Z</time>
      </trkpt>
      <trkpt lat="45.89217" lon="6.18921">
        <ele>1242.7</ele>
        <time>2000-01-01T21:27:49.000Z</time>
      </trkpt>
      <trkpt lat="45.89211" lon="6.18923">
        <ele>1253</ele>
        <time>2000-01-01T21:27:39.000Z</time>
      </trkpt>
      <trkpt lat="45.89206" lon="6.18924">
        <ele>1242.3</ele>
        <time>2000-01-01T21:27:29.000Z</time>
      </trkpt>
      <trkpt lat="45.89201" lon="6.18926">
        <ele>1242</ele>
        <time>2000-01-01T21:27:19.000Z</time>
      </trkpt>
      <trkpt lat="45.89197" lon="6.18928">
        <ele>1241.7</ele>
        <time>2000-01-01T21:27:09.000Z</time>
      </trkpt>
      <trkpt lat="45.89193" lon="6.18928">
        <ele>1253</ele>
        <time>2000-01-01T21:26:59.000Z</time>
      </trkpt>
      <trkpt lat="45.89188" lon="6.1893">
        <ele>1241.6</ele>
        <time>2000-01-01T21:26:49.000Z</time>
      </trkpt>
      <trkpt lat="45.89183" lon="6.18933">
        <ele>1241.2</ele>
        <time>2000-01-01T21:26:39.000Z</time>
      </trkpt>
      <trkpt lat="45.89179" lon="6.18937">
        <ele>1240.6</ele>
        <time>2000-01-01T21:26:29.000Z</time>
      </trkpt>
      <trkpt lat="45.89177" lon="6.18938">
        <ele>1240.6</ele>
        <time>2000-01-01T21:26:19.000Z</time>
      </trkpt>
      <trkpt lat="45.89172" lon="6.18937">
        <ele>1250</ele>
        <time>2000-01-01T21:26:09.000Z</time>
      </trkpt>
      <trkpt lat="45.89169" lon="6.18934">
        <ele>1241.8</ele>
        <time>2000-01-01T21:25:59.000Z</time>
      </trkpt>
      <trkpt lat="45.89164" lon="6.18932">
        <ele>1241.2</ele>
        <time>2000-01-01T21:25:49.000Z</time>
      </trkpt>
      <trkpt lat="45.89161" lon="6.18933">
        <ele>1239.9</ele>
        <time>2000-01-01T21:25:39.000Z</time>
      </trkpt>
      <trkpt lat="45.89157" lon="6.18935">
        <ele>1238</ele>
        <time>2000-01-01T21:25:29.000Z</time>
      </trkpt>
      <trkpt lat="45.89152" lon="6.18938">
        <ele>1247</ele>
        <time>2000-01-01T21:25:19.000Z</time>
      </trkpt>
      <trkpt lat="45.89148" lon="6.18942">
        <ele>1233.6</ele>
        <time>2000-01-01T21:25:09.000Z</time>
      </trkpt>
      <trkpt lat="45.89145" lon="6.18945">
        <ele>1232.1</ele>
        <time>2000-01-01T21:24:59.000Z</time>
      </trkpt>
      <trkpt lat="45.89141" lon="6.18949">
        <ele>1230.2</ele>
        <time>2000-01-01T21:24:49.000Z</time>
      </trkpt>
      <trkpt lat="45.89138" lon="6.18955">
        <ele>1228.4</ele>
        <time>2000-01-01T21:24:39.000Z</time>
      </trkpt>
      <trkpt lat="45.89136" lon="6.18957">
        <ele>1241</ele>
        <time>2000-01-01T21:24:29.000Z</time>
      </trkpt>
      <trkpt lat="45.89133" lon="6.18959">
        <ele>1226.3</ele>
        <time>2000-01-01T21:24:19.000Z</time>
      </trkpt>
      <trkpt lat="45.8913" lon="6.1896">
        <ele>1225.2</ele>
        <time>2000-01-01T21:24:09.000Z</time>
      </trkpt>
      <trkpt lat="45.8913" lon="6.18957">
        <ele>1225.5</ele>
        <time>2000-01-01T21:23:59.000Z</time>
      </trkpt>
      <trkpt lat="45.89128" lon="6.1895">
        <ele>1225.5</ele>
        <time>2000-01-01T21:23:49.000Z</time>
      </trkpt>
      <trkpt lat="45.89124" lon="6.18947">
        <ele>1224.4</ele>
        <time>2000-01-01T21:23:39.000Z</time>
      </trkpt>
      <trkpt lat="45.89122" lon="6.18947">
        <ele>1238</ele>
        <time>2000-01-01T21:23:29.000Z</time>
      </trkpt>
      <trkpt lat="45.89117" lon="6.1895">
        <ele>1221.7</ele>
        <time>2000-01-01T21:23:19.000Z</time>
      </trkpt>
      <trkpt lat="45.89112" lon="6.18952">
        <ele>1219.9</ele>
        <time>2000-01-01T21:23:09.000Z</time>
      </trkpt>
      <trkpt lat="45.89109" lon="6.18954">
        <ele>1218.7</ele>
        <time>2000-01-01T21:22:59.000Z</time>
      </trkpt>
      <trkpt lat="45.89106" lon="6.18957">
        <ele>1217.5</ele>
        <time>2000-01-01T21:22:49.000Z</time>
      </trkpt>
      <trkpt lat="45.89104" lon="6.18959">
        <ele>1216.8</ele>
        <time>2000-01-01T21:22:39.000Z</time>
      </trkpt>
      <trkpt lat="45.89104" lon="6.18962">
        <ele>1232</ele>
        <time>2000-01-01T21:22:29.000Z</time>
      </trkpt>
      <trkpt lat="45.89103" lon="6.18964">
        <ele>1216.2</ele>
        <time>2000-01-01T21:22:19.000Z</time>
      </trkpt>
      <trkpt lat="45.891" lon="6.18968">
        <ele>1215.2</ele>
        <time>2000-01-01T21:22:09.000Z</time>
      </trkpt>
      <trkpt lat="45.89098" lon="6.18968">
        <ele>1214.5</ele>
        <time>2000-01-01T21:21:59.000Z</time>
      </trkpt>
      <trkpt lat="45.89098" lon="6.18968">
        <ele>1214.5</ele>
        <time>2000-01-01T21:21:49.000Z</time>
      </trkpt>
      <trkpt lat="45.89098" lon="6.18971">
        <ele>1214.4</ele>
        <time>2000-01-01T21:21:39.000Z</time>
      </trkpt>
      <trkpt lat="45.89097" lon="6.18974">
        <ele>1214</ele>
        <time>2000-01-01T21:21:29.000Z</time>
      </trkpt>
      <trkpt lat="45.89096" lon="6.18976">
        <ele>1213.7</ele>
        <time>2000-01-01T21:21:19.000Z</time>
      </trkpt>
      <trkpt lat="45.89094" lon="6.18982">
        <ele>1222</ele>
        <time>2000-01-01T21:21:09.000Z</time>
      </trkpt>
      <trkpt lat="45.89092" lon="6.18987">
        <ele>1212.3</ele>
        <time>2000-01-01T21:20:59.000Z</time>
      </trkpt>
      <trkpt lat="45.89091" lon="6.1899">
        <ele>1212</ele>
        <time>2000-01-01T21:20:49.000Z</time>
      </trkpt>
      <trkpt lat="45.89088" lon="6.18994">
        <ele>1211.2</ele>
        <time>2000-01-01T21:20:39.000Z</time>
      </trkpt>
      <trkpt lat="45.89084" lon="6.18998">
        <ele>1210.2</ele>
        <time>2000-01-01T21:20:29.000Z</time>
      </trkpt>
      <trkpt lat="45.89081" lon="6.19002">
        <ele>1217</ele>
        <time>2000-01-01T21:20:19.000Z</time>
      </trkpt>
      <trkpt lat="45.8908" lon="6.19008">
        <ele>1204.4</ele>
        <time>2000-01-01T21:20:09.000Z</time>
      </trkpt>
      <trkpt lat="45.89081" lon="6.19014">
        <ele>1203</ele>
        <time>2000-01-01T21:19:59.000Z</time>
      </trkpt>
      <trkpt lat="45.89083" lon="6.19017">
        <ele>1203.4</ele>
        <time>2000-01-01T21:19:49.000Z</time>
      </trkpt>
      <trkpt lat="45.89081" lon="6.19019">
        <ele>1201.2</ele>
        <time>2000-01-01T21:19:39.000Z</time>
      </trkpt>
      <trkpt lat="45.89076" lon="6.1902">
        <ele>1197.2</ele>
        <time>2000-01-01T21:19:29.000Z</time>
      </trkpt>
      <trkpt lat="45.89076" lon="6.19022">
        <ele>1196.5</ele>
        <time>2000-01-01T21:19:19.000Z</time>
      </trkpt>
      <trkpt lat="45.89075" lon="6.19024">
        <ele>1205</ele>
        <time>2000-01-01T21:19:09.000Z</time>
      </trkpt>
      <trkpt lat="45.89074" lon="6.19031">
        <ele>1192.1</ele>
        <time>2000-01-01T21:18:59.000Z</time>
      </trkpt>
      <trkpt lat="45.89072" lon="6.19031">
        <ele>1190.8</ele>
        <time>2000-01-01T21:18:49.000Z</time>
      </trkpt>
      <trkpt lat="45.89067" lon="6.19031">
        <ele>1187.4</ele>
        <time>2000-01-01T21:18:39.000Z</time>
      </trkpt>
      <trkpt lat="45.89065" lon="6.1903">
        <ele>1186.3</ele>
        <time>2000-01-01T21:18:29.000Z</time>
      </trkpt>
      <trkpt lat="45.89061" lon="6.19028">
        <ele>1184.1</ele>
        <time>2000-01-01T21:18:19.000Z</time>
      </trkpt>
      <trkpt lat="45.89058" lon="6.19028">
        <ele>1194</ele>
        <time>2000-01-01T21:18:09.000Z</time>
      </trkpt>
      <trkpt lat="45.89057" lon="6.19031">
        <ele>1180.5</ele>
        <time>2000-01-01T21:17:59.000Z</time>
      </trkpt>
      <trkpt lat="45.89057" lon="6.19036">
        <ele>1179.3</ele>
        <time>2000-01-01T21:17:49.000Z</time>
      </trkpt>
      <trkpt lat="45.89057" lon="6.19039">
        <ele>1178.6</ele>
        <time>2000-01-01T21:17:39.000Z</time>
      </trkpt>
      <trkpt lat="45.89058" lon="6.19042">
        <ele>1178.5</ele>
        <time>2000-01-01T21:17:29.000Z</time>
      </trkpt>
      <trkpt lat="45.89059" lon="6.19046">
        <ele>1178.1</ele>
        <time>2000-01-01T21:17:19.000Z</time>
      </trkpt>
      <trkpt lat="45.89062" lon="6.19051">
        <ele>1178.5</ele>
        <time>2000-01-01T21:17:09.000Z</time>
      </trkpt>
      <trkpt lat="45.89062" lon="6.19054">
        <ele>1191</ele>
        <time>2000-01-01T21:16:59.000Z</time>
      </trkpt>
      <trkpt lat="45.89066" lon="6.19059">
        <ele>1178.6</ele>
        <time>2000-01-01T21:16:49.000Z</time>
      </trkpt>
      <trkpt lat="45.89069" lon="6.19062">
        <ele>1179.3</ele>
        <time>2000-01-01T21:16:39.000Z</time>
      </trkpt>
      <trkpt lat="45.89071" lon="6.19063">
        <ele>1180</ele>
        <time>2000-01-01T21:16:29.000Z</time>
      </trkpt>
      <trkpt lat="45.89073" lon="6.19064">
        <ele>1180.8</ele>
        <time>2000-01-01T21:16:19.000Z</time>
      </trkpt>
      <trkpt lat="45.89076" lon="6.19065">
        <ele>1182</ele>
        <time>2000-01-01T21:16:09.000Z</time>
      </trkpt>
      <trkpt lat="45.89079" lon="6.19068">
        <ele>1186</ele>
        <time>2000-01-01T21:15:59.000Z</time>
      </trkpt>
      <trkpt lat="45.89081" lon="6.19069">
        <ele>1183.2</ele>
        <time>2000-01-01T21:15:49.000Z</time>
      </trkpt>
      <trkpt lat="45.89088" lon="6.19072">
        <ele>1183.7</ele>
        <time>2000-01-01T21:15:39.000Z</time>
      </trkpt>
      <trkpt lat="45.89095" lon="6.19074">
        <ele>1183.5</ele>
        <time>2000-01-01T21:15:29.000Z</time>
      </trkpt>
      <trkpt lat="45.89099" lon="6.19074">
        <ele>1179</ele>
        <time>2000-01-01T21:15:19.000Z</time>
      </trkpt>
      <trkpt lat="45.89103" lon="6.19076">
        <ele>1183.4</ele>
        <time>2000-01-01T21:15:09.000Z</time>
      </trkpt>
      <trkpt lat="45.89105" lon="6.19075">
        <ele>1184</ele>
        <time>2000-01-01T21:14:59.000Z</time>
      </trkpt>
      <trkpt lat="45.8911" lon="6.19076">
        <ele>1184</ele>
        <time>2000-01-01T21:14:49.000Z</time>
      </trkpt>
      <trkpt lat="45.89121" lon="6.19076">
        <ele>1175</ele>
        <time>2000-01-01T21:14:39.000Z</time>
      </trkpt>
      <trkpt lat="45.89112" lon="6.19083">
        <ele>1181.2</ele>
        <time>2000-01-01T21:14:29.000Z</time>
      </trkpt>
      <trkpt lat="45.89106" lon="6.19093">
        <ele>1176.3</ele>
        <time>2000-01-01T21:14:19.000Z</time>
      </trkpt>
      <trkpt lat="45.89105" lon="6.19095">
        <ele>1175.4</ele>
        <time>2000-01-01T21:14:09.000Z</time>
      </trkpt>
      <trkpt lat="45.89104" lon="6.19098">
        <ele>1161</ele>
        <time>2000-01-01T21:13:59.000Z</time>
      </trkpt>
      <trkpt lat="45.89096" lon="6.19109">
        <ele>1168.8</ele>
        <time>2000-01-01T21:13:49.000Z</time>
      </trkpt>
      <trkpt lat="45.89087" lon="6.19113">
        <ele>1150</ele>
        <time>2000-01-01T21:13:39.000Z</time>
      </trkpt>
      <trkpt lat="45.89096" lon="6.19119">
        <ele>1164.4</ele>
        <time>2000-01-01T21:13:29.000Z</time>
      </trkpt>
      <trkpt lat="45.89086" lon="6.19122">
        <ele>1162.8</ele>
        <time>2000-01-01T21:13:19.000Z</time>
      </trkpt>
      <trkpt lat="45.89078" lon="6.19125">
        <ele>1143</ele>
        <time>2000-01-01T21:13:09.000Z</time>
      </trkpt>
      <trkpt lat="45.89074" lon="6.19129">
        <ele>1156.4</ele>
        <time>2000-01-01T21:12:59.000Z</time>
      </trkpt>
      <trkpt lat="45.8907" lon="6.19133">
        <ele>1153.3</ele>
        <time>2000-01-01T21:12:49.000Z</time>
      </trkpt>
      <trkpt lat="45.89061" lon="6.19144">
        <ele>1136</ele>
        <time>2000-01-01T21:12:39.000Z</time>
      </trkpt>
      <trkpt lat="45.89056" lon="6.19155">
        <ele>1139.9</ele>
        <time>2000-01-01T21:12:29.000Z</time>
      </trkpt>
      <trkpt lat="45.89056" lon="6.19164">
        <ele>1136.5</ele>
        <time>2000-01-01T21:12:19.000Z</time>
      </trkpt>
      <trkpt lat="45.89057" lon="6.19167">
        <ele>1135.6</ele>
        <time>2000-01-01T21:12:09.000Z</time>
      </trkpt>
      <trkpt lat="45.8906" lon="6.19177">
        <ele>1132</ele>
        <time>2000-01-01T21:11:59.000Z</time>
      </trkpt>
      <trkpt lat="45.89065" lon="6.1919">
        <ele>1128.7</ele>
        <time>2000-01-01T21:11:49.000Z</time>
      </trkpt>
      <trkpt lat="45.89069" lon="6.19194">
        <ele>1128.3</ele>
        <time>2000-01-01T21:11:39.000Z</time>
      </trkpt>
      <trkpt lat="45.89079" lon="6.192">
        <ele>1128.7</ele>
        <time>2000-01-01T21:11:29.000Z</time>
      </trkpt>
      <trkpt lat="45.89079" lon="6.192">
        <ele>1128</ele>
        <time>2000-01-01T21:11:19.000Z</time>
      </trkpt>
      <trkpt lat="45.89089" lon="6.192">
        <ele>1129.7</ele>
        <time>2000-01-01T21:11:09.000Z</time>
      </trkpt>
      <trkpt lat="45.89099" lon="6.192">
        <ele>1129.1</ele>
        <time>2000-01-01T21:10:59.000Z</time>
      </trkpt>
      <trkpt lat="45.891" lon="6.19202">
        <ele>1128.2</ele>
        <time>2000-01-01T21:10:49.000Z</time>
      </trkpt>
      <trkpt lat="45.89101" lon="6.19205">
        <ele>1118</ele>
        <time>2000-01-01T21:10:39.000Z</time>
      </trkpt>
      <trkpt lat="45.89114" lon="6.19212">
        <ele>1122.8</ele>
        <time>2000-01-01T21:10:29.000Z</time>
      </trkpt>
      <trkpt lat="45.89124" lon="6.19212">
        <ele>1112</ele>
        <time>2000-01-01T21:10:19.000Z</time>
      </trkpt>
      <trkpt lat="45.89133" lon="6.19212">
        <ele>1121.5</ele>
        <time>2000-01-01T21:10:09.000Z</time>
      </trkpt>
      <trkpt lat="45.8914" lon="6.19218">
        <ele>1118.1</ele>
        <time>2000-01-01T21:09:59.000Z</time>
      </trkpt>
      <trkpt lat="45.89142" lon="6.19217">
        <ele>1118.5</ele>
        <time>2000-01-01T21:09:49.000Z</time>
      </trkpt>
      <trkpt lat="45.89147" lon="6.1922">
        <ele>1116.6</ele>
        <time>2000-01-01T21:09:39.000Z</time>
      </trkpt>
      <trkpt lat="45.89149" lon="6.1922">
        <ele>1109</ele>
        <time>2000-01-01T21:09:29.000Z</time>
      </trkpt>
      <trkpt lat="45.89157" lon="6.19225">
        <ele>1113.4</ele>
        <time>2000-01-01T21:09:19.000Z</time>
      </trkpt>
      <trkpt lat="45.89167" lon="6.19224">
        <ele>1104</ele>
        <time>2000-01-01T21:09:09.000Z</time>
      </trkpt>
      <trkpt lat="45.89175" lon="6.1923">
        <ele>1108.8</ele>
        <time>2000-01-01T21:08:59.000Z</time>
      </trkpt>
      <trkpt lat="45.89179" lon="6.19231">
        <ele>1107.7</ele>
        <time>2000-01-01T21:08:49.000Z</time>
      </trkpt>
      <trkpt lat="45.89188" lon="6.19232">
        <ele>1096</ele>
        <time>2000-01-01T21:08:39.000Z</time>
      </trkpt>
      <trkpt lat="45.89192" lon="6.19233">
        <ele>1104.7</ele>
        <time>2000-01-01T21:08:29.000Z</time>
      </trkpt>
      <trkpt lat="45.89197" lon="6.19235">
        <ele>1103</ele>
        <time>2000-01-01T21:08:19.000Z</time>
      </trkpt>
      <trkpt lat="45.89203" lon="6.19233">
        <ele>1103.1</ele>
        <time>2000-01-01T21:08:09.000Z</time>
      </trkpt>
      <trkpt lat="45.89207" lon="6.19232">
        <ele>1093</ele>
        <time>2000-01-01T21:07:59.000Z</time>
      </trkpt>
      <trkpt lat="45.89209" lon="6.19232">
        <ele>1102.7</ele>
        <time>2000-01-01T21:07:49.000Z</time>
      </trkpt>
      <trkpt lat="45.89213" lon="6.19232">
        <ele>1102.1</ele>
        <time>2000-01-01T21:07:39.000Z</time>
      </trkpt>
      <trkpt lat="45.89215" lon="6.19233">
        <ele>1101.3</ele>
        <time>2000-01-01T21:07:29.000Z</time>
      </trkpt>
      <trkpt lat="45.89217" lon="6.19234">
        <ele>1100.4</ele>
        <time>2000-01-01T21:07:19.000Z</time>
      </trkpt>
      <trkpt lat="45.89219" lon="6.19234">
        <ele>1100.1</ele>
        <time>2000-01-01T21:07:09.000Z</time>
      </trkpt>
      <trkpt lat="45.8922" lon="6.19235">
        <ele>1099.5</ele>
        <time>2000-01-01T21:06:59.000Z</time>
      </trkpt>
      <trkpt lat="45.89221" lon="6.19238">
        <ele>1097.8</ele>
        <time>2000-01-01T21:06:49.000Z</time>
      </trkpt>
      <trkpt lat="45.89222" lon="6.19243">
        <ele>1084</ele>
        <time>2000-01-01T21:06:39.000Z</time>
      </trkpt>
      <trkpt lat="45.89223" lon="6.19246">
        <ele>1093.3</ele>
        <time>2000-01-01T21:06:29.000Z</time>
      </trkpt>
      <trkpt lat="45.89227" lon="6.19249">
        <ele>1091.1</ele>
        <time>2000-01-01T21:06:19.000Z</time>
      </trkpt>
      <trkpt lat="45.8923" lon="6.19248">
        <ele>1091.2</ele>
        <time>2000-01-01T21:06:09.000Z</time>
      </trkpt>
      <trkpt lat="45.89233" lon="6.19248">
        <ele>1090.7</ele>
        <time>2000-01-01T21:05:59.000Z</time>
      </trkpt>
      <trkpt lat="45.89238" lon="6.19246">
        <ele>1091</ele>
        <time>2000-01-01T21:05:49.000Z</time>
      </trkpt>
      <trkpt lat="45.89239" lon="6.19244">
        <ele>1080</ele>
        <time>2000-01-01T21:05:39.000Z</time>
      </trkpt>
      <trkpt lat="45.89248" lon="6.1924">
        <ele>1092.6</ele>
        <time>2000-01-01T21:05:29.000Z</time>
      </trkpt>
      <trkpt lat="45.89259" lon="6.19238">
        <ele>1091.2</ele>
        <time>2000-01-01T21:05:19.000Z</time>
      </trkpt>
      <trkpt lat="45.89257" lon="6.19248">
        <ele>1076</ele>
        <time>2000-01-01T21:05:09.000Z</time>
      </trkpt>
      <trkpt lat="45.89251" lon="6.19254">
        <ele>1084.7</ele>
        <time>2000-01-01T21:04:59.000Z</time>
      </trkpt>
      <trkpt lat="45.89244" lon="6.1926">
        <ele>1082.9</ele>
        <time>2000-01-01T21:04:49.000Z</time>
      </trkpt>
      <trkpt lat="45.89236" lon="6.19265">
        <ele>1070</ele>
        <time>2000-01-01T21:04:39.000Z</time>
      </trkpt>
      <trkpt lat="45.89229" lon="6.19273">
        <ele>1079</ele>
        <time>2000-01-01T21:04:29.000Z</time>
      </trkpt>
      <trkpt lat="45.8922" lon="6.1928">
        <ele>1063</ele>
        <time>2000-01-01T21:04:19.000Z</time>
      </trkpt>
      <trkpt lat="45.89217" lon="6.19282">
        <ele>1076.6</ele>
        <time>2000-01-01T21:04:09.000Z</time>
      </trkpt>
      <trkpt lat="45.892" lon="6.19283">
        <ele>1061</ele>
        <time>2000-01-01T21:03:59.000Z</time>
      </trkpt>
      <trkpt lat="45.89191" lon="6.19286">
        <ele>1079.3</ele>
        <time>2000-01-01T21:03:49.000Z</time>
      </trkpt>
      <trkpt lat="45.89182" lon="6.19291">
        <ele>1060</ele>
        <time>2000-01-01T21:03:39.000Z</time>
      </trkpt>
      <trkpt lat="45.89173" lon="6.19296">
        <ele>1077.9</ele>
        <time>2000-01-01T21:03:29.000Z</time>
      </trkpt>
      <trkpt lat="45.89159" lon="6.19304">
        <ele>1059</ele>
        <time>2000-01-01T21:03:19.000Z</time>
      </trkpt>
      <trkpt lat="45.89149" lon="6.19306">
        <ele>1076.9</ele>
        <time>2000-01-01T21:03:09.000Z</time>
      </trkpt>
      <trkpt lat="45.89139" lon="6.19311">
        <ele>1054</ele>
        <time>2000-01-01T21:02:59.000Z</time>
      </trkpt>
      <trkpt lat="45.8913" lon="6.19317">
        <ele>1074.8</ele>
        <time>2000-01-01T21:02:49.000Z</time>
      </trkpt>
      <trkpt lat="45.89121" lon="6.19319">
        <ele>1075.3</ele>
        <time>2000-01-01T21:02:39.000Z</time>
      </trkpt>
      <trkpt lat="45.89112" lon="6.19324">
        <ele>1051</ele>
        <time>2000-01-01T21:02:29.000Z</time>
      </trkpt>
      <trkpt lat="45.89103" lon="6.19334">
        <ele>1071.8</ele>
        <time>2000-01-01T21:02:19.000Z</time>
      </trkpt>
      <trkpt lat="45.89095" lon="6.19344">
        <ele>1048</ele>
        <time>2000-01-01T21:02:09.000Z</time>
      </trkpt>
      <trkpt lat="45.89086" lon="6.19353">
        <ele>1069.4</ele>
        <time>2000-01-01T21:01:59.000Z</time>
      </trkpt>
      <trkpt lat="45.89077" lon="6.19355">
        <ele>1048</ele>
        <time>2000-01-01T21:01:49.000Z</time>
      </trkpt>
      <trkpt lat="45.89066" lon="6.19356">
        <ele>1069.1</ele>
        <time>2000-01-01T21:01:39.000Z</time>
      </trkpt>
      <trkpt lat="45.89054" lon="6.19359">
        <ele>1048</ele>
        <time>2000-01-01T21:01:29.000Z</time>
      </trkpt>
      <trkpt lat="45.89053" lon="6.19351">
        <ele>1070.1</ele>
        <time>2000-01-01T21:01:19.000Z</time>
      </trkpt>
      <trkpt lat="45.8904" lon="6.19354">
        <ele>1051</ele>
        <time>2000-01-01T21:01:09.000Z</time>
      </trkpt>
      <trkpt lat="45.89018" lon="6.19354">
        <ele>1069.5</ele>
        <time>2000-01-01T21:00:59.000Z</time>
      </trkpt>
      <trkpt lat="45.8901" lon="6.19356">
        <ele>1051</ele>
        <time>2000-01-01T21:00:49.000Z</time>
      </trkpt>
      <trkpt lat="45.89025" lon="6.19377">
        <ele>1052</ele>
        <time>2000-01-01T21:00:39.000Z</time>
      </trkpt>
      <trkpt lat="45.89049" lon="6.19412">
        <ele>1052</ele>
        <time>2000-01-01T21:00:29.000Z</time>
      </trkpt>
      <trkpt lat="45.89064" lon="6.19437">
        <ele>1048</ele>
        <time>2000-01-01T21:00:19.000Z</time>
      </trkpt>
      <trkpt lat="45.89079" lon="6.19467">
        <ele>1046</ele>
        <time>2000-01-01T21:00:09.000Z</time>
      </trkpt>
      <trkpt lat="45.89096" lon="6.19502">
        <ele>1044</ele>
        <time>2000-01-01T20:59:59.000Z</time>
      </trkpt>
      <trkpt lat="45.89115" lon="6.19543">
        <ele>1040</ele>
        <time>2000-01-01T20:59:49.000Z</time>
      </trkpt>
      <trkpt lat="45.8913" lon="6.19567">
        <ele>1040</ele>
        <time>2000-01-01T20:59:39.000Z</time>
      </trkpt>
      <trkpt lat="45.8915" lon="6.19594">
        <ele>1037</ele>
        <time>2000-01-01T20:59:29.000Z</time>
      </trkpt>
      <trkpt lat="45.89172" lon="6.19613">
        <ele>1034</ele>
        <time>2000-01-01T20:59:19.000Z</time>
      </trkpt>
      <trkpt lat="45.89192" lon="6.19632">
        <ele>1031</ele>
        <time>2000-01-01T20:59:09.000Z</time>
      </trkpt>
      <trkpt lat="45.89213" lon="6.1965">
        <ele>1029</ele>
        <time>2000-01-01T20:58:59.000Z</time>
      </trkpt>
      <trkpt lat="45.89247" lon="6.19681">
        <ele>1029</ele>
        <time>2000-01-01T20:58:49.000Z</time>
      </trkpt>
      <trkpt lat="45.89256" lon="6.19692">
        <ele>1037.8</ele>
        <time>2000-01-01T20:58:39.000Z</time>
      </trkpt>
      <trkpt lat="45.8926" lon="6.19714">
        <ele>1030</ele>
        <time>2000-01-01T20:58:29.000Z</time>
      </trkpt>
      <trkpt lat="45.89267" lon="6.19747">
        <ele>1034</ele>
        <time>2000-01-01T20:58:19.000Z</time>
      </trkpt>
      <trkpt lat="45.89283" lon="6.19785">
        <ele>1041</ele>
        <time>2000-01-01T20:58:09.000Z</time>
      </trkpt>
      <trkpt lat="45.89307" lon="6.19826">
        <ele>1046</ele>
        <time>2000-01-01T20:57:59.000Z</time>
      </trkpt>
      <trkpt lat="45.89333" lon="6.19859">
        <ele>1046</ele>
        <time>2000-01-01T20:57:49.000Z</time>
      </trkpt>
      <trkpt lat="45.89355" lon="6.19882">
        <ele>1054</ele>
        <time>2000-01-01T20:57:39.000Z</time>
      </trkpt>
      <trkpt lat="45.89378" lon="6.199">
        <ele>1061</ele>
        <time>2000-01-01T20:57:29.000Z</time>
      </trkpt>
      <trkpt lat="45.89406" lon="6.19911">
        <ele>1068</ele>
        <time>2000-01-01T20:57:19.000Z</time>
      </trkpt>
      <trkpt lat="45.89443" lon="6.19931">
        <ele>1067</ele>
        <time>2000-01-01T20:57:09.000Z</time>
      </trkpt>
      <trkpt lat="45.89475" lon="6.19954">
        <ele>1068</ele>
        <time>2000-01-01T20:56:59.000Z</time>
      </trkpt>
      <trkpt lat="45.89506" lon="6.19981">
        <ele>1077</ele>
        <time>2000-01-01T20:56:49.000Z</time>
      </trkpt>
      <trkpt lat="45.89521" lon="6.2001">
        <ele>1081</ele>
        <time>2000-01-01T20:56:39.000Z</time>
      </trkpt>
      <trkpt lat="45.89529" lon="6.20048">
        <ele>1083</ele>
        <time>2000-01-01T20:56:29.000Z</time>
      </trkpt>
      <trkpt lat="45.89537" lon="6.20079">
        <ele>1086</ele>
        <time>2000-01-01T20:56:19.000Z</time>
      </trkpt>
      <trkpt lat="45.89537" lon="6.20098">
        <ele>1081.6</ele>
        <time>2000-01-01T20:56:09.000Z</time>
      </trkpt>
      <trkpt lat="45.89525" lon="6.20112">
        <ele>1083</ele>
        <time>2000-01-01T20:55:59.000Z</time>
      </trkpt>
      <trkpt lat="45.89497" lon="6.20125">
        <ele>1083</ele>
        <time>2000-01-01T20:55:49.000Z</time>
      </trkpt>
      <trkpt lat="45.89473" lon="6.20136">
        <ele>1075</ele>
        <time>2000-01-01T20:55:39.000Z</time>
      </trkpt>
      <trkpt lat="45.8945" lon="6.20139">
        <ele>1085.2</ele>
        <time>2000-01-01T20:55:29.000Z</time>
      </trkpt>
      <trkpt lat="45.89435" lon="6.20152">
        <ele>1067</ele>
        <time>2000-01-01T20:55:19.000Z</time>
      </trkpt>
      <trkpt lat="45.89399" lon="6.20171">
        <ele>1054</ele>
        <time>2000-01-01T20:55:09.000Z</time>
      </trkpt>
      <trkpt lat="45.89371" lon="6.20181">
        <ele>1053</ele>
        <time>2000-01-01T20:54:59.000Z</time>
      </trkpt>
      <trkpt lat="45.89343" lon="6.20192">
        <ele>1056.5</ele>
        <time>2000-01-01T20:54:49.000Z</time>
      </trkpt>
      <trkpt lat="45.89332" lon="6.20191">
        <ele>1046</ele>
        <time>2000-01-01T20:54:39.000Z</time>
      </trkpt>
      <trkpt lat="45.89312" lon="6.20195">
        <ele>1051.6</ele>
        <time>2000-01-01T20:54:29.000Z</time>
      </trkpt>
      <trkpt lat="45.89298" lon="6.2019">
        <ele>1033</ele>
        <time>2000-01-01T20:54:19.000Z</time>
      </trkpt>
      <trkpt lat="45.89283" lon="6.20182">
        <ele>1052.8</ele>
        <time>2000-01-01T20:54:09.000Z</time>
      </trkpt>
      <trkpt lat="45.89268" lon="6.20178">
        <ele>1030</ele>
        <time>2000-01-01T20:53:59.000Z</time>
      </trkpt>
      <trkpt lat="45.89234" lon="6.20179">
        <ele>1027</ele>
        <time>2000-01-01T20:53:49.000Z</time>
      </trkpt>
      <trkpt lat="45.89196" lon="6.20176">
        <ele>1015</ele>
        <time>2000-01-01T20:53:39.000Z</time>
      </trkpt>
      <trkpt lat="45.89168" lon="6.20174">
        <ele>1014</ele>
        <time>2000-01-01T20:53:29.000Z</time>
      </trkpt>
      <trkpt lat="45.89137" lon="6.20173">
        <ele>1010</ele>
        <time>2000-01-01T20:53:19.000Z</time>
      </trkpt>
      <trkpt lat="45.89112" lon="6.20178">
        <ele>1007</ele>
        <time>2000-01-01T20:53:09.000Z</time>
      </trkpt>
      <trkpt lat="45.89088" lon="6.20183">
        <ele>997</ele>
        <time>2000-01-01T20:52:59.000Z</time>
      </trkpt>
      <trkpt lat="45.8906" lon="6.20189">
        <ele>997</ele>
        <time>2000-01-01T20:52:49.000Z</time>
      </trkpt>
      <trkpt lat="45.89036" lon="6.20194">
        <ele>988</ele>
        <time>2000-01-01T20:52:39.000Z</time>
      </trkpt>
      <trkpt lat="45.89012" lon="6.20196">
        <ele>985</ele>
        <time>2000-01-01T20:52:29.000Z</time>
      </trkpt>
      <trkpt lat="45.88988" lon="6.20197">
        <ele>982</ele>
        <time>2000-01-01T20:52:19.000Z</time>
      </trkpt>
      <trkpt lat="45.8895" lon="6.20191">
        <ele>975</ele>
        <time>2000-01-01T20:52:09.000Z</time>
      </trkpt>
      <trkpt lat="45.88917" lon="6.20181">
        <ele>964</ele>
        <time>2000-01-01T20:51:59.000Z</time>
      </trkpt>
      <trkpt lat="45.88882" lon="6.20168">
        <ele>988.1</ele>
        <time>2000-01-01T20:51:49.000Z</time>
      </trkpt>
      <trkpt lat="45.88874" lon="6.20165">
        <ele>988</ele>
        <time>2000-01-01T20:51:39.000Z</time>
      </trkpt>
      <trkpt lat="45.88866" lon="6.20168">
        <ele>962</ele>
        <time>2000-01-01T20:51:29.000Z</time>
      </trkpt>
      <trkpt lat="45.8885" lon="6.20185">
        <ele>960</ele>
        <time>2000-01-01T20:51:19.000Z</time>
      </trkpt>
      <trkpt lat="45.88832" lon="6.20199">
        <ele>959</ele>
        <time>2000-01-01T20:51:09.000Z</time>
      </trkpt>
      <trkpt lat="45.88822" lon="6.20205">
        <ele>960.3</ele>
        <time>2000-01-01T20:50:59.000Z</time>
      </trkpt>
      <trkpt lat="45.88809" lon="6.20204">
        <ele>949</ele>
        <time>2000-01-01T20:50:49.000Z</time>
      </trkpt>
      <trkpt lat="45.88786" lon="6.20192">
        <ele>963.4</ele>
        <time>2000-01-01T20:50:39.000Z</time>
      </trkpt>
      <trkpt lat="45.8877" lon="6.20184">
        <ele>949</ele>
        <time>2000-01-01T20:50:29.000Z</time>
      </trkpt>
      <trkpt lat="45.88757" lon="6.20183">
        <ele>964.4</ele>
        <time>2000-01-01T20:50:19.000Z</time>
      </trkpt>
      <trkpt lat="45.8874" lon="6.2019">
        <ele>949</ele>
        <time>2000-01-01T20:50:09.000Z</time>
      </trkpt>
      <trkpt lat="45.88706" lon="6.20209">
        <ele>946</ele>
        <time>2000-01-01T20:49:59.000Z</time>
      </trkpt>
      <trkpt lat="45.88682" lon="6.20215">
        <ele>941</ele>
        <time>2000-01-01T20:49:49.000Z</time>
      </trkpt>
      <trkpt lat="45.88646" lon="6.20207">
        <ele>933</ele>
        <time>2000-01-01T20:49:39.000Z</time>
      </trkpt>
      <trkpt lat="45.8863" lon="6.20216">
        <ele>937.6</ele>
        <time>2000-01-01T20:49:29.000Z</time>
      </trkpt>
      <trkpt lat="45.88616" lon="6.20223">
        <ele>926</ele>
        <time>2000-01-01T20:49:19.000Z</time>
      </trkpt>
      <trkpt lat="45.88606" lon="6.20227">
        <ele>929.7</ele>
        <time>2000-01-01T20:49:09.000Z</time>
      </trkpt>
      <trkpt lat="45.88588" lon="6.20235">
        <ele>914</ele>
        <time>2000-01-01T20:48:59.000Z</time>
      </trkpt>
      <trkpt lat="45.88577" lon="6.20241">
        <ele>919.3</ele>
        <time>2000-01-01T20:48:49.000Z</time>
      </trkpt>
      <trkpt lat="45.88563" lon="6.20247">
        <ele>903</ele>
        <time>2000-01-01T20:48:39.000Z</time>
      </trkpt>
      <trkpt lat="45.88548" lon="6.2025">
        <ele>910.1</ele>
        <time>2000-01-01T20:48:29.000Z</time>
      </trkpt>
      <trkpt lat="45.88542" lon="6.20254">
        <ele>895</ele>
        <time>2000-01-01T20:48:19.000Z</time>
      </trkpt>
      <trkpt lat="45.88534" lon="6.20257">
        <ele>904.6</ele>
        <time>2000-01-01T20:48:09.000Z</time>
      </trkpt>
      <trkpt lat="45.88528" lon="6.20261">
        <ele>901.9</ele>
        <time>2000-01-01T20:47:59.000Z</time>
      </trkpt>
      <trkpt lat="45.88524" lon="6.20265">
        <ele>882</ele>
        <time>2000-01-01T20:47:49.000Z</time>
      </trkpt>
      <trkpt lat="45.88505" lon="6.20259">
        <ele>880</ele>
        <time>2000-01-01T20:47:39.000Z</time>
      </trkpt>
      <trkpt lat="45.88489" lon="6.20256">
        <ele>898.3</ele>
        <time>2000-01-01T20:47:29.000Z</time>
      </trkpt>
      <trkpt lat="45.8848" lon="6.20258">
        <ele>879</ele>
        <time>2000-01-01T20:47:19.000Z</time>
      </trkpt>
      <trkpt lat="45.8846" lon="6.20263">
        <ele>892.4</ele>
        <time>2000-01-01T20:47:09.000Z</time>
      </trkpt>
      <trkpt lat="45.88443" lon="6.20269">
        <ele>878</ele>
        <time>2000-01-01T20:46:59.000Z</time>
      </trkpt>
      <trkpt lat="45.88433" lon="6.20274">
        <ele>885.3</ele>
        <time>2000-01-01T20:46:49.000Z</time>
      </trkpt>
      <trkpt lat="45.88421" lon="6.2028">
        <ele>869</ele>
        <time>2000-01-01T20:46:39.000Z</time>
      </trkpt>
      <trkpt lat="45.8841" lon="6.20288">
        <ele>878.3</ele>
        <time>2000-01-01T20:46:29.000Z</time>
      </trkpt>
      <trkpt lat="45.88402" lon="6.20289">
        <ele>869</ele>
        <time>2000-01-01T20:46:19.000Z</time>
      </trkpt>
      <trkpt lat="45.88383" lon="6.20292">
        <ele>861</ele>
        <time>2000-01-01T20:46:09.000Z</time>
      </trkpt>
      <trkpt lat="45.88364" lon="6.20294">
        <ele>875</ele>
        <time>2000-01-01T20:45:59.000Z</time>
      </trkpt>
      <trkpt lat="45.88352" lon="6.20291">
        <ele>876.1</ele>
        <time>2000-01-01T20:45:49.000Z</time>
      </trkpt>
      <trkpt lat="45.8835" lon="6.2029">
        <ele>860</ele>
        <time>2000-01-01T20:45:39.000Z</time>
      </trkpt>
      <trkpt lat="45.88341" lon="6.20285">
        <ele>878.9</ele>
        <time>2000-01-01T20:45:29.000Z</time>
      </trkpt>
      <trkpt lat="45.88325" lon="6.20283">
        <ele>859</ele>
        <time>2000-01-01T20:45:19.000Z</time>
      </trkpt>
      <trkpt lat="45.88303" lon="6.20279">
        <ele>859</ele>
        <time>2000-01-01T20:45:09.000Z</time>
      </trkpt>
      <trkpt lat="45.88284" lon="6.20271">
        <ele>877.5</ele>
        <time>2000-01-01T20:44:59.000Z</time>
      </trkpt>
      <trkpt lat="45.88268" lon="6.20266">
        <ele>859</ele>
        <time>2000-01-01T20:44:49.000Z</time>
      </trkpt>
      <trkpt lat="45.88237" lon="6.20257">
        <ele>873</ele>
        <time>2000-01-01T20:44:39.000Z</time>
      </trkpt>
      <trkpt lat="45.88225" lon="6.2025">
        <ele>858</ele>
        <time>2000-01-01T20:44:29.000Z</time>
      </trkpt>
      <trkpt lat="45.88215" lon="6.20239">
        <ele>873.8</ele>
        <time>2000-01-01T20:44:19.000Z</time>
      </trkpt>
      <trkpt lat="45.88203" lon="6.2023">
        <ele>858</ele>
        <time>2000-01-01T20:44:09.000Z</time>
      </trkpt>
      <trkpt lat="45.88191" lon="6.20215">
        <ele>876.9</ele>
        <time>2000-01-01T20:43:59.000Z</time>
      </trkpt>
      <trkpt lat="45.88182" lon="6.20205">
        <ele>854</ele>
        <time>2000-01-01T20:43:49.000Z</time>
      </trkpt>
      <trkpt lat="45.88177" lon="6.2019">
        <ele>883.2</ele>
        <time>2000-01-01T20:43:39.000Z</time>
      </trkpt>
      <trkpt lat="45.88172" lon="6.2017">
        <ele>851</ele>
        <time>2000-01-01T20:43:29.000Z</time>
      </trkpt>
      <trkpt lat="45.88167" lon="6.20154">
        <ele>894.2</ele>
        <time>2000-01-01T20:43:19.000Z</time>
      </trkpt>
      <trkpt lat="45.88163" lon="6.20144">
        <ele>897.6</ele>
        <time>2000-01-01T20:43:09.000Z</time>
      </trkpt>
      <trkpt lat="45.8816" lon="6.20142">
        <ele>898.5</ele>
        <time>2000-01-01T20:42:59.000Z</time>
      </trkpt>
      <trkpt lat="45.88154" lon="6.20147">
        <ele>853</ele>
        <time>2000-01-01T20:42:49.000Z</time>
      </trkpt>
      <trkpt lat="45.88149" lon="6.20154">
        <ele>895.4</ele>
        <time>2000-01-01T20:42:39.000Z</time>
      </trkpt>
      <trkpt lat="45.88137" lon="6.2017">
        <ele>855</ele>
        <time>2000-01-01T20:42:29.000Z</time>
      </trkpt>
      <trkpt lat="45.88104" lon="6.20212">
        <ele>852</ele>
        <time>2000-01-01T20:42:19.000Z</time>
      </trkpt>
      <trkpt lat="45.88087" lon="6.20225">
        <ele>853</ele>
        <time>2000-01-01T20:42:09.000Z</time>
      </trkpt>
      <trkpt lat="45.88069" lon="6.20231">
        <ele>872</ele>
        <time>2000-01-01T20:41:59.000Z</time>
      </trkpt>
      <trkpt lat="45.88054" lon="6.20233">
        <ele>859</ele>
        <time>2000-01-01T20:41:49.000Z</time>
      </trkpt>
      <trkpt lat="45.88037" lon="6.20233">
        <ele>874.5</ele>
        <time>2000-01-01T20:41:39.000Z</time>
      </trkpt>
      <trkpt lat="45.88018" lon="6.20232">
        <ele>868</ele>
        <time>2000-01-01T20:41:29.000Z</time>
      </trkpt>
      <trkpt lat="45.87996" lon="6.20232">
        <ele>869</ele>
        <time>2000-01-01T20:41:19.000Z</time>
      </trkpt>
      <trkpt lat="45.87968" lon="6.20236">
        <ele>869</ele>
        <time>2000-01-01T20:41:09.000Z</time>
      </trkpt>
      <trkpt lat="45.87942" lon="6.20241">
        <ele>869</ele>
        <time>2000-01-01T20:40:59.000Z</time>
      </trkpt>
      <trkpt lat="45.87918" lon="6.20245">
        <ele>869</ele>
        <time>2000-01-01T20:40:49.000Z</time>
      </trkpt>
      <trkpt lat="45.87896" lon="6.20245">
        <ele>878.4</ele>
        <time>2000-01-01T20:40:39.000Z</time>
      </trkpt>
      <trkpt lat="45.87879" lon="6.20243">
        <ele>868</ele>
        <time>2000-01-01T20:40:29.000Z</time>
      </trkpt>
      <trkpt lat="45.87864" lon="6.20241">
        <ele>881.9</ele>
        <time>2000-01-01T20:40:19.000Z</time>
      </trkpt>
      <trkpt lat="45.87852" lon="6.20239">
        <ele>868</ele>
        <time>2000-01-01T20:40:09.000Z</time>
      </trkpt>
      <trkpt lat="45.87849" lon="6.20239">
        <ele>883.6</ele>
        <time>2000-01-01T20:39:59.000Z</time>
      </trkpt>
      <trkpt lat="45.87843" lon="6.20239">
        <ele>883.9</ele>
        <time>2000-01-01T20:39:49.000Z</time>
      </trkpt>
      <trkpt lat="45.87837" lon="6.20237">
        <ele>885.2</ele>
        <time>2000-01-01T20:39:39.000Z</time>
      </trkpt>
      <trkpt lat="45.87831" lon="6.20236">
        <ele>866</ele>
        <time>2000-01-01T20:39:29.000Z</time>
      </trkpt>
      <trkpt lat="45.87823" lon="6.20239">
        <ele>887</ele>
        <time>2000-01-01T20:39:19.000Z</time>
      </trkpt>
      <trkpt lat="45.87814" lon="6.20244">
        <ele>887</ele>
        <time>2000-01-01T20:39:09.000Z</time>
      </trkpt>
      <trkpt lat="45.87808" lon="6.20249">
        <ele>860</ele>
        <time>2000-01-01T20:38:59.000Z</time>
      </trkpt>
      <trkpt lat="45.87802" lon="6.20255">
        <ele>885.7</ele>
        <time>2000-01-01T20:38:49.000Z</time>
      </trkpt>
      <trkpt lat="45.878" lon="6.20258">
        <ele>885.3</ele>
        <time>2000-01-01T20:38:39.000Z</time>
      </trkpt>
      <trkpt lat="45.87801" lon="6.20263">
        <ele>883.5</ele>
        <time>2000-01-01T20:38:29.000Z</time>
      </trkpt>
      <trkpt lat="45.87802" lon="6.20272">
        <ele>855</ele>
        <time>2000-01-01T20:38:19.000Z</time>
      </trkpt>
      <trkpt lat="45.87801" lon="6.2028">
        <ele>878.2</ele>
        <time>2000-01-01T20:38:09.000Z</time>
      </trkpt>
      <trkpt lat="45.87799" lon="6.20293">
        <ele>874.8</ele>
        <time>2000-01-01T20:37:59.000Z</time>
      </trkpt>
      <trkpt lat="45.87796" lon="6.20302">
        <ele>853</ele>
        <time>2000-01-01T20:37:49.000Z</time>
      </trkpt>
      <trkpt lat="45.8779" lon="6.20312">
        <ele>871.5</ele>
        <time>2000-01-01T20:37:39.000Z</time>
      </trkpt>
      <trkpt lat="45.87787" lon="6.20318">
        <ele>870.6</ele>
        <time>2000-01-01T20:37:29.000Z</time>
      </trkpt>
      <trkpt lat="45.87784" lon="6.2033">
        <ele>849</ele>
        <time>2000-01-01T20:37:19.000Z</time>
      </trkpt>
      <trkpt lat="45.87778" lon="6.20342">
        <ele>863.8</ele>
        <time>2000-01-01T20:37:09.000Z</time>
      </trkpt>
      <trkpt lat="45.87764" lon="6.20358">
        <ele>849</ele>
        <time>2000-01-01T20:36:59.000Z</time>
      </trkpt>
      <trkpt lat="45.87756" lon="6.20366">
        <ele>856.6</ele>
        <time>2000-01-01T20:36:49.000Z</time>
      </trkpt>
      <trkpt lat="45.87745" lon="6.20372">
        <ele>841</ele>
        <time>2000-01-01T20:36:39.000Z</time>
      </trkpt>
      <trkpt lat="45.87736" lon="6.20376">
        <ele>852.7</ele>
        <time>2000-01-01T20:36:29.000Z</time>
      </trkpt>
      <trkpt lat="45.87724" lon="6.2038">
        <ele>841</ele>
        <time>2000-01-01T20:36:19.000Z</time>
      </trkpt>
      <trkpt lat="45.87706" lon="6.20383">
        <ele>849.1</ele>
        <time>2000-01-01T20:36:09.000Z</time>
      </trkpt>
      <trkpt lat="45.87693" lon="6.20387">
        <ele>834</ele>
        <time>2000-01-01T20:35:59.000Z</time>
      </trkpt>
      <trkpt lat="45.87685" lon="6.20391">
        <ele>844.8</ele>
        <time>2000-01-01T20:35:49.000Z</time>
      </trkpt>
      <trkpt lat="45.8768" lon="6.20395">
        <ele>842.5</ele>
        <time>2000-01-01T20:35:39.000Z</time>
      </trkpt>
      <trkpt lat="45.87676" lon="6.20399">
        <ele>840.3</ele>
        <time>2000-01-01T20:35:29.000Z</time>
      </trkpt>
      <trkpt lat="45.87672" lon="6.204">
        <ele>826</ele>
        <time>2000-01-01T20:35:19.000Z</time>
      </trkpt>
      <trkpt lat="45.87669" lon="6.20402">
        <ele>838.6</ele>
        <time>2000-01-01T20:35:09.000Z</time>
      </trkpt>
      <trkpt lat="45.87665" lon="6.20405">
        <ele>836.7</ele>
        <time>2000-01-01T20:34:59.000Z</time>
      </trkpt>
      <trkpt lat="45.87661" lon="6.20405">
        <ele>836.4</ele>
        <time>2000-01-01T20:34:49.000Z</time>
      </trkpt>
      <trkpt lat="45.87653" lon="6.20403">
        <ele>818</ele>
        <time>2000-01-01T20:34:39.000Z</time>
      </trkpt>
      <trkpt lat="45.87644" lon="6.204">
        <ele>837.9</ele>
        <time>2000-01-01T20:34:29.000Z</time>
      </trkpt>
      <trkpt lat="45.87629" lon="6.20402">
        <ele>813</ele>
        <time>2000-01-01T20:34:19.000Z</time>
      </trkpt>
      <trkpt lat="45.87613" lon="6.20407">
        <ele>831.4</ele>
        <time>2000-01-01T20:34:09.000Z</time>
      </trkpt>
      <trkpt lat="45.87599" lon="6.20413">
        <ele>809</ele>
        <time>2000-01-01T20:33:59.000Z</time>
      </trkpt>
      <trkpt lat="45.87575" lon="6.20418">
        <ele>808</ele>
        <time>2000-01-01T20:33:49.000Z</time>
      </trkpt>
      <trkpt lat="45.87551" lon="6.20421">
        <ele>797</ele>
        <time>2000-01-01T20:33:39.000Z</time>
      </trkpt>
      <trkpt lat="45.87531" lon="6.20423">
        <ele>793</ele>
        <time>2000-01-01T20:33:29.000Z</time>
      </trkpt>
      <trkpt lat="45.87502" lon="6.20425">
        <ele>808.5</ele>
        <time>2000-01-01T20:33:19.000Z</time>
      </trkpt>
      <trkpt lat="45.87497" lon="6.20425">
        <ele>807.8</ele>
        <time>2000-01-01T20:33:09.000Z</time>
      </trkpt>
      <trkpt lat="45.87494" lon="6.20425">
        <ele>784</ele>
        <time>2000-01-01T20:32:59.000Z</time>
      </trkpt>
      <trkpt lat="45.87487" lon="6.20427">
        <ele>805.7</ele>
        <time>2000-01-01T20:32:49.000Z</time>
      </trkpt>
      <trkpt lat="45.87482" lon="6.20431">
        <ele>803.2</ele>
        <time>2000-01-01T20:32:39.000Z</time>
      </trkpt>
      <trkpt lat="45.87476" lon="6.20436">
        <ele>784</ele>
        <time>2000-01-01T20:32:29.000Z</time>
      </trkpt>
      <trkpt lat="45.87469" lon="6.2044">
        <ele>797.3</ele>
        <time>2000-01-01T20:32:19.000Z</time>
      </trkpt>
      <trkpt lat="45.87459" lon="6.20443">
        <ele>794.6</ele>
        <time>2000-01-01T20:32:09.000Z</time>
      </trkpt>
      <trkpt lat="45.87451" lon="6.20443">
        <ele>774</ele>
        <time>2000-01-01T20:31:59.000Z</time>
      </trkpt>
      <trkpt lat="45.87443" lon="6.20441">
        <ele>793.5</ele>
        <time>2000-01-01T20:31:49.000Z</time>
      </trkpt>
      <trkpt lat="45.87441" lon="6.20444">
        <ele>791.8</ele>
        <time>2000-01-01T20:31:39.000Z</time>
      </trkpt>
      <trkpt lat="45.87435" lon="6.20446">
        <ele>790</ele>
        <time>2000-01-01T20:31:29.000Z</time>
      </trkpt>
      <trkpt lat="45.87427" lon="6.20446">
        <ele>772</ele>
        <time>2000-01-01T20:31:19.000Z</time>
      </trkpt>
      <trkpt lat="45.87418" lon="6.20446">
        <ele>787.7</ele>
        <time>2000-01-01T20:31:09.000Z</time>
      </trkpt>
      <trkpt lat="45.87406" lon="6.20445">
        <ele>786</ele>
        <time>2000-01-01T20:30:59.000Z</time>
      </trkpt>
      <trkpt lat="45.87403" lon="6.20445">
        <ele>768</ele>
        <time>2000-01-01T20:30:49.000Z</time>
      </trkpt>
      <trkpt lat="45.87382" lon="6.20441">
        <ele>783.2</ele>
        <time>2000-01-01T20:30:39.000Z</time>
      </trkpt>
      <trkpt lat="45.87382" lon="6.20441">
        <ele>783.2</ele>
        <time>2000-01-01T20:30:29.000Z</time>
      </trkpt>
      <trkpt lat="45.87382" lon="6.20439">
        <ele>784.2</ele>
        <time>2000-01-01T20:30:19.000Z</time>
      </trkpt>
      <trkpt lat="45.87382" lon="6.20439">
        <ele>784.2</ele>
        <time>2000-01-01T20:30:09.000Z</time>
      </trkpt>
      <trkpt lat="45.87372" lon="6.20438">
        <ele>766</ele>
        <time>2000-01-01T20:29:59.000Z</time>
      </trkpt>
      <trkpt lat="45.87361" lon="6.20434">
        <ele>782.4</ele>
        <time>2000-01-01T20:29:49.000Z</time>
      </trkpt>
      <trkpt lat="45.87354" lon="6.20432">
        <ele>781.9</ele>
        <time>2000-01-01T20:29:39.000Z</time>
      </trkpt>
      <trkpt lat="45.87352" lon="6.2043">
        <ele>764</ele>
        <time>2000-01-01T20:29:29.000Z</time>
      </trkpt>
      <trkpt lat="45.87342" lon="6.20426">
        <ele>782.4</ele>
        <time>2000-01-01T20:29:19.000Z</time>
      </trkpt>
      <trkpt lat="45.87332" lon="6.20426">
        <ele>761</ele>
        <time>2000-01-01T20:29:09.000Z</time>
      </trkpt>
      <trkpt lat="45.87318" lon="6.20424">
        <ele>779.4</ele>
        <time>2000-01-01T20:28:59.000Z</time>
      </trkpt>
      <trkpt lat="45.87308" lon="6.20425">
        <ele>759</ele>
        <time>2000-01-01T20:28:49.000Z</time>
      </trkpt>
      <trkpt lat="45.87298" lon="6.20427">
        <ele>775</ele>
        <time>2000-01-01T20:28:39.000Z</time>
      </trkpt>
      <trkpt lat="45.87289" lon="6.2043">
        <ele>754</ele>
        <time>2000-01-01T20:28:29.000Z</time>
      </trkpt>
      <trkpt lat="45.87285" lon="6.20429">
        <ele>772</ele>
        <time>2000-01-01T20:28:19.000Z</time>
      </trkpt>
      <trkpt lat="45.87283" lon="6.20428">
        <ele>772.2</ele>
        <time>2000-01-01T20:28:09.000Z</time>
      </trkpt>
      <trkpt lat="45.87273" lon="6.20431">
        <ele>769.1</ele>
        <time>2000-01-01T20:27:59.000Z</time>
      </trkpt>
      <trkpt lat="45.87268" lon="6.20432">
        <ele>742</ele>
        <time>2000-01-01T20:27:49.000Z</time>
      </trkpt>
      <trkpt lat="45.87259" lon="6.20429">
        <ele>768.1</ele>
        <time>2000-01-01T20:27:39.000Z</time>
      </trkpt>
      <trkpt lat="45.87249" lon="6.2043">
        <ele>765.8</ele>
        <time>2000-01-01T20:27:29.000Z</time>
      </trkpt>
      <trkpt lat="45.87243" lon="6.20427">
        <ele>741</ele>
        <time>2000-01-01T20:27:19.000Z</time>
      </trkpt>
      <trkpt lat="45.87233" lon="6.20428">
        <ele>761.6</ele>
        <time>2000-01-01T20:27:09.000Z</time>
      </trkpt>
      <trkpt lat="45.87224" lon="6.20429">
        <ele>738</ele>
        <time>2000-01-01T20:26:59.000Z</time>
      </trkpt>
      <trkpt lat="45.87215" lon="6.20434">
        <ele>752.1</ele>
        <time>2000-01-01T20:26:49.000Z</time>
      </trkpt>
      <trkpt lat="45.87206" lon="6.20436">
        <ele>729</ele>
        <time>2000-01-01T20:26:39.000Z</time>
      </trkpt>
      <trkpt lat="45.87197" lon="6.20441">
        <ele>742.2</ele>
        <time>2000-01-01T20:26:29.000Z</time>
      </trkpt>
      <trkpt lat="45.87188" lon="6.20445">
        <ele>737</ele>
        <time>2000-01-01T20:26:19.000Z</time>
      </trkpt>
      <trkpt lat="45.87179" lon="6.20443">
        <ele>713</ele>
        <time>2000-01-01T20:26:09.000Z</time>
      </trkpt>
      <trkpt lat="45.87169" lon="6.20442">
        <ele>732.4</ele>
        <time>2000-01-01T20:25:59.000Z</time>
      </trkpt>
      <trkpt lat="45.87167" lon="6.20441">
        <ele>732.3</ele>
        <time>2000-01-01T20:25:49.000Z</time>
      </trkpt>
      <trkpt lat="45.87156" lon="6.20437">
        <ele>710</ele>
        <time>2000-01-01T20:25:39.000Z</time>
      </trkpt>
      <trkpt lat="45.87144" lon="6.20437">
        <ele>725.9</ele>
        <time>2000-01-01T20:25:29.000Z</time>
      </trkpt>
      <trkpt lat="45.87142" lon="6.20439">
        <ele>724.3</ele>
        <time>2000-01-01T20:25:19.000Z</time>
      </trkpt>
      <trkpt lat="45.87134" lon="6.20442">
        <ele>720</ele>
        <time>2000-01-01T20:25:09.000Z</time>
      </trkpt>
      <trkpt lat="45.87131" lon="6.20444">
        <ele>701</ele>
        <time>2000-01-01T20:24:59.000Z</time>
      </trkpt>
      <trkpt lat="45.87124" lon="6.20446">
        <ele>714.6</ele>
        <time>2000-01-01T20:24:49.000Z</time>
      </trkpt>
      <trkpt lat="45.87113" lon="6.20455">
        <ele>707</ele>
        <time>2000-01-01T20:24:39.000Z</time>
      </trkpt>
      <trkpt lat="45.87112" lon="6.20457">
        <ele>695</ele>
        <time>2000-01-01T20:24:29.000Z</time>
      </trkpt>
      <trkpt lat="45.8711" lon="6.20462">
        <ele>703.1</ele>
        <time>2000-01-01T20:24:19.000Z</time>
      </trkpt>
      <trkpt lat="45.8711" lon="6.20468">
        <ele>700.6</ele>
        <time>2000-01-01T20:24:09.000Z</time>
      </trkpt>
      <trkpt lat="45.87115" lon="6.20484">
        <ele>688</ele>
        <time>2000-01-01T20:23:59.000Z</time>
      </trkpt>
      <trkpt lat="45.87121" lon="6.20495">
        <ele>692.2</ele>
        <time>2000-01-01T20:23:49.000Z</time>
      </trkpt>
      <trkpt lat="45.87129" lon="6.20504">
        <ele>687</ele>
        <time>2000-01-01T20:23:39.000Z</time>
      </trkpt>
      <trkpt lat="45.8714" lon="6.20513">
        <ele>691.2</ele>
        <time>2000-01-01T20:23:29.000Z</time>
      </trkpt>
      <trkpt lat="45.87148" lon="6.2052">
        <ele>686</ele>
        <time>2000-01-01T20:23:19.000Z</time>
      </trkpt>
      <trkpt lat="45.87157" lon="6.20525">
        <ele>691.9</ele>
        <time>2000-01-01T20:23:09.000Z</time>
      </trkpt>
      <trkpt lat="45.87167" lon="6.20532">
        <ele>686</ele>
        <time>2000-01-01T20:22:59.000Z</time>
      </trkpt>
      <trkpt lat="45.87175" lon="6.2054">
        <ele>692.1</ele>
        <time>2000-01-01T20:22:49.000Z</time>
      </trkpt>
      <trkpt lat="45.87183" lon="6.20547">
        <ele>687</ele>
        <time>2000-01-01T20:22:39.000Z</time>
      </trkpt>
      <trkpt lat="45.87191" lon="6.20555">
        <ele>691.7</ele>
        <time>2000-01-01T20:22:29.000Z</time>
      </trkpt>
      <trkpt lat="45.87202" lon="6.20563">
        <ele>688</ele>
        <time>2000-01-01T20:22:19.000Z</time>
      </trkpt>
      <trkpt lat="45.87209" lon="6.20571">
        <ele>691</ele>
        <time>2000-01-01T20:22:09.000Z</time>
      </trkpt>
      <trkpt lat="45.87217" lon="6.20578">
        <ele>690.6</ele>
        <time>2000-01-01T20:21:59.000Z</time>
      </trkpt>
      <trkpt lat="45.87219" lon="6.20581">
        <ele>688</ele>
        <time>2000-01-01T20:21:49.000Z</time>
      </trkpt>
      <trkpt lat="45.87224" lon="6.20585">
        <ele>690</ele>
        <time>2000-01-01T20:21:39.000Z</time>
      </trkpt>
      <trkpt lat="45.87229" lon="6.20589">
        <ele>690.3</ele>
        <time>2000-01-01T20:21:29.000Z</time>
      </trkpt>
      <trkpt lat="45.87235" lon="6.20592">
        <ele>690.9</ele>
        <time>2000-01-01T20:21:19.000Z</time>
      </trkpt>
      <trkpt lat="45.87238" lon="6.20594">
        <ele>688</ele>
        <time>2000-01-01T20:21:09.000Z</time>
      </trkpt>
      <trkpt lat="45.87241" lon="6.20596">
        <ele>691.4</ele>
        <time>2000-01-01T20:20:59.000Z</time>
      </trkpt>
      <trkpt lat="45.87247" lon="6.20599">
        <ele>692</ele>
        <time>2000-01-01T20:20:49.000Z</time>
      </trkpt>
      <trkpt lat="45.87257" lon="6.20606">
        <ele>688</ele>
        <time>2000-01-01T20:20:39.000Z</time>
      </trkpt>
      <trkpt lat="45.87268" lon="6.20611">
        <ele>694.1</ele>
        <time>2000-01-01T20:20:29.000Z</time>
      </trkpt>
      <trkpt lat="45.87277" lon="6.20622">
        <ele>688</ele>
        <time>2000-01-01T20:20:19.000Z</time>
      </trkpt>
      <trkpt lat="45.87285" lon="6.20632">
        <ele>692.9</ele>
        <time>2000-01-01T20:20:09.000Z</time>
      </trkpt>
      <trkpt lat="45.873" lon="6.20642">
        <ele>687</ele>
        <time>2000-01-01T20:19:59.000Z</time>
      </trkpt>
      <trkpt lat="45.87308" lon="6.2065">
        <ele>693.3</ele>
        <time>2000-01-01T20:19:49.000Z</time>
      </trkpt>
      <trkpt lat="45.8731" lon="6.20652">
        <ele>693.2</ele>
        <time>2000-01-01T20:19:39.000Z</time>
      </trkpt>
      <trkpt lat="45.87315" lon="6.20655">
        <ele>693.4</ele>
        <time>2000-01-01T20:19:29.000Z</time>
      </trkpt>
      <trkpt lat="45.87319" lon="6.20657">
        <ele>687</ele>
        <time>2000-01-01T20:19:19.000Z</time>
      </trkpt>
      <trkpt lat="45.87324" lon="6.2066">
        <ele>693.9</ele>
        <time>2000-01-01T20:19:09.000Z</time>
      </trkpt>
      <trkpt lat="45.87331" lon="6.20668">
        <ele>693.3</ele>
        <time>2000-01-01T20:18:59.000Z</time>
      </trkpt>
      <trkpt lat="45.87337" lon="6.20673">
        <ele>687</ele>
        <time>2000-01-01T20:18:49.000Z</time>
      </trkpt>
      <trkpt lat="45.87341" lon="6.20678">
        <ele>693.1</ele>
        <time>2000-01-01T20:18:39.000Z</time>
      </trkpt>
      <trkpt lat="45.87342" lon="6.20682">
        <ele>692.5</ele>
        <time>2000-01-01T20:18:29.000Z</time>
      </trkpt>
      <trkpt lat="45.87344" lon="6.20685">
        <ele>692.2</ele>
        <time>2000-01-01T20:18:19.000Z</time>
      </trkpt>
      <trkpt lat="45.87344" lon="6.20692">
        <ele>690.9</ele>
        <time>2000-01-01T20:18:09.000Z</time>
      </trkpt>
      <trkpt lat="45.8734" lon="6.20698">
        <ele>685</ele>
        <time>2000-01-01T20:17:59.000Z</time>
      </trkpt>
      <trkpt lat="45.87336" lon="6.207">
        <ele>688.1</ele>
        <time>2000-01-01T20:17:49.000Z</time>
      </trkpt>
      <trkpt lat="45.87334" lon="6.207">
        <ele>687.7</ele>
        <time>2000-01-01T20:17:39.000Z</time>
      </trkpt>
      <trkpt lat="45.87329" lon="6.207">
        <ele>686.9</ele>
        <time>2000-01-01T20:17:29.000Z</time>
      </trkpt>
      <trkpt lat="45.87324" lon="6.207">
        <ele>686</ele>
        <time>2000-01-01T20:17:19.000Z</time>
      </trkpt>
      <trkpt lat="45.8732" lon="6.20698">
        <ele>681</ele>
        <time>2000-01-01T20:17:09.000Z</time>
      </trkpt>
      <trkpt lat="45.87316" lon="6.20697">
        <ele>685.2</ele>
        <time>2000-01-01T20:16:59.000Z</time>
      </trkpt>
      <trkpt lat="45.87314" lon="6.20697">
        <ele>684.8</ele>
        <time>2000-01-01T20:16:49.000Z</time>
      </trkpt>
      <trkpt lat="45.87302" lon="6.207">
        <ele>682.2</ele>
        <time>2000-01-01T20:16:39.000Z</time>
      </trkpt>
      <trkpt lat="45.873" lon="6.20701">
        <ele>678</ele>
        <time>2000-01-01T20:16:29.000Z</time>
      </trkpt>
      <trkpt lat="45.87295" lon="6.20703">
        <ele>680.5</ele>
        <time>2000-01-01T20:16:19.000Z</time>
      </trkpt>
      <trkpt lat="45.87292" lon="6.20703">
        <ele>680</ele>
        <time>2000-01-01T20:16:09.000Z</time>
      </trkpt>
      <trkpt lat="45.87289" lon="6.20704">
        <ele>679.3</ele>
        <time>2000-01-01T20:15:59.000Z</time>
      </trkpt>
      <trkpt lat="45.87287" lon="6.20704">
        <ele>678.9</ele>
        <time>2000-01-01T20:15:49.000Z</time>
      </trkpt>
      <trkpt lat="45.87285" lon="6.20706">
        <ele>678.3</ele>
        <time>2000-01-01T20:15:39.000Z</time>
      </trkpt>
      <trkpt lat="45.8728" lon="6.20707">
        <ele>675</ele>
        <time>2000-01-01T20:15:29.000Z</time>
      </trkpt>
      <trkpt lat="45.87274" lon="6.20709">
        <ele>675.9</ele>
        <time>2000-01-01T20:15:19.000Z</time>
      </trkpt>
      <trkpt lat="45.87268" lon="6.20709">
        <ele>674.9</ele>
        <time>2000-01-01T20:15:09.000Z</time>
      </trkpt>
      <trkpt lat="45.87264" lon="6.20709">
        <ele>674.3</ele>
        <time>2000-01-01T20:14:59.000Z</time>
      </trkpt>
      <trkpt lat="45.87259" lon="6.20709">
        <ele>673.4</ele>
        <time>2000-01-01T20:14:49.000Z</time>
      </trkpt>
      <trkpt lat="45.87256" lon="6.20709">
        <ele>672</ele>
        <time>2000-01-01T20:14:39.000Z</time>
      </trkpt>
      <trkpt lat="45.87252" lon="6.20708">
        <ele>672.4</ele>
        <time>2000-01-01T20:14:29.000Z</time>
      </trkpt>
      <trkpt lat="45.87247" lon="6.20708">
        <ele>671.5</ele>
        <time>2000-01-01T20:14:19.000Z</time>
      </trkpt>
      <trkpt lat="45.8724" lon="6.2071">
        <ele>670</ele>
        <time>2000-01-01T20:14:09.000Z</time>
      </trkpt>
      <trkpt lat="45.87234" lon="6.20713">
        <ele>669</ele>
        <time>2000-01-01T20:13:59.000Z</time>
      </trkpt>
      <trkpt lat="45.87228" lon="6.20714">
        <ele>667.4</ele>
        <time>2000-01-01T20:13:49.000Z</time>
      </trkpt>
      <trkpt lat="45.87222" lon="6.20715">
        <ele>666.2</ele>
        <time>2000-01-01T20:13:39.000Z</time>
      </trkpt>
      <trkpt lat="45.87216" lon="6.20714">
        <ele>665.4</ele>
        <time>2000-01-01T20:13:29.000Z</time>
      </trkpt>
      <trkpt lat="45.87211" lon="6.20713">
        <ele>665</ele>
        <time>2000-01-01T20:13:19.000Z</time>
      </trkpt>
      <trkpt lat="45.87209" lon="6.20712">
        <ele>664.4</ele>
        <time>2000-01-01T20:13:09.000Z</time>
      </trkpt>
      <trkpt lat="45.87205" lon="6.20711">
        <ele>663.8</ele>
        <time>2000-01-01T20:12:59.000Z</time>
      </trkpt>
      <trkpt lat="45.87201" lon="6.20712">
        <ele>663</ele>
        <time>2000-01-01T20:12:49.000Z</time>
      </trkpt>
      <trkpt lat="45.87197" lon="6.20714">
        <ele>662.1</ele>
        <time>2000-01-01T20:12:39.000Z</time>
      </trkpt>
      <trkpt lat="45.87194" lon="6.20718">
        <ele>662</ele>
        <time>2000-01-01T20:12:29.000Z</time>
      </trkpt>
      <trkpt lat="45.87193" lon="6.20724">
        <ele>660.2</ele>
        <time>2000-01-01T20:12:19.000Z</time>
      </trkpt>
      <trkpt lat="45.87193" lon="6.20732">
        <ele>659.3</ele>
        <time>2000-01-01T20:12:09.000Z</time>
      </trkpt>
      <trkpt lat="45.87195" lon="6.20739">
        <ele>658.7</ele>
        <time>2000-01-01T20:11:59.000Z</time>
      </trkpt>
      <trkpt lat="45.87198" lon="6.20744">
        <ele>658</ele>
        <time>2000-01-01T20:11:49.000Z</time>
      </trkpt>
      <trkpt lat="45.87201" lon="6.2075">
        <ele>658.4</ele>
        <time>2000-01-01T20:11:39.000Z</time>
      </trkpt>
      <trkpt lat="45.87203" lon="6.20758">
        <ele>657.6</ele>
        <time>2000-01-01T20:11:29.000Z</time>
      </trkpt>
      <trkpt lat="45.87206" lon="6.20767">
        <ele>656.9</ele>
        <time>2000-01-01T20:11:19.000Z</time>
      </trkpt>
      <trkpt lat="45.87209" lon="6.20773">
        <ele>655</ele>
        <time>2000-01-01T20:11:09.000Z</time>
      </trkpt>
      <trkpt lat="45.87213" lon="6.20778">
        <ele>656.5</ele>
        <time>2000-01-01T20:10:59.000Z</time>
      </trkpt>
      <trkpt lat="45.87217" lon="6.20783">
        <ele>656.3</ele>
        <time>2000-01-01T20:10:49.000Z</time>
      </trkpt>
      <trkpt lat="45.87221" lon="6.20788">
        <ele>656.2</ele>
        <time>2000-01-01T20:10:39.000Z</time>
      </trkpt>
      <trkpt lat="45.87223" lon="6.20794">
        <ele>654</ele>
        <time>2000-01-01T20:10:29.000Z</time>
      </trkpt>
      <trkpt lat="45.87226" lon="6.208">
        <ele>655.1</ele>
        <time>2000-01-01T20:10:19.000Z</time>
      </trkpt>
      <trkpt lat="45.87228" lon="6.20803">
        <ele>655</ele>
        <time>2000-01-01T20:10:09.000Z</time>
      </trkpt>
      <trkpt lat="45.87229" lon="6.20807">
        <ele>654.5</ele>
        <time>2000-01-01T20:09:59.000Z</time>
      </trkpt>
      <trkpt lat="45.87232" lon="6.20813">
        <ele>654</ele>
        <time>2000-01-01T20:09:49.000Z</time>
      </trkpt>
      <trkpt lat="45.87235" lon="6.2082">
        <ele>651</ele>
        <time>2000-01-01T20:09:39.000Z</time>
      </trkpt>
      <trkpt lat="45.87239" lon="6.20826">
        <ele>652.9</ele>
        <time>2000-01-01T20:09:29.000Z</time>
      </trkpt>
      <trkpt lat="45.87242" lon="6.2083">
        <ele>652.6</ele>
        <time>2000-01-01T20:09:19.000Z</time>
      </trkpt>
      <trkpt lat="45.87245" lon="6.20835">
        <ele>652.3</ele>
        <time>2000-01-01T20:09:09.000Z</time>
      </trkpt>
      <trkpt lat="45.87248" lon="6.20839">
        <ele>652.2</ele>
        <time>2000-01-01T20:08:59.000Z</time>
      </trkpt>
      <trkpt lat="45.87251" lon="6.20844">
        <ele>650</ele>
        <time>2000-01-01T20:08:49.000Z</time>
      </trkpt>
      <trkpt lat="45.87254" lon="6.20848">
        <ele>651.9</ele>
        <time>2000-01-01T20:08:39.000Z</time>
      </trkpt>
      <trkpt lat="45.87257" lon="6.20854">
        <ele>651.6</ele>
        <time>2000-01-01T20:08:29.000Z</time>
      </trkpt>
      <trkpt lat="45.87261" lon="6.2086">
        <ele>651.4</ele>
        <time>2000-01-01T20:08:19.000Z</time>
      </trkpt>
      <trkpt lat="45.87264" lon="6.20866">
        <ele>649</ele>
        <time>2000-01-01T20:08:09.000Z</time>
      </trkpt>
      <trkpt lat="45.87267" lon="6.20872">
        <ele>650.6</ele>
        <time>2000-01-01T20:07:59.000Z</time>
      </trkpt>
      <trkpt lat="45.87269" lon="6.20878">
        <ele>650.1</ele>
        <time>2000-01-01T20:07:49.000Z</time>
      </trkpt>
      <trkpt lat="45.87273" lon="6.20884">
        <ele>649.7</ele>
        <time>2000-01-01T20:07:39.000Z</time>
      </trkpt>
      <trkpt lat="45.87276" lon="6.2089">
        <ele>646</ele>
        <time>2000-01-01T20:07:29.000Z</time>
      </trkpt>
      <trkpt lat="45.87279" lon="6.20897">
        <ele>648.6</ele>
        <time>2000-01-01T20:07:19.000Z</time>
      </trkpt>
      <trkpt lat="45.87282" lon="6.20903">
        <ele>648.1</ele>
        <time>2000-01-01T20:07:09.000Z</time>
      </trkpt>
      <trkpt lat="45.87285" lon="6.2091">
        <ele>647.4</ele>
        <time>2000-01-01T20:06:59.000Z</time>
      </trkpt>
      <trkpt lat="45.87288" lon="6.20918">
        <ele>644</ele>
        <time>2000-01-01T20:06:49.000Z</time>
      </trkpt>
      <trkpt lat="45.87291" lon="6.20923">
        <ele>646.3</ele>
        <time>2000-01-01T20:06:39.000Z</time>
      </trkpt>
      <trkpt lat="45.87294" lon="6.20929">
        <ele>646</ele>
        <time>2000-01-01T20:06:29.000Z</time>
      </trkpt>
      <trkpt lat="45.87298" lon="6.20936">
        <ele>645.6</ele>
        <time>2000-01-01T20:06:19.000Z</time>
      </trkpt>
      <trkpt lat="45.87302" lon="6.20942">
        <ele>643</ele>
        <time>2000-01-01T20:06:09.000Z</time>
      </trkpt>
      <trkpt lat="45.87313" lon="6.20954">
        <ele>645</ele>
        <time>2000-01-01T20:05:59.000Z</time>
      </trkpt>
      <trkpt lat="45.87316" lon="6.20957">
        <ele>644.9</ele>
        <time>2000-01-01T20:05:49.000Z</time>
      </trkpt>
      <trkpt lat="45.87319" lon="6.20964">
        <ele>642</ele>
        <time>2000-01-01T20:05:39.000Z</time>
      </trkpt>
      <trkpt lat="45.87322" lon="6.2097">
        <ele>644.1</ele>
        <time>2000-01-01T20:05:29.000Z</time>
      </trkpt>
      <trkpt lat="45.87324" lon="6.20977">
        <ele>643.5</ele>
        <time>2000-01-01T20:05:19.000Z</time>
      </trkpt>
      <trkpt lat="45.87327" lon="6.20982">
        <ele>643.3</ele>
        <time>2000-01-01T20:05:09.000Z</time>
      </trkpt>
      <trkpt lat="45.87329" lon="6.20987">
        <ele>641</ele>
        <time>2000-01-01T20:04:59.000Z</time>
      </trkpt>
      <trkpt lat="45.87332" lon="6.20992">
        <ele>642.7</ele>
        <time>2000-01-01T20:04:49.000Z</time>
      </trkpt>
      <trkpt lat="45.87333" lon="6.20999">
        <ele>642.1</ele>
        <time>2000-01-01T20:04:39.000Z</time>
      </trkpt>
      <trkpt lat="45.87332" lon="6.21007">
        <ele>641.3</ele>
        <time>2000-01-01T20:04:29.000Z</time>
      </trkpt>
      <trkpt lat="45.87329" lon="6.21013">
        <ele>638</ele>
        <time>2000-01-01T20:04:19.000Z</time>
      </trkpt>
      <trkpt lat="45.87325" lon="6.21021">
        <ele>639.7</ele>
        <time>2000-01-01T20:04:09.000Z</time>
      </trkpt>
      <trkpt lat="45.87321" lon="6.21026">
        <ele>639</ele>
        <time>2000-01-01T20:03:59.000Z</time>
      </trkpt>
      <trkpt lat="45.87318" lon="6.21032">
        <ele>638.3</ele>
        <time>2000-01-01T20:03:49.000Z</time>
      </trkpt>
      <trkpt lat="45.87314" lon="6.21037">
        <ele>637</ele>
        <time>2000-01-01T20:03:39.000Z</time>
      </trkpt>
      <trkpt lat="45.87311" lon="6.21042">
        <ele>637.1</ele>
        <time>2000-01-01T20:03:29.000Z</time>
      </trkpt>
      <trkpt lat="45.87307" lon="6.21047">
        <ele>636.5</ele>
        <time>2000-01-01T20:03:19.000Z</time>
      </trkpt>
      <trkpt lat="45.87303" lon="6.21053">
        <ele>635.8</ele>
        <time>2000-01-01T20:03:09.000Z</time>
      </trkpt>
      <trkpt lat="45.87299" lon="6.21058">
        <ele>634</ele>
        <time>2000-01-01T20:02:59.000Z</time>
      </trkpt>
      <trkpt lat="45.87295" lon="6.21063">
        <ele>634.6</ele>
        <time>2000-01-01T20:02:49.000Z</time>
      </trkpt>
      <trkpt lat="45.87291" lon="6.21069">
        <ele>634</ele>
        <time>2000-01-01T20:02:39.000Z</time>
      </trkpt>
      <trkpt lat="45.87288" lon="6.21073">
        <ele>633.6</ele>
        <time>2000-01-01T20:02:29.000Z</time>
      </trkpt>
      <trkpt lat="45.87284" lon="6.21078">
        <ele>632</ele>
        <time>2000-01-01T20:02:19.000Z</time>
      </trkpt>
      <trkpt lat="45.87275" lon="6.21076">
        <ele>632.7</ele>
        <time>2000-01-01T20:02:09.000Z</time>
      </trkpt>
      <trkpt lat="45.87273" lon="6.21062">
        <ele>632</ele>
        <time>2000-01-01T20:01:59.000Z</time>
      </trkpt>
      <trkpt lat="45.87268" lon="6.21049">
        <ele>634.1</ele>
        <time>2000-01-01T20:01:49.000Z</time>
      </trkpt>
      <trkpt lat="45.87262" lon="6.21038">
        <ele>633</ele>
        <time>2000-01-01T20:01:39.000Z</time>
      </trkpt>
      <trkpt lat="45.87258" lon="6.2103">
        <ele>634.7</ele>
        <time>2000-01-01T20:01:29.000Z</time>
      </trkpt>
      <trkpt lat="45.87255" lon="6.21023">
        <ele>634.9</ele>
        <time>2000-01-01T20:01:19.000Z</time>
      </trkpt>
      <trkpt lat="45.87252" lon="6.21016">
        <ele>635.2</ele>
        <time>2000-01-01T20:01:09.000Z</time>
      </trkpt>
      <trkpt lat="45.87248" lon="6.21009">
        <ele>633</ele>
        <time>2000-01-01T20:00:59.000Z</time>
      </trkpt>
      <trkpt lat="45.87244" lon="6.21002">
        <ele>635.3</ele>
        <time>2000-01-01T20:00:49.000Z</time>
      </trkpt>
      <trkpt lat="45.8724" lon="6.20994">
        <ele>635.6</ele>
        <time>2000-01-01T20:00:39.000Z</time>
      </trkpt>
      <trkpt lat="45.87236" lon="6.20986">
        <ele>634</ele>
        <time>2000-01-01T20:00:29.000Z</time>
      </trkpt>
      <trkpt lat="45.87232" lon="6.20979">
        <ele>636.1</ele>
        <time>2000-01-01T20:00:19.000Z</time>
      </trkpt>
      <trkpt lat="45.87227" lon="6.20972">
        <ele>636.2</ele>
        <time>2000-01-01T20:00:09.000Z</time>
      </trkpt>
      <trkpt lat="45.87223" lon="6.20966">
        <ele>634</ele>
        <time>2000-01-01T19:59:59.000Z</time>
      </trkpt>
      <trkpt lat="45.87219" lon="6.20958">
        <ele>636.5</ele>
        <time>2000-01-01T19:59:49.000Z</time>
      </trkpt>
      <trkpt lat="45.87215" lon="6.20951">
        <ele>636.6</ele>
        <time>2000-01-01T19:59:39.000Z</time>
      </trkpt>
      <trkpt lat="45.87211" lon="6.20945">
        <ele>635</ele>
        <time>2000-01-01T19:59:29.000Z</time>
      </trkpt>
      <trkpt lat="45.87207" lon="6.20937">
        <ele>636.7</ele>
        <time>2000-01-01T19:59:19.000Z</time>
      </trkpt>
      <trkpt lat="45.87203" lon="6.20931">
        <ele>636.7</ele>
        <time>2000-01-01T19:59:09.000Z</time>
      </trkpt>
      <trkpt lat="45.87198" lon="6.20924">
        <ele>635</ele>
        <time>2000-01-01T19:58:59.000Z</time>
      </trkpt>
      <trkpt lat="45.87195" lon="6.20918">
        <ele>636.6</ele>
        <time>2000-01-01T19:58:49.000Z</time>
      </trkpt>
      <trkpt lat="45.87191" lon="6.20911">
        <ele>636.9</ele>
        <time>2000-01-01T19:58:39.000Z</time>
      </trkpt>
      <trkpt lat="45.87188" lon="6.20905">
        <ele>637.3</ele>
        <time>2000-01-01T19:58:29.000Z</time>
      </trkpt>
      <trkpt lat="45.87184" lon="6.20898">
        <ele>636</ele>
        <time>2000-01-01T19:58:19.000Z</time>
      </trkpt>
      <trkpt lat="45.8718" lon="6.20892">
        <ele>637.9</ele>
        <time>2000-01-01T19:58:09.000Z</time>
      </trkpt>
      <trkpt lat="45.87176" lon="6.20881">
        <ele>638.8</ele>
        <time>2000-01-01T19:57:59.000Z</time>
      </trkpt>
      <trkpt lat="45.87173" lon="6.20874">
        <ele>636</ele>
        <time>2000-01-01T19:57:49.000Z</time>
      </trkpt>
      <trkpt lat="45.87171" lon="6.20871">
        <ele>639.5</ele>
        <time>2000-01-01T19:57:39.000Z</time>
      </trkpt>
      <trkpt lat="45.87163" lon="6.20865">
        <ele>639.3</ele>
        <time>2000-01-01T19:57:29.000Z</time>
      </trkpt>
      <trkpt lat="45.87156" lon="6.20857">
        <ele>636</ele>
        <time>2000-01-01T19:57:19.000Z</time>
      </trkpt>
      <trkpt lat="45.87147" lon="6.20853">
        <ele>638.7</ele>
        <time>2000-01-01T19:57:09.000Z</time>
      </trkpt>
      <trkpt lat="45.87136" lon="6.20847">
        <ele>636</ele>
        <time>2000-01-01T19:56:59.000Z</time>
      </trkpt>
      <trkpt lat="45.87126" lon="6.20842">
        <ele>637.2</ele>
        <time>2000-01-01T19:56:49.000Z</time>
      </trkpt>
      <trkpt lat="45.87116" lon="6.20834">
        <ele>636</ele>
        <time>2000-01-01T19:56:39.000Z</time>
      </trkpt>
      <trkpt lat="45.87107" lon="6.20826">
        <ele>636.2</ele>
        <time>2000-01-01T19:56:29.000Z</time>
      </trkpt>
      <trkpt lat="45.87105" lon="6.20824">
        <ele>636.1</ele>
        <time>2000-01-01T19:56:19.000Z</time>
      </trkpt>
      <trkpt lat="45.871" lon="6.20821">
        <ele>635.7</ele>
        <time>2000-01-01T19:56:09.000Z</time>
      </trkpt>
      <trkpt lat="45.87096" lon="6.20818">
        <ele>636</ele>
        <time>2000-01-01T19:55:59.000Z</time>
      </trkpt>
      <trkpt lat="45.87091" lon="6.20813">
        <ele>635.3</ele>
        <time>2000-01-01T19:55:49.000Z</time>
      </trkpt>
      <trkpt lat="45.87087" lon="6.20811">
        <ele>634.9</ele>
        <time>2000-01-01T19:55:39.000Z</time>
      </trkpt>
      <trkpt lat="45.87082" lon="6.20807">
        <ele>634.7</ele>
        <time>2000-01-01T19:55:29.000Z</time>
      </trkpt>
      <trkpt lat="45.87077" lon="6.20804">
        <ele>634</ele>
        <time>2000-01-01T19:55:19.000Z</time>
      </trkpt>
      <trkpt lat="45.87072" lon="6.20799">
        <ele>634.3</ele>
        <time>2000-01-01T19:55:09.000Z</time>
      </trkpt>
      <trkpt lat="45.87067" lon="6.20795">
        <ele>634.1</ele>
        <time>2000-01-01T19:54:59.000Z</time>
      </trkpt>
      <trkpt lat="45.87063" lon="6.20791">
        <ele>634</ele>
        <time>2000-01-01T19:54:49.000Z</time>
      </trkpt>
      <trkpt lat="45.8706" lon="6.20787">
        <ele>634</ele>
        <time>2000-01-01T19:54:39.000Z</time>
      </trkpt>
      <trkpt lat="45.87055" lon="6.20783">
        <ele>633.8</ele>
        <time>2000-01-01T19:54:29.000Z</time>
      </trkpt>
      <trkpt lat="45.8705" lon="6.20778">
        <ele>633.7</ele>
        <time>2000-01-01T19:54:19.000Z</time>
      </trkpt>
      <trkpt lat="45.87046" lon="6.20774">
        <ele>633.6</ele>
        <time>2000-01-01T19:54:09.000Z</time>
      </trkpt>
      <trkpt lat="45.87046" lon="6.20774">
        <ele>633.6</ele>
        <time>2000-01-01T19:53:59.000Z</time>
      </trkpt>
      <trkpt lat="45.87043" lon="6.20773">
        <ele>633.3</ele>
        <time>2000-01-01T19:53:49.000Z</time>
      </trkpt>
      <trkpt lat="45.87039" lon="6.20772">
        <ele>632</ele>
        <time>2000-01-01T19:53:39.000Z</time>
      </trkpt>
      <trkpt lat="45.87033" lon="6.20772">
        <ele>632.1</ele>
        <time>2000-01-01T19:53:29.000Z</time>
      </trkpt>
      <trkpt lat="45.87028" lon="6.20775">
        <ele>631.2</ele>
        <time>2000-01-01T19:53:19.000Z</time>
      </trkpt>
      <trkpt lat="45.87027" lon="6.20779">
        <ele>630.7</ele>
        <time>2000-01-01T19:53:09.000Z</time>
      </trkpt>
      <trkpt lat="45.87026" lon="6.20787">
        <ele>629</ele>
        <time>2000-01-01T19:52:59.000Z</time>
      </trkpt>
      <trkpt lat="45.87029" lon="6.20792">
        <ele>629.6</ele>
        <time>2000-01-01T19:52:49.000Z</time>
      </trkpt>
      <trkpt lat="45.87036" lon="6.20804">
        <ele>629.3</ele>
        <time>2000-01-01T19:52:39.000Z</time>
      </trkpt>
      <trkpt lat="45.87041" lon="6.2081">
        <ele>625</ele>
        <time>2000-01-01T19:52:29.000Z</time>
      </trkpt>
      <trkpt lat="45.87045" lon="6.20816">
        <ele>629.2</ele>
        <time>2000-01-01T19:52:19.000Z</time>
      </trkpt>
      <trkpt lat="45.87047" lon="6.20818">
        <ele>629.2</ele>
        <time>2000-01-01T19:52:09.000Z</time>
      </trkpt>
      <trkpt lat="45.87054" lon="6.2083">
        <ele>628.8</ele>
        <time>2000-01-01T19:51:59.000Z</time>
      </trkpt>
      <trkpt lat="45.87054" lon="6.20835">
        <ele>624</ele>
        <time>2000-01-01T19:51:49.000Z</time>
      </trkpt>
      <trkpt lat="45.87033" lon="6.20826">
        <ele>624</ele>
        <time>2000-01-01T19:51:39.000Z</time>
      </trkpt>
      <trkpt lat="45.87033" lon="6.20836">
        <ele>625.7</ele>
        <time>2000-01-01T19:51:29.000Z</time>
      </trkpt>
      <trkpt lat="45.87034" lon="6.20854">
        <ele>621</ele>
        <time>2000-01-01T19:51:19.000Z</time>
      </trkpt>
      <trkpt lat="45.87037" lon="6.20884">
        <ele>621.2</ele>
        <time>2000-01-01T19:51:09.000Z</time>
      </trkpt>
      <trkpt lat="45.87038" lon="6.20897">
        <ele>617</ele>
        <time>2000-01-01T19:50:59.000Z</time>
      </trkpt>
      <trkpt lat="45.8704" lon="6.20925">
        <ele>617</ele>
        <time>2000-01-01T19:50:49.000Z</time>
      </trkpt>
      <trkpt lat="45.87044" lon="6.20953">
        <ele>615</ele>
        <time>2000-01-01T19:50:39.000Z</time>
      </trkpt>
      <trkpt lat="45.87044" lon="6.20974">
        <ele>616.3</ele>
        <time>2000-01-01T19:50:29.000Z</time>
      </trkpt>
      <trkpt lat="45.87041" lon="6.20988">
        <ele>614</ele>
        <time>2000-01-01T19:50:19.000Z</time>
      </trkpt>
      <trkpt lat="45.87036" lon="6.21">
        <ele>614.5</ele>
        <time>2000-01-01T19:50:09.000Z</time>
      </trkpt>
      <trkpt lat="45.87028" lon="6.21007">
        <ele>611</ele>
        <time>2000-01-01T19:49:59.000Z</time>
      </trkpt>
      <trkpt lat="45.87017" lon="6.21008">
        <ele>612.7</ele>
        <time>2000-01-01T19:49:49.000Z</time>
      </trkpt>
      <trkpt lat="45.87007" lon="6.21009">
        <ele>608</ele>
        <time>2000-01-01T19:49:39.000Z</time>
      </trkpt>
      <trkpt lat="45.86999" lon="6.21007">
        <ele>611</ele>
        <time>2000-01-01T19:49:29.000Z</time>
      </trkpt>
      <trkpt lat="45.86985" lon="6.21003">
        <ele>605</ele>
        <time>2000-01-01T19:49:19.000Z</time>
      </trkpt>
      <trkpt lat="45.86959" lon="6.21002">
        <ele>600</ele>
        <time>2000-01-01T19:49:09.000Z</time>
      </trkpt>
      <trkpt lat="45.86944" lon="6.21005">
        <ele>605.1</ele>
        <time>2000-01-01T19:48:59.000Z</time>
      </trkpt>
      <trkpt lat="45.8693" lon="6.21019">
        <ele>600</ele>
        <time>2000-01-01T19:48:49.000Z</time>
      </trkpt>
      <trkpt lat="45.86938" lon="6.21046">
        <ele>601</ele>
        <time>2000-01-01T19:48:39.000Z</time>
      </trkpt>
      <trkpt lat="45.86982" lon="6.21067">
        <ele>606</ele>
        <time>2000-01-01T19:48:29.000Z</time>
      </trkpt>
      <trkpt lat="45.87023" lon="6.21094">
        <ele>611</ele>
        <time>2000-01-01T19:48:19.000Z</time>
      </trkpt>
      <trkpt lat="45.87053" lon="6.21113">
        <ele>614</ele>
        <time>2000-01-01T19:48:09.000Z</time>
      </trkpt>
      <trkpt lat="45.87083" lon="6.21132">
        <ele>616</ele>
        <time>2000-01-01T19:47:59.000Z</time>
      </trkpt>
      <trkpt lat="45.87124" lon="6.2116">
        <ele>619</ele>
        <time>2000-01-01T19:47:49.000Z</time>
      </trkpt>
      <trkpt lat="45.87153" lon="6.21181">
        <ele>621</ele>
        <time>2000-01-01T19:47:39.000Z</time>
      </trkpt>
      <trkpt lat="45.87183" lon="6.21202">
        <ele>623</ele>
        <time>2000-01-01T19:47:29.000Z</time>
      </trkpt>
      <trkpt lat="45.87213" lon="6.21218">
        <ele>624</ele>
        <time>2000-01-01T19:47:19.000Z</time>
      </trkpt>
      <trkpt lat="45.87204" lon="6.21251">
        <ele>625</ele>
        <time>2000-01-01T19:47:09.000Z</time>
      </trkpt>
      <trkpt lat="45.87195" lon="6.21282">
        <ele>625</ele>
        <time>2000-01-01T19:46:59.000Z</time>
      </trkpt>
      <trkpt lat="45.87183" lon="6.21327">
        <ele>626</ele>
        <time>2000-01-01T19:46:49.000Z</time>
      </trkpt>
      <trkpt lat="45.8717" lon="6.21371">
        <ele>628</ele>
        <time>2000-01-01T19:46:39.000Z</time>
      </trkpt>
      <trkpt lat="45.87175" lon="6.21399">
        <ele>628</ele>
        <time>2000-01-01T19:46:29.000Z</time>
      </trkpt>
      <trkpt lat="45.87176" lon="6.21432">
        <ele>630</ele>
        <time>2000-01-01T19:46:19.000Z</time>
      </trkpt>
      <trkpt lat="45.87192" lon="6.21448">
        <ele>633</ele>
        <time>2000-01-01T19:46:09.000Z</time>
      </trkpt>
      <trkpt lat="45.87217" lon="6.21456">
        <ele>636</ele>
        <time>2000-01-01T19:45:59.000Z</time>
      </trkpt>
      <trkpt lat="45.8724" lon="6.21462">
        <ele>639</ele>
        <time>2000-01-01T19:45:49.000Z</time>
      </trkpt>
      <trkpt lat="45.87249" lon="6.21466">
        <ele>642.6</ele>
        <time>2000-01-01T19:45:39.000Z</time>
      </trkpt>
      <trkpt lat="45.87264" lon="6.2147">
        <ele>640</ele>
        <time>2000-01-01T19:45:29.000Z</time>
      </trkpt>
      <trkpt lat="45.87273" lon="6.2147">
        <ele>645.5</ele>
        <time>2000-01-01T19:45:19.000Z</time>
      </trkpt>
      <trkpt lat="45.87275" lon="6.21484">
        <ele>640</ele>
        <time>2000-01-01T19:45:09.000Z</time>
      </trkpt>
      <trkpt lat="45.87277" lon="6.21492">
        <ele>646.7</ele>
        <time>2000-01-01T19:44:59.000Z</time>
      </trkpt>
      <trkpt lat="45.87279" lon="6.21501">
        <ele>647.1</ele>
        <time>2000-01-01T19:44:49.000Z</time>
      </trkpt>
      <trkpt lat="45.87284" lon="6.21516">
        <ele>640</ele>
        <time>2000-01-01T19:44:39.000Z</time>
      </trkpt>
      <trkpt lat="45.87289" lon="6.21538">
        <ele>646.8</ele>
        <time>2000-01-01T19:44:29.000Z</time>
      </trkpt>
      <trkpt lat="45.87292" lon="6.21548">
        <ele>639</ele>
        <time>2000-01-01T19:44:19.000Z</time>
      </trkpt>
      <trkpt lat="45.87293" lon="6.21556">
        <ele>646.6</ele>
        <time>2000-01-01T19:44:09.000Z</time>
      </trkpt>
      <trkpt lat="45.87295" lon="6.21568">
        <ele>646.5</ele>
        <time>2000-01-01T19:43:59.000Z</time>
      </trkpt>
      <trkpt lat="45.87296" lon="6.2158">
        <ele>639</ele>
        <time>2000-01-01T19:43:49.000Z</time>
      </trkpt>
      <trkpt lat="45.87298" lon="6.21587">
        <ele>646.4</ele>
        <time>2000-01-01T19:43:39.000Z</time>
      </trkpt>
      <trkpt lat="45.873" lon="6.21594">
        <ele>646.7</ele>
        <time>2000-01-01T19:43:29.000Z</time>
      </trkpt>
      <trkpt lat="45.87304" lon="6.21605">
        <ele>639</ele>
        <time>2000-01-01T19:43:19.000Z</time>
      </trkpt>
      <trkpt lat="45.8731" lon="6.21616">
        <ele>648</ele>
        <time>2000-01-01T19:43:09.000Z</time>
      </trkpt>
      <trkpt lat="45.87315" lon="6.21623">
        <ele>648.5</ele>
        <time>2000-01-01T19:42:59.000Z</time>
      </trkpt>
      <trkpt lat="45.87319" lon="6.21629">
        <ele>640</ele>
        <time>2000-01-01T19:42:49.000Z</time>
      </trkpt>
      <trkpt lat="45.87327" lon="6.21639">
        <ele>649.7</ele>
        <time>2000-01-01T19:42:39.000Z</time>
      </trkpt>
      <trkpt lat="45.87333" lon="6.21645">
        <ele>650.2</ele>
        <time>2000-01-01T19:42:29.000Z</time>
      </trkpt>
      <trkpt lat="45.87335" lon="6.21648">
        <ele>650.3</ele>
        <time>2000-01-01T19:42:19.000Z</time>
      </trkpt>
      <trkpt lat="45.87339" lon="6.21656">
        <ele>642</ele>
        <time>2000-01-01T19:42:09.000Z</time>
      </trkpt>
      <trkpt lat="45.87344" lon="6.21666">
        <ele>650.4</ele>
        <time>2000-01-01T19:41:59.000Z</time>
      </trkpt>
      <trkpt lat="45.87352" lon="6.21684">
        <ele>646</ele>
        <time>2000-01-01T19:41:49.000Z</time>
      </trkpt>
      <trkpt lat="45.87355" lon="6.21691">
        <ele>653.6</ele>
        <time>2000-01-01T19:41:39.000Z</time>
      </trkpt>
      <trkpt lat="45.87358" lon="6.21696">
        <ele>654.3</ele>
        <time>2000-01-01T19:41:29.000Z</time>
      </trkpt>
      <trkpt lat="45.87363" lon="6.21707">
        <ele>655.7</ele>
        <time>2000-01-01T19:41:19.000Z</time>
      </trkpt>
      <trkpt lat="45.87367" lon="6.21706">
        <ele>650</ele>
        <time>2000-01-01T19:41:09.000Z</time>
      </trkpt>
      <trkpt lat="45.87374" lon="6.21711">
        <ele>656.5</ele>
        <time>2000-01-01T19:40:59.000Z</time>
      </trkpt>
      <trkpt lat="45.87379" lon="6.21714">
        <ele>657</ele>
        <time>2000-01-01T19:40:49.000Z</time>
      </trkpt>
      <trkpt lat="45.87383" lon="6.21716">
        <ele>657.4</ele>
        <time>2000-01-01T19:40:39.000Z</time>
      </trkpt>
      <trkpt lat="45.87389" lon="6.21715">
        <ele>651</ele>
        <time>2000-01-01T19:40:29.000Z</time>
      </trkpt>
      <trkpt lat="45.87394" lon="6.21715">
        <ele>657.6</ele>
        <time>2000-01-01T19:40:19.000Z</time>
      </trkpt>
      <trkpt lat="45.87402" lon="6.21719">
        <ele>658.2</ele>
        <time>2000-01-01T19:40:09.000Z</time>
      </trkpt>
      <trkpt lat="45.8741" lon="6.21724">
        <ele>656</ele>
        <time>2000-01-01T19:39:59.000Z</time>
      </trkpt>
      <trkpt lat="45.87428" lon="6.21737">
        <ele>660.3</ele>
        <time>2000-01-01T19:39:49.000Z</time>
      </trkpt>
      <trkpt lat="45.87438" lon="6.21746">
        <ele>660</ele>
        <time>2000-01-01T19:39:39.000Z</time>
      </trkpt>
      <trkpt lat="45.87446" lon="6.21754">
        <ele>661.9</ele>
        <time>2000-01-01T19:39:29.000Z</time>
      </trkpt>
      <trkpt lat="45.87455" lon="6.21762">
        <ele>662.9</ele>
        <time>2000-01-01T19:39:19.000Z</time>
      </trkpt>
      <trkpt lat="45.87457" lon="6.21764">
        <ele>664</ele>
        <time>2000-01-01T19:39:09.000Z</time>
      </trkpt>
      <trkpt lat="45.87465" lon="6.21778">
        <ele>665.1</ele>
        <time>2000-01-01T19:38:59.000Z</time>
      </trkpt>
      <trkpt lat="45.8747" lon="6.21785">
        <ele>668</ele>
        <time>2000-01-01T19:38:49.000Z</time>
      </trkpt>
      <trkpt lat="45.87476" lon="6.21792">
        <ele>667.2</ele>
        <time>2000-01-01T19:38:39.000Z</time>
      </trkpt>
      <trkpt lat="45.8749" lon="6.21809">
        <ele>672</ele>
        <time>2000-01-01T19:38:29.000Z</time>
      </trkpt>
      <trkpt lat="45.87495" lon="6.2182">
        <ele>671.7</ele>
        <time>2000-01-01T19:38:19.000Z</time>
      </trkpt>
      <trkpt lat="45.87501" lon="6.21838">
        <ele>675</ele>
        <time>2000-01-01T19:38:09.000Z</time>
      </trkpt>
      <trkpt lat="45.87504" lon="6.21852">
        <ele>675.7</ele>
        <time>2000-01-01T19:37:59.000Z</time>
      </trkpt>
      <trkpt lat="45.87504" lon="6.21878">
        <ele>677</ele>
        <time>2000-01-01T19:37:49.000Z</time>
      </trkpt>
      <trkpt lat="45.87502" lon="6.21909">
        <ele>682</ele>
        <time>2000-01-01T19:37:39.000Z</time>
      </trkpt>
      <trkpt lat="45.87501" lon="6.21927">
        <ele>680</ele>
        <time>2000-01-01T19:37:29.000Z</time>
      </trkpt>
      <trkpt lat="45.875" lon="6.21937">
        <ele>686.4</ele>
        <time>2000-01-01T19:37:19.000Z</time>
      </trkpt>
      <trkpt lat="45.87502" lon="6.21958">
        <ele>683</ele>
        <time>2000-01-01T19:37:09.000Z</time>
      </trkpt>
      <trkpt lat="45.87504" lon="6.21982">
        <ele>693.8</ele>
        <time>2000-01-01T19:36:59.000Z</time>
      </trkpt>
      <trkpt lat="45.87507" lon="6.22005">
        <ele>691</ele>
        <time>2000-01-01T19:36:49.000Z</time>
      </trkpt>
      <trkpt lat="45.8751" lon="6.22033">
        <ele>694</ele>
        <time>2000-01-01T19:36:39.000Z</time>
      </trkpt>
      <trkpt lat="45.87512" lon="6.22045">
        <ele>710</ele>
        <time>2000-01-01T19:36:29.000Z</time>
      </trkpt>
      <trkpt lat="45.87516" lon="6.22054">
        <ele>712.3</ele>
        <time>2000-01-01T19:36:19.000Z</time>
      </trkpt>
      <trkpt lat="45.87519" lon="6.22056">
        <ele>697</ele>
        <time>2000-01-01T19:36:09.000Z</time>
      </trkpt>
      <trkpt lat="45.87524" lon="6.22062">
        <ele>713.9</ele>
        <time>2000-01-01T19:35:59.000Z</time>
      </trkpt>
      <trkpt lat="45.87539" lon="6.2207">
        <ele>699</ele>
        <time>2000-01-01T19:35:49.000Z</time>
      </trkpt>
      <trkpt lat="45.87563" lon="6.22083">
        <ele>702</ele>
        <time>2000-01-01T19:35:39.000Z</time>
      </trkpt>
      <trkpt lat="45.87582" lon="6.22093">
        <ele>704</ele>
        <time>2000-01-01T19:35:29.000Z</time>
      </trkpt>
      <trkpt lat="45.87602" lon="6.22105">
        <ele>717</ele>
        <time>2000-01-01T19:35:19.000Z</time>
      </trkpt>
      <trkpt lat="45.87615" lon="6.22111">
        <ele>711</ele>
        <time>2000-01-01T19:35:09.000Z</time>
      </trkpt>
      <trkpt lat="45.87638" lon="6.2212">
        <ele>714</ele>
        <time>2000-01-01T19:34:59.000Z</time>
      </trkpt>
      <trkpt lat="45.87654" lon="6.22131">
        <ele>721.1</ele>
        <time>2000-01-01T19:34:49.000Z</time>
      </trkpt>
      <trkpt lat="45.8766" lon="6.22138">
        <ele>717</ele>
        <time>2000-01-01T19:34:39.000Z</time>
      </trkpt>
      <trkpt lat="45.87665" lon="6.22153">
        <ele>726.4</ele>
        <time>2000-01-01T19:34:29.000Z</time>
      </trkpt>
      <trkpt lat="45.87672" lon="6.22173">
        <ele>731.1</ele>
        <time>2000-01-01T19:34:19.000Z</time>
      </trkpt>
      <trkpt lat="45.87674" lon="6.22177">
        <ele>727</ele>
        <time>2000-01-01T19:34:09.000Z</time>
      </trkpt>
      <trkpt lat="45.87685" lon="6.22185">
        <ele>733</ele>
        <time>2000-01-01T19:33:59.000Z</time>
      </trkpt>
      <trkpt lat="45.87698" lon="6.22195">
        <ele>731</ele>
        <time>2000-01-01T19:33:49.000Z</time>
      </trkpt>
      <trkpt lat="45.87713" lon="6.2221">
        <ele>736.7</ele>
        <time>2000-01-01T19:33:39.000Z</time>
      </trkpt>
      <trkpt lat="45.87724" lon="6.22224">
        <ele>738.7</ele>
        <time>2000-01-01T19:33:29.000Z</time>
      </trkpt>
      <trkpt lat="45.87726" lon="6.22226">
        <ele>736</ele>
        <time>2000-01-01T19:33:19.000Z</time>
      </trkpt>
      <trkpt lat="45.87736" lon="6.22241">
        <ele>741.1</ele>
        <time>2000-01-01T19:33:09.000Z</time>
      </trkpt>
      <trkpt lat="45.87745" lon="6.22261">
        <ele>743</ele>
        <time>2000-01-01T19:32:59.000Z</time>
      </trkpt>
      <trkpt lat="45.87753" lon="6.22277">
        <ele>743.8</ele>
        <time>2000-01-01T19:32:49.000Z</time>
      </trkpt>
      <trkpt lat="45.87757" lon="6.22293">
        <ele>745</ele>
        <time>2000-01-01T19:32:39.000Z</time>
      </trkpt>
      <trkpt lat="45.87761" lon="6.22309">
        <ele>745.4</ele>
        <time>2000-01-01T19:32:29.000Z</time>
      </trkpt>
      <trkpt lat="45.87763" lon="6.22322">
        <ele>746.3</ele>
        <time>2000-01-01T19:32:19.000Z</time>
      </trkpt>
      <trkpt lat="45.87765" lon="6.22326">
        <ele>747</ele>
        <time>2000-01-01T19:32:09.000Z</time>
      </trkpt>
      <trkpt lat="45.87783" lon="6.22352">
        <ele>747</ele>
        <time>2000-01-01T19:31:59.000Z</time>
      </trkpt>
      <trkpt lat="45.87805" lon="6.22386">
        <ele>747</ele>
        <time>2000-01-01T19:31:49.000Z</time>
      </trkpt>
      <trkpt lat="45.87819" lon="6.22407">
        <ele>749</ele>
        <time>2000-01-01T19:31:39.000Z</time>
      </trkpt>
      <trkpt lat="45.87828" lon="6.2242">
        <ele>749</ele>
        <time>2000-01-01T19:31:29.000Z</time>
      </trkpt>
      <trkpt lat="45.87841" lon="6.22442">
        <ele>749</ele>
        <time>2000-01-01T19:31:19.000Z</time>
      </trkpt>
      <trkpt lat="45.87858" lon="6.22467">
        <ele>749</ele>
        <time>2000-01-01T19:31:09.000Z</time>
      </trkpt>
      <trkpt lat="45.87873" lon="6.22486">
        <ele>749</ele>
        <time>2000-01-01T19:30:59.000Z</time>
      </trkpt>
      <trkpt lat="45.87888" lon="6.22506">
        <ele>749</ele>
        <time>2000-01-01T19:30:49.000Z</time>
      </trkpt>
      <trkpt lat="45.87903" lon="6.22528">
        <ele>750</ele>
        <time>2000-01-01T19:30:39.000Z</time>
      </trkpt>
      <trkpt lat="45.87915" lon="6.2255">
        <ele>750</ele>
        <time>2000-01-01T19:30:29.000Z</time>
      </trkpt>
      <trkpt lat="45.87928" lon="6.22573">
        <ele>750</ele>
        <time>2000-01-01T19:30:19.000Z</time>
      </trkpt>
      <trkpt lat="45.87938" lon="6.22588">
        <ele>751.2</ele>
        <time>2000-01-01T19:30:09.000Z</time>
      </trkpt>
      <trkpt lat="45.8795" lon="6.22603">
        <ele>751</ele>
        <time>2000-01-01T19:29:59.000Z</time>
      </trkpt>
      <trkpt lat="45.87968" lon="6.22623">
        <ele>751</ele>
        <time>2000-01-01T19:29:49.000Z</time>
      </trkpt>
      <trkpt lat="45.87985" lon="6.22643">
        <ele>752</ele>
        <time>2000-01-01T19:29:39.000Z</time>
      </trkpt>
      <trkpt lat="45.87996" lon="6.22657">
        <ele>749.4</ele>
        <time>2000-01-01T19:29:29.000Z</time>
      </trkpt>
      <trkpt lat="45.88008" lon="6.22674">
        <ele>752</ele>
        <time>2000-01-01T19:29:19.000Z</time>
      </trkpt>
      <trkpt lat="45.88017" lon="6.22688">
        <ele>749.1</ele>
        <time>2000-01-01T19:29:09.000Z</time>
      </trkpt>
      <trkpt lat="45.88023" lon="6.22699">
        <ele>749.3</ele>
        <time>2000-01-01T19:28:59.000Z</time>
      </trkpt>
      <trkpt lat="45.88027" lon="6.22709">
        <ele>752</ele>
        <time>2000-01-01T19:28:49.000Z</time>
      </trkpt>
      <trkpt lat="45.88034" lon="6.22728">
        <ele>750.7</ele>
        <time>2000-01-01T19:28:39.000Z</time>
      </trkpt>
      <trkpt lat="45.88042" lon="6.22751">
        <ele>752</ele>
        <time>2000-01-01T19:28:29.000Z</time>
      </trkpt>
      <trkpt lat="45.88047" lon="6.22765">
        <ele>751.4</ele>
        <time>2000-01-01T19:28:19.000Z</time>
      </trkpt>
      <trkpt lat="45.88049" lon="6.2277">
        <ele>751.2</ele>
        <time>2000-01-01T19:28:09.000Z</time>
      </trkpt>
      <trkpt lat="45.88049" lon="6.22776">
        <ele>751.3</ele>
        <time>2000-01-01T19:27:59.000Z</time>
      </trkpt>
      <trkpt lat="45.88048" lon="6.22789">
        <ele>752</ele>
        <time>2000-01-01T19:27:49.000Z</time>
      </trkpt>
      <trkpt lat="45.88046" lon="6.22811">
        <ele>753</ele>
        <time>2000-01-01T19:27:39.000Z</time>
      </trkpt>
      <trkpt lat="45.88042" lon="6.22832">
        <ele>752</ele>
        <time>2000-01-01T19:27:29.000Z</time>
      </trkpt>
      <trkpt lat="45.88041" lon="6.22839">
        <ele>754.9</ele>
        <time>2000-01-01T19:27:19.000Z</time>
      </trkpt>
      <trkpt lat="45.88039" lon="6.22845">
        <ele>755.7</ele>
        <time>2000-01-01T19:27:09.000Z</time>
      </trkpt>
      <trkpt lat="45.88034" lon="6.22857">
        <ele>752</ele>
        <time>2000-01-01T19:26:59.000Z</time>
      </trkpt>
      <trkpt lat="45.88029" lon="6.22869">
        <ele>759.3</ele>
        <time>2000-01-01T19:26:49.000Z</time>
      </trkpt>
      <trkpt lat="45.88026" lon="6.22883">
        <ele>755</ele>
        <time>2000-01-01T19:26:39.000Z</time>
      </trkpt>
      <trkpt lat="45.88024" lon="6.22901">
        <ele>762.6</ele>
        <time>2000-01-01T19:26:29.000Z</time>
      </trkpt>
      <trkpt lat="45.88023" lon="6.22907">
        <ele>763.3</ele>
        <time>2000-01-01T19:26:19.000Z</time>
      </trkpt>
      <trkpt lat="45.88024" lon="6.22914">
        <ele>756</ele>
        <time>2000-01-01T19:26:09.000Z</time>
      </trkpt>
      <trkpt lat="45.8804" lon="6.2297">
        <ele>756</ele>
        <time>2000-01-01T19:25:59.000Z</time>
      </trkpt>
      <trkpt lat="45.88039" lon="6.23016">
        <ele>757.6</ele>
        <time>2000-01-01T19:25:49.000Z</time>
      </trkpt>
      <trkpt lat="45.88028" lon="6.23015">
        <ele>759</ele>
        <time>2000-01-01T19:25:39.000Z</time>
      </trkpt>
      <trkpt lat="45.88018" lon="6.23">
        <ele>761.2</ele>
        <time>2000-01-01T19:25:29.000Z</time>
      </trkpt>
      <trkpt lat="45.88012" lon="6.22989">
        <ele>762.7</ele>
        <time>2000-01-01T19:25:19.000Z</time>
      </trkpt>
      <trkpt lat="45.88008" lon="6.22986">
        <ele>763</ele>
        <time>2000-01-01T19:25:09.000Z</time>
      </trkpt>
      <trkpt lat="45.88003" lon="6.22984">
        <ele>764.6</ele>
        <time>2000-01-01T19:24:59.000Z</time>
      </trkpt>
      <trkpt lat="45.88001" lon="6.22989">
        <ele>764.6</ele>
        <time>2000-01-01T19:24:49.000Z</time>
      </trkpt>
      <trkpt lat="45.87999" lon="6.22993">
        <ele>764.7</ele>
        <time>2000-01-01T19:24:39.000Z</time>
      </trkpt>
      <trkpt lat="45.87997" lon="6.22997">
        <ele>764.9</ele>
        <time>2000-01-01T19:24:29.000Z</time>
      </trkpt>
      <trkpt lat="45.87996" lon="6.23">
        <ele>764</ele>
        <time>2000-01-01T19:24:19.000Z</time>
      </trkpt>
      <trkpt lat="45.87992" lon="6.23008">
        <ele>765.4</ele>
        <time>2000-01-01T19:24:09.000Z</time>
      </trkpt>
      <trkpt lat="45.87989" lon="6.23017">
        <ele>765.5</ele>
        <time>2000-01-01T19:23:59.000Z</time>
      </trkpt>
      <trkpt lat="45.87987" lon="6.23025">
        <ele>764</ele>
        <time>2000-01-01T19:23:49.000Z</time>
      </trkpt>
      <trkpt lat="45.87982" lon="6.23044">
        <ele>765.3</ele>
        <time>2000-01-01T19:23:39.000Z</time>
      </trkpt>
      <trkpt lat="45.87981" lon="6.23048">
        <ele>765.2</ele>
        <time>2000-01-01T19:23:29.000Z</time>
      </trkpt>
      <trkpt lat="45.87977" lon="6.23056">
        <ele>765.4</ele>
        <time>2000-01-01T19:23:19.000Z</time>
      </trkpt>
      <trkpt lat="45.87972" lon="6.23065">
        <ele>764</ele>
        <time>2000-01-01T19:23:09.000Z</time>
      </trkpt>
      <trkpt lat="45.87965" lon="6.23072">
        <ele>766.3</ele>
        <time>2000-01-01T19:22:59.000Z</time>
      </trkpt>
      <trkpt lat="45.87959" lon="6.2308">
        <ele>766.7</ele>
        <time>2000-01-01T19:22:49.000Z</time>
      </trkpt>
      <trkpt lat="45.87955" lon="6.23087">
        <ele>764</ele>
        <time>2000-01-01T19:22:39.000Z</time>
      </trkpt>
      <trkpt lat="45.87949" lon="6.23102">
        <ele>766.4</ele>
        <time>2000-01-01T19:22:29.000Z</time>
      </trkpt>
      <trkpt lat="45.87943" lon="6.23112">
        <ele>766.3</ele>
        <time>2000-01-01T19:22:19.000Z</time>
      </trkpt>
      <trkpt lat="45.8794" lon="6.23121">
        <ele>761</ele>
        <time>2000-01-01T19:22:09.000Z</time>
      </trkpt>
      <trkpt lat="45.87933" lon="6.23139">
        <ele>765.1</ele>
        <time>2000-01-01T19:21:59.000Z</time>
      </trkpt>
      <trkpt lat="45.8793" lon="6.23147">
        <ele>761</ele>
        <time>2000-01-01T19:21:49.000Z</time>
      </trkpt>
      <trkpt lat="45.87928" lon="6.23154">
        <ele>764.2</ele>
        <time>2000-01-01T19:21:39.000Z</time>
      </trkpt>
      <trkpt lat="45.87924" lon="6.23161">
        <ele>763.9</ele>
        <time>2000-01-01T19:21:29.000Z</time>
      </trkpt>
      <trkpt lat="45.87921" lon="6.23168">
        <ele>763.5</ele>
        <time>2000-01-01T19:21:19.000Z</time>
      </trkpt>
      <trkpt lat="45.87919" lon="6.23176">
        <ele>761</ele>
        <time>2000-01-01T19:21:09.000Z</time>
      </trkpt>
      <trkpt lat="45.87916" lon="6.23182">
        <ele>763.1</ele>
        <time>2000-01-01T19:20:59.000Z</time>
      </trkpt>
      <trkpt lat="45.87914" lon="6.23189">
        <ele>763.1</ele>
        <time>2000-01-01T19:20:49.000Z</time>
      </trkpt>
      <trkpt lat="45.87911" lon="6.23195">
        <ele>763.4</ele>
        <time>2000-01-01T19:20:39.000Z</time>
      </trkpt>
      <trkpt lat="45.87907" lon="6.23202">
        <ele>762</ele>
        <time>2000-01-01T19:20:29.000Z</time>
      </trkpt>
      <trkpt lat="45.87905" lon="6.23209">
        <ele>764</ele>
        <time>2000-01-01T19:20:19.000Z</time>
      </trkpt>
      <trkpt lat="45.87904" lon="6.23212">
        <ele>764.1</ele>
        <time>2000-01-01T19:20:09.000Z</time>
      </trkpt>
      <trkpt lat="45.87902" lon="6.23217">
        <ele>764.3</ele>
        <time>2000-01-01T19:19:59.000Z</time>
      </trkpt>
      <trkpt lat="45.87898" lon="6.23229">
        <ele>762</ele>
        <time>2000-01-01T19:19:49.000Z</time>
      </trkpt>
      <trkpt lat="45.87893" lon="6.23242">
        <ele>765.1</ele>
        <time>2000-01-01T19:19:39.000Z</time>
      </trkpt>
      <trkpt lat="45.8789" lon="6.23257">
        <ele>762</ele>
        <time>2000-01-01T19:19:29.000Z</time>
      </trkpt>
      <trkpt lat="45.87886" lon="6.23273">
        <ele>765.2</ele>
        <time>2000-01-01T19:19:19.000Z</time>
      </trkpt>
      <trkpt lat="45.87881" lon="6.23284">
        <ele>762</ele>
        <time>2000-01-01T19:19:09.000Z</time>
      </trkpt>
      <trkpt lat="45.87877" lon="6.233">
        <ele>766.2</ele>
        <time>2000-01-01T19:18:59.000Z</time>
      </trkpt>
      <trkpt lat="45.87872" lon="6.23312">
        <ele>762</ele>
        <time>2000-01-01T19:18:49.000Z</time>
      </trkpt>
      <trkpt lat="45.87868" lon="6.23324">
        <ele>767.5</ele>
        <time>2000-01-01T19:18:39.000Z</time>
      </trkpt>
      <trkpt lat="45.87862" lon="6.23337">
        <ele>764</ele>
        <time>2000-01-01T19:18:29.000Z</time>
      </trkpt>
      <trkpt lat="45.87858" lon="6.23352">
        <ele>769</ele>
        <time>2000-01-01T19:18:19.000Z</time>
      </trkpt>
      <trkpt lat="45.87853" lon="6.23364">
        <ele>766</ele>
        <time>2000-01-01T19:18:09.000Z</time>
      </trkpt>
      <trkpt lat="45.87847" lon="6.23379">
        <ele>770.7</ele>
        <time>2000-01-01T19:17:59.000Z</time>
      </trkpt>
      <trkpt lat="45.87839" lon="6.23388">
        <ele>768</ele>
        <time>2000-01-01T19:17:49.000Z</time>
      </trkpt>
      <trkpt lat="45.8783" lon="6.23396">
        <ele>774.2</ele>
        <time>2000-01-01T19:17:39.000Z</time>
      </trkpt>
      <trkpt lat="45.87823" lon="6.23404">
        <ele>770</ele>
        <time>2000-01-01T19:17:29.000Z</time>
      </trkpt>
      <trkpt lat="45.87816" lon="6.23417">
        <ele>777.2</ele>
        <time>2000-01-01T19:17:19.000Z</time>
      </trkpt>
      <trkpt lat="45.87813" lon="6.2343">
        <ele>770</ele>
        <time>2000-01-01T19:17:09.000Z</time>
      </trkpt>
      <trkpt lat="45.87808" lon="6.23443">
        <ele>779.4</ele>
        <time>2000-01-01T19:16:59.000Z</time>
      </trkpt>
      <trkpt lat="45.87806" lon="6.23456">
        <ele>768</ele>
        <time>2000-01-01T19:16:49.000Z</time>
      </trkpt>
      <trkpt lat="45.87804" lon="6.23474">
        <ele>780.6</ele>
        <time>2000-01-01T19:16:39.000Z</time>
      </trkpt>
      <trkpt lat="45.87805" lon="6.23491">
        <ele>767</ele>
        <time>2000-01-01T19:16:29.000Z</time>
      </trkpt>
      <trkpt lat="45.87809" lon="6.23505">
        <ele>779</ele>
        <time>2000-01-01T19:16:19.000Z</time>
      </trkpt>
      <trkpt lat="45.87814" lon="6.23522">
        <ele>764</ele>
        <time>2000-01-01T19:16:09.000Z</time>
      </trkpt>
      <trkpt lat="45.87818" lon="6.23538">
        <ele>776.9</ele>
        <time>2000-01-01T19:15:59.000Z</time>
      </trkpt>
      <trkpt lat="45.87821" lon="6.23554">
        <ele>764</ele>
        <time>2000-01-01T19:15:49.000Z</time>
      </trkpt>
      <trkpt lat="45.87828" lon="6.23565">
        <ele>773.7</ele>
        <time>2000-01-01T19:15:39.000Z</time>
      </trkpt>
      <trkpt lat="45.87834" lon="6.23575">
        <ele>763</ele>
        <time>2000-01-01T19:15:29.000Z</time>
      </trkpt>
      <trkpt lat="45.87839" lon="6.23589">
        <ele>770.3</ele>
        <time>2000-01-01T19:15:19.000Z</time>
      </trkpt>
      <trkpt lat="45.87843" lon="6.23601">
        <ele>763</ele>
        <time>2000-01-01T19:15:09.000Z</time>
      </trkpt>
      <trkpt lat="45.87846" lon="6.23617">
        <ele>768.1</ele>
        <time>2000-01-01T19:14:59.000Z</time>
      </trkpt>
      <trkpt lat="45.87847" lon="6.23634">
        <ele>763</ele>
        <time>2000-01-01T19:14:49.000Z</time>
      </trkpt>
      <trkpt lat="45.87846" lon="6.23651">
        <ele>767.9</ele>
        <time>2000-01-01T19:14:39.000Z</time>
      </trkpt>
      <trkpt lat="45.8784" lon="6.23665">
        <ele>769</ele>
        <time>2000-01-01T19:14:29.000Z</time>
      </trkpt>
      <trkpt lat="45.8783" lon="6.23676">
        <ele>773.8</ele>
        <time>2000-01-01T19:14:19.000Z</time>
      </trkpt>
      <trkpt lat="45.87819" lon="6.23685">
        <ele>771</ele>
        <time>2000-01-01T19:14:09.000Z</time>
      </trkpt>
      <trkpt lat="45.87808" lon="6.2369">
        <ele>783</ele>
        <time>2000-01-01T19:13:59.000Z</time>
      </trkpt>
      <trkpt lat="45.87798" lon="6.23691">
        <ele>786.9</ele>
        <time>2000-01-01T19:13:49.000Z</time>
      </trkpt>
      <trkpt lat="45.87792" lon="6.23691">
        <ele>771</ele>
        <time>2000-01-01T19:13:39.000Z</time>
      </trkpt>
      <trkpt lat="45.87775" lon="6.23689">
        <ele>795.9</ele>
        <time>2000-01-01T19:13:29.000Z</time>
      </trkpt>
      <trkpt lat="45.87763" lon="6.23689">
        <ele>771</ele>
        <time>2000-01-01T19:13:19.000Z</time>
      </trkpt>
      <trkpt lat="45.87756" lon="6.23701">
        <ele>802.7</ele>
        <time>2000-01-01T19:13:09.000Z</time>
      </trkpt>
      <trkpt lat="45.87757" lon="6.23715">
        <ele>773</ele>
        <time>2000-01-01T19:12:59.000Z</time>
      </trkpt>
      <trkpt lat="45.87764" lon="6.23728">
        <ele>798.6</ele>
        <time>2000-01-01T19:12:49.000Z</time>
      </trkpt>
      <trkpt lat="45.87773" lon="6.23733">
        <ele>773</ele>
        <time>2000-01-01T19:12:39.000Z</time>
      </trkpt>
      <trkpt lat="45.87783" lon="6.23739">
        <ele>791.9</ele>
        <time>2000-01-01T19:12:29.000Z</time>
      </trkpt>
      <trkpt lat="45.87791" lon="6.2375">
        <ele>773</ele>
        <time>2000-01-01T19:12:19.000Z</time>
      </trkpt>
      <trkpt lat="45.87795" lon="6.23763">
        <ele>789.6</ele>
        <time>2000-01-01T19:12:09.000Z</time>
      </trkpt>
      <trkpt lat="45.87895" lon="6.23741">
        <ele>756.7</ele>
      </trkpt>
      <trkpt lat="45.87917" lon="6.23752">
        <ele>750.9</ele>
        <time>2000-01-01T19:11:59.000Z</time>
      </trkpt>
      <trkpt lat="45.87948" lon="6.23767">
        <ele>737.5</ele>
      </trkpt>
      <trkpt lat="45.87958" lon="6.23711">
        <ele>732.4</ele>
      </trkpt>
      <trkpt lat="45.88028" lon="6.23801">
        <ele>704</ele>
      </trkpt>
      <trkpt lat="45.87999" lon="6.23899">
        <ele>705.4</ele>
      </trkpt>
      <trkpt lat="45.87947" lon="6.23993">
        <ele>723.6</ele>
      </trkpt>
      <trkpt lat="45.87908" lon="6.24075">
        <ele>733.2</ele>
        <time>2000-01-01T19:11:59.000Z</time>
      </trkpt>
      <trkpt lat="45.87964" lon="6.24089">
        <ele>737.5</ele>
      </trkpt>
      <trkpt lat="45.8807" lon="6.23991">
        <ele>732.3</ele>
      </trkpt>
      <trkpt lat="45.88125" lon="6.24079">
        <ele>748</ele>
      </trkpt>
      <trkpt lat="45.8817" lon="6.24079">
        <ele>749.3</ele>
      </trkpt>
      <trkpt lat="45.88195" lon="6.24141">
        <ele>761.1</ele>
      </trkpt>
      <trkpt lat="45.88251" lon="6.24187">
        <ele>770.2</ele>
      </trkpt>
      <trkpt lat="45.88265" lon="6.24231">
        <ele>778.4</ele>
      </trkpt>
      <trkpt lat="45.8818" lon="6.24339">
        <ele>819.4</ele>
      </trkpt>
      <trkpt lat="45.88149" lon="6.24499">
        <ele>849.2</ele>
      </trkpt>
      <trkpt lat="45.8811" lon="6.24652">
        <ele>896.2</ele>
      </trkpt>
      <trkpt lat="45.88054" lon="6.24724">
        <ele>915.3</ele>
      </trkpt>
      <trkpt lat="45.88088" lon="6.24756">
        <ele>936.2</ele>
      </trkpt>
      <trkpt lat="45.88054" lon="6.24784">
        <ele>941.3</ele>
      </trkpt>
      <trkpt lat="45.88124" lon="6.24812">
        <ele>967.3</ele>
      </trkpt>
      <trkpt lat="45.88071" lon="6.24838">
        <ele>971.2</ele>
      </trkpt>
      <trkpt lat="45.88049" lon="6.2492">
        <ele>1001.5</ele>
      </trkpt>
      <trkpt lat="45.88091" lon="6.24908">
        <ele>1009.7</ele>
      </trkpt>
      <trkpt lat="45.88008" lon="6.25068">
        <ele>1044.8</ele>
      </trkpt>
      <trkpt lat="45.88152" lon="6.2503">
        <ele>1086.2</ele>
      </trkpt>
      <trkpt lat="45.8823" lon="6.25064">
        <ele>1102.1</ele>
      </trkpt>
      <trkpt lat="45.8811" lon="6.25164">
        <ele>1132.4</ele>
      </trkpt>
      <trkpt lat="45.88194" lon="6.25168">
        <ele>1144.6</ele>
      </trkpt>
      <trkpt lat="45.8817" lon="6.25348">
        <ele>1192</ele>
      </trkpt>
      <trkpt lat="45.88074" lon="6.2533">
        <ele>1196.9</ele>
      </trkpt>
      <trkpt lat="45.87992" lon="6.25512">
        <ele>1227</ele>
      </trkpt>
      <trkpt lat="45.88003" lon="6.25633">
        <ele>1250.1</ele>
      </trkpt>
      <trkpt lat="45.88061" lon="6.25657">
        <ele>1255.6</ele>
      </trkpt>
      <trkpt lat="45.88052" lon="6.25721">
        <ele>1271.1</ele>
      </trkpt>
      <trkpt lat="45.88007" lon="6.25749">
        <ele>1294.8</ele>
      </trkpt>
      <trkpt lat="45.88022" lon="6.25767">
        <ele>1296.8</ele>
      </trkpt>
      <trkpt lat="45.8801" lon="6.25801">
        <ele>1317.5</ele>
      </trkpt>
      <trkpt lat="45.87801" lon="6.25811">
        <ele>1372</ele>
      </trkpt>
      <trkpt lat="45.87893" lon="6.25925">
        <ele>1395.9</ele>
      </trkpt>
      <trkpt lat="45.87802" lon="6.25955">
        <ele>1420</ele>
      </trkpt>
      <trkpt lat="45.87819" lon="6.26021">
        <ele>1430.3</ele>
      </trkpt>
      <trkpt lat="45.87802" lon="6.26077">
        <ele>1435.4</ele>
      </trkpt>
      <trkpt lat="45.87731" lon="6.26049">
        <ele>1451.8</ele>
      </trkpt>
      <trkpt lat="45.87757" lon="6.26107">
        <ele>1448.5</ele>
      </trkpt>
      <trkpt lat="45.87766" lon="6.26173">
        <ele>1444.2</ele>
      </trkpt>
      <trkpt lat="45.87679" lon="6.26295">
        <ele>1458.5</ele>
      </trkpt>
      <trkpt lat="45.8758" lon="6.26425">
        <ele>1518.5</ele>
      </trkpt>
      <trkpt lat="45.87608" lon="6.26427">
        <ele>1495.5</ele>
      </trkpt>
      <trkpt lat="45.87629" lon="6.26491">
        <ele>1498.9</ele>
      </trkpt>
      <trkpt lat="45.87675" lon="6.26602">
        <ele>1496.9</ele>
      </trkpt>
      <trkpt lat="45.87742" lon="6.26712">
        <ele>1484</ele>
      </trkpt>
      <trkpt lat="45.87502" lon="6.26553">
        <ele>1545.3</ele>
      </trkpt>
      <trkpt lat="45.87495" lon="6.26602">
        <ele>1500.9</ele>
      </trkpt>
      <trkpt lat="45.87526" lon="6.2665">
        <ele>1474.4</ele>
      </trkpt>
      <trkpt lat="45.8749" lon="6.26662">
        <ele>1454.9</ele>
      </trkpt>
      <trkpt lat="45.87454" lon="6.2678">
        <ele>1398.2</ele>
      </trkpt>
      <trkpt lat="45.8736" lon="6.26688">
        <ele>1436.4</ele>
      </trkpt>
      <trkpt lat="45.87256" lon="6.26664">
        <ele>1441.3</ele>
      </trkpt>
      <trkpt lat="45.87476" lon="6.26996">
        <ele>1392.1</ele>
      </trkpt>
      <trkpt lat="45.87835" lon="6.27729">
        <ele>1384.2</ele>
      </trkpt>
      <trkpt lat="45.87371" lon="6.27448">
        <ele>1499.9</ele>
      </trkpt>
      <trkpt lat="45.87318" lon="6.27362">
        <ele>1507</ele>
      </trkpt>
      <trkpt lat="45.87307" lon="6.27228">
        <ele>1499.5</ele>
      </trkpt>
      <trkpt lat="45.87219" lon="6.27178">
        <ele>1451.4</ele>
      </trkpt>
      <trkpt lat="45.87143" lon="6.27088">
        <ele>1444.1</ele>
      </trkpt>
      <trkpt lat="45.86992" lon="6.27208">
        <ele>1427.9</ele>
      </trkpt>
      <trkpt lat="45.8689" lon="6.2704">
        <ele>1466.3</ele>
      </trkpt>
      <trkpt lat="45.86524" lon="6.26954">
        <ele>1520.9</ele>
        <time>2000-01-01T19:11:59.000Z</time>
      </trkpt>
      <trkpt lat="45.86524" lon="6.26954">
        <ele>1520.9</ele>
        <time>2000-01-01T19:11:59.000Z</time>
      </trkpt>
    </trkseg>
  </trk>
</gpx>